<?xml version="1.0" encoding="UTF-8" standalone="no" ?>
<gpx xmlns="http://www.topografix.com/GPX/1/1" xmlns:xsi="http://www.w3.org/2001/XMLSchema-instance" xsi:schemaLocation="http://www.topografix.com/GPX/1/1 http://www.topografix.com/GPX/1/1/gpx.xsd" version="1.1" creator="VisuGPX - https://www.visugpx.com">
  <metadata>
    <name>mouzillon 09-08-18</name>
    <desc><![CDATA[[b]33333333333333333333333333333333333333333333333333333[/b]]]></desc>
  </metadata>
  <trk>
    <name><![CDATA[Gétigné Course à pied]]></name>
    <trkseg>
      <trkpt lat="47.08686" lon="-1.26795">
        <ele>35.799999237061</ele>
        <time>2018-08-02T06:58:09.000Z</time>
      </trkpt>
      <trkpt lat="47.08695" lon="-1.2678">
        <ele>35.599998474121</ele>
        <time>2018-08-02T06:58:39.000Z</time>
      </trkpt>
      <trkpt lat="47.087" lon="-1.26774">
        <ele>35.599998474121</ele>
        <time>2018-08-02T06:58:45.000Z</time>
      </trkpt>
      <trkpt lat="47.08701" lon="-1.26772">
        <ele>35.599998474121</ele>
        <time>2018-08-02T06:58:47.000Z</time>
      </trkpt>
      <trkpt lat="47.08702" lon="-1.26769">
        <ele>35.400001525879</ele>
        <time>2018-08-02T06:58:49.000Z</time>
      </trkpt>
      <trkpt lat="47.08704" lon="-1.26766">
        <ele>35.400001525879</ele>
        <time>2018-08-02T06:58:52.000Z</time>
      </trkpt>
      <trkpt lat="47.08708" lon="-1.26754">
        <ele>35.200000762939</ele>
        <time>2018-08-02T06:59:28.000Z</time>
      </trkpt>
      <trkpt lat="47.0871" lon="-1.2675">
        <ele>35.200000762939</ele>
        <time>2018-08-02T06:59:31.000Z</time>
      </trkpt>
      <trkpt lat="47.08713" lon="-1.26745">
        <ele>35.200000762939</ele>
        <time>2018-08-02T06:59:35.000Z</time>
      </trkpt>
      <trkpt lat="47.08724" lon="-1.26724">
        <ele>34.799999237061</ele>
        <time>2018-08-02T06:59:51.000Z</time>
      </trkpt>
      <trkpt lat="47.08728" lon="-1.26715">
        <ele>35</ele>
        <time>2018-08-02T06:59:58.000Z</time>
      </trkpt>
      <trkpt lat="47.08729" lon="-1.26713">
        <ele>35</ele>
        <time>2018-08-02T06:59:59.000Z</time>
      </trkpt>
      <trkpt lat="47.08738" lon="-1.26699">
        <ele>35.200000762939</ele>
        <time>2018-08-02T07:00:11.000Z</time>
      </trkpt>
      <trkpt lat="47.08739" lon="-1.26696">
        <ele>35.400001525879</ele>
        <time>2018-08-02T07:00:13.000Z</time>
      </trkpt>
      <trkpt lat="47.08748" lon="-1.26682">
        <ele>35.400001525879</ele>
        <time>2018-08-02T07:00:25.000Z</time>
      </trkpt>
      <trkpt lat="47.08749" lon="-1.26681">
        <ele>35.400001525879</ele>
        <time>2018-08-02T07:00:26.000Z</time>
      </trkpt>
      <trkpt lat="47.08752" lon="-1.26675">
        <ele>35.599998474121</ele>
        <time>2018-08-02T07:00:30.000Z</time>
      </trkpt>
      <trkpt lat="47.08753" lon="-1.26672">
        <ele>35.599998474121</ele>
        <time>2018-08-02T07:00:32.000Z</time>
      </trkpt>
      <trkpt lat="47.08758" lon="-1.26664">
        <ele>35.599998474121</ele>
        <time>2018-08-02T07:00:38.000Z</time>
      </trkpt>
      <trkpt lat="47.08759" lon="-1.26662">
        <ele>35.599998474121</ele>
        <time>2018-08-02T07:00:39.000Z</time>
      </trkpt>
      <trkpt lat="47.0877" lon="-1.26639">
        <ele>36</ele>
        <time>2018-08-02T07:00:54.000Z</time>
      </trkpt>
      <trkpt lat="47.08777" lon="-1.26629">
        <ele>36.200000762939</ele>
        <time>2018-08-02T07:01:02.000Z</time>
      </trkpt>
      <trkpt lat="47.08778" lon="-1.26628">
        <ele>36.200000762939</ele>
        <time>2018-08-02T07:01:03.000Z</time>
      </trkpt>
      <trkpt lat="47.08791" lon="-1.26609">
        <ele>36.599998474121</ele>
        <time>2018-08-02T07:01:18.000Z</time>
      </trkpt>
      <trkpt lat="47.08803" lon="-1.26591">
        <ele>36.799999237061</ele>
        <time>2018-08-02T07:01:34.000Z</time>
      </trkpt>
      <trkpt lat="47.08803" lon="-1.2659">
        <ele>36.799999237061</ele>
        <time>2018-08-02T07:01:35.000Z</time>
      </trkpt>
      <trkpt lat="47.08817" lon="-1.26572">
        <ele>37</ele>
        <time>2018-08-02T07:01:50.000Z</time>
      </trkpt>
      <trkpt lat="47.08832" lon="-1.26555">
        <ele>36.799999237061</ele>
        <time>2018-08-02T07:02:05.000Z</time>
      </trkpt>
      <trkpt lat="47.08834" lon="-1.26553">
        <ele>36.799999237061</ele>
        <time>2018-08-02T07:02:07.000Z</time>
      </trkpt>
      <trkpt lat="47.08838" lon="-1.26548">
        <ele>36.799999237061</ele>
        <time>2018-08-02T07:02:11.000Z</time>
      </trkpt>
      <trkpt lat="47.08841" lon="-1.26544">
        <ele>36.599998474121</ele>
        <time>2018-08-02T07:02:14.000Z</time>
      </trkpt>
      <trkpt lat="47.08845" lon="-1.26538">
        <ele>36.599998474121</ele>
        <time>2018-08-02T07:02:18.000Z</time>
      </trkpt>
      <trkpt lat="47.08846" lon="-1.26537">
        <ele>36.599998474121</ele>
        <time>2018-08-02T07:02:19.000Z</time>
      </trkpt>
      <trkpt lat="47.0885" lon="-1.26531">
        <ele>36.599998474121</ele>
        <time>2018-08-02T07:02:23.000Z</time>
      </trkpt>
      <trkpt lat="47.08851" lon="-1.2653">
        <ele>36.599998474121</ele>
        <time>2018-08-02T07:02:24.000Z</time>
      </trkpt>
      <trkpt lat="47.08863" lon="-1.2651">
        <ele>36.400001525879</ele>
        <time>2018-08-02T07:02:38.000Z</time>
      </trkpt>
      <trkpt lat="47.08864" lon="-1.26509">
        <ele>36.400001525879</ele>
        <time>2018-08-02T07:02:39.000Z</time>
      </trkpt>
      <trkpt lat="47.08873" lon="-1.2649">
        <ele>36.200000762939</ele>
        <time>2018-08-02T07:02:52.000Z</time>
      </trkpt>
      <trkpt lat="47.08875" lon="-1.26487">
        <ele>36.200000762939</ele>
        <time>2018-08-02T07:02:54.000Z</time>
      </trkpt>
      <trkpt lat="47.08885" lon="-1.26464">
        <ele>36</ele>
        <time>2018-08-02T07:03:09.000Z</time>
      </trkpt>
      <trkpt lat="47.08887" lon="-1.26461">
        <ele>36</ele>
        <time>2018-08-02T07:03:11.000Z</time>
      </trkpt>
      <trkpt lat="47.08888" lon="-1.2646">
        <ele>36</ele>
        <time>2018-08-02T07:03:12.000Z</time>
      </trkpt>
      <trkpt lat="47.08896" lon="-1.26443">
        <ele>36</ele>
        <time>2018-08-02T07:03:23.000Z</time>
      </trkpt>
      <trkpt lat="47.08897" lon="-1.26442">
        <ele>36</ele>
        <time>2018-08-02T07:03:24.000Z</time>
      </trkpt>
      <trkpt lat="47.08906" lon="-1.26424">
        <ele>35.799999237061</ele>
        <time>2018-08-02T07:03:36.000Z</time>
      </trkpt>
      <trkpt lat="47.08907" lon="-1.26423">
        <ele>35.799999237061</ele>
        <time>2018-08-02T07:03:37.000Z</time>
      </trkpt>
      <trkpt lat="47.0891" lon="-1.26416">
        <ele>35.799999237061</ele>
        <time>2018-08-02T07:03:42.000Z</time>
      </trkpt>
      <trkpt lat="47.08912" lon="-1.26413">
        <ele>35.599998474121</ele>
        <time>2018-08-02T07:03:44.000Z</time>
      </trkpt>
      <trkpt lat="47.08914" lon="-1.26409">
        <ele>35.400001525879</ele>
        <time>2018-08-02T07:03:47.000Z</time>
      </trkpt>
      <trkpt lat="47.08918" lon="-1.264">
        <ele>35.200000762939</ele>
        <time>2018-08-02T07:03:53.000Z</time>
      </trkpt>
      <trkpt lat="47.08919" lon="-1.26398">
        <ele>35.200000762939</ele>
        <time>2018-08-02T07:03:54.000Z</time>
      </trkpt>
      <trkpt lat="47.08921" lon="-1.26394">
        <ele>35</ele>
        <time>2018-08-02T07:03:57.000Z</time>
      </trkpt>
      <trkpt lat="47.08923" lon="-1.26388">
        <ele>35</ele>
        <time>2018-08-02T07:04:01.000Z</time>
      </trkpt>
      <trkpt lat="47.08931" lon="-1.26364">
        <ele>34.799999237061</ele>
        <time>2018-08-02T07:04:16.000Z</time>
      </trkpt>
      <trkpt lat="47.08938" lon="-1.26339">
        <ele>34.599998474121</ele>
        <time>2018-08-02T07:04:30.000Z</time>
      </trkpt>
      <trkpt lat="47.08939" lon="-1.26336">
        <ele>34.599998474121</ele>
        <time>2018-08-02T07:04:32.000Z</time>
      </trkpt>
      <trkpt lat="47.08939" lon="-1.26334">
        <ele>34.599998474121</ele>
        <time>2018-08-02T07:04:33.000Z</time>
      </trkpt>
      <trkpt lat="47.08943" lon="-1.2632">
        <ele>34.599998474121</ele>
        <time>2018-08-02T07:04:41.000Z</time>
      </trkpt>
      <trkpt lat="47.08944" lon="-1.26318">
        <ele>34.400001525879</ele>
        <time>2018-08-02T07:04:42.000Z</time>
      </trkpt>
      <trkpt lat="47.08945" lon="-1.26315">
        <ele>34.400001525879</ele>
        <time>2018-08-02T07:04:44.000Z</time>
      </trkpt>
      <trkpt lat="47.08949" lon="-1.26299">
        <ele>34.200000762939</ele>
        <time>2018-08-02T07:04:53.000Z</time>
      </trkpt>
      <trkpt lat="47.0895" lon="-1.26297">
        <ele>34.200000762939</ele>
        <time>2018-08-02T07:04:54.000Z</time>
      </trkpt>
      <trkpt lat="47.08954" lon="-1.26283">
        <ele>33.799999237061</ele>
        <time>2018-08-02T07:05:02.000Z</time>
      </trkpt>
      <trkpt lat="47.08954" lon="-1.26282">
        <ele>33.799999237061</ele>
        <time>2018-08-02T07:05:03.000Z</time>
      </trkpt>
      <trkpt lat="47.0896" lon="-1.26261">
        <ele>33.400001525879</ele>
        <time>2018-08-02T07:05:15.000Z</time>
      </trkpt>
      <trkpt lat="47.0896" lon="-1.26259">
        <ele>33.400001525879</ele>
        <time>2018-08-02T07:05:16.000Z</time>
      </trkpt>
      <trkpt lat="47.08961" lon="-1.26254">
        <ele>33.200000762939</ele>
        <time>2018-08-02T07:05:19.000Z</time>
      </trkpt>
      <trkpt lat="47.08969" lon="-1.2623">
        <ele>32.400001525879</ele>
        <time>2018-08-02T07:05:33.000Z</time>
      </trkpt>
      <trkpt lat="47.08972" lon="-1.26218">
        <ele>32.200000762939</ele>
        <time>2018-08-02T07:05:39.000Z</time>
      </trkpt>
      <trkpt lat="47.08973" lon="-1.26217">
        <ele>32.200000762939</ele>
        <time>2018-08-02T07:05:40.000Z</time>
      </trkpt>
      <trkpt lat="47.08975" lon="-1.26207">
        <ele>32.200000762939</ele>
        <time>2018-08-02T07:05:46.000Z</time>
      </trkpt>
      <trkpt lat="47.08975" lon="-1.26205">
        <ele>32</ele>
        <time>2018-08-02T07:05:47.000Z</time>
      </trkpt>
      <trkpt lat="47.08979" lon="-1.26178">
        <ele>31.799999237061</ele>
        <time>2018-08-02T07:06:03.000Z</time>
      </trkpt>
      <trkpt lat="47.08985" lon="-1.26154">
        <ele>31.39999961853</ele>
        <time>2018-08-02T07:06:17.000Z</time>
      </trkpt>
      <trkpt lat="47.08995" lon="-1.26134">
        <ele>30.799999237061</ele>
        <time>2018-08-02T07:06:32.000Z</time>
      </trkpt>
      <trkpt lat="47.08995" lon="-1.26132">
        <ele>30.799999237061</ele>
        <time>2018-08-02T07:06:33.000Z</time>
      </trkpt>
      <trkpt lat="47.08997" lon="-1.26125">
        <ele>30.60000038147</ele>
        <time>2018-08-02T07:06:37.000Z</time>
      </trkpt>
      <trkpt lat="47.09007" lon="-1.26104">
        <ele>29.200000762939</ele>
        <time>2018-08-02T07:06:50.000Z</time>
      </trkpt>
      <trkpt lat="47.09014" lon="-1.2608">
        <ele>28.39999961853</ele>
        <time>2018-08-02T07:07:05.000Z</time>
      </trkpt>
      <trkpt lat="47.09024" lon="-1.26056">
        <ele>27.200000762939</ele>
        <time>2018-08-02T07:07:20.000Z</time>
      </trkpt>
      <trkpt lat="47.09025" lon="-1.26053">
        <ele>27.200000762939</ele>
        <time>2018-08-02T07:07:22.000Z</time>
      </trkpt>
      <trkpt lat="47.09026" lon="-1.26051">
        <ele>27.200000762939</ele>
        <time>2018-08-02T07:07:23.000Z</time>
      </trkpt>
      <trkpt lat="47.09034" lon="-1.26036">
        <ele>26.799999237061</ele>
        <time>2018-08-02T07:07:32.000Z</time>
      </trkpt>
      <trkpt lat="47.09035" lon="-1.26035">
        <ele>26.799999237061</ele>
        <time>2018-08-02T07:07:33.000Z</time>
      </trkpt>
      <trkpt lat="47.09041" lon="-1.26022">
        <ele>26.39999961853</ele>
        <time>2018-08-02T07:07:41.000Z</time>
      </trkpt>
      <trkpt lat="47.09041" lon="-1.2602">
        <ele>26.60000038147</ele>
        <time>2018-08-02T07:07:42.000Z</time>
      </trkpt>
      <trkpt lat="47.09045" lon="-1.26005">
        <ele>26.60000038147</ele>
        <time>2018-08-02T07:07:50.000Z</time>
      </trkpt>
      <trkpt lat="47.09045" lon="-1.26004">
        <ele>26.60000038147</ele>
        <time>2018-08-02T07:07:51.000Z</time>
      </trkpt>
      <trkpt lat="47.09054" lon="-1.25979">
        <ele>26</ele>
        <time>2018-08-02T07:08:06.000Z</time>
      </trkpt>
      <trkpt lat="47.09062" lon="-1.25955">
        <ele>26.39999961853</ele>
        <time>2018-08-02T07:08:20.000Z</time>
      </trkpt>
      <trkpt lat="47.09065" lon="-1.25929">
        <ele>27.39999961853</ele>
        <time>2018-08-02T07:08:35.000Z</time>
      </trkpt>
      <trkpt lat="47.09071" lon="-1.25902">
        <ele>28.39999961853</ele>
        <time>2018-08-02T07:08:49.000Z</time>
      </trkpt>
      <trkpt lat="47.09071" lon="-1.259">
        <ele>28.39999961853</ele>
        <time>2018-08-02T07:08:50.000Z</time>
      </trkpt>
      <trkpt lat="47.09077" lon="-1.25877">
        <ele>28</ele>
        <time>2018-08-02T07:09:04.000Z</time>
      </trkpt>
      <trkpt lat="47.09078" lon="-1.25875">
        <ele>27.799999237061</ele>
        <time>2018-08-02T07:09:05.000Z</time>
      </trkpt>
      <trkpt lat="47.09087" lon="-1.25853">
        <ele>26.799999237061</ele>
        <time>2018-08-02T07:09:19.000Z</time>
      </trkpt>
      <trkpt lat="47.09096" lon="-1.2583">
        <ele>25.799999237061</ele>
        <time>2018-08-02T07:09:33.000Z</time>
      </trkpt>
      <trkpt lat="47.09103" lon="-1.25811">
        <ele>25.200000762939</ele>
        <time>2018-08-02T07:09:45.000Z</time>
      </trkpt>
      <trkpt lat="47.09103" lon="-1.25809">
        <ele>25.200000762939</ele>
        <time>2018-08-02T07:09:46.000Z</time>
      </trkpt>
      <trkpt lat="47.09115" lon="-1.25791">
        <ele>24.799999237061</ele>
        <time>2018-08-02T07:09:58.000Z</time>
      </trkpt>
      <trkpt lat="47.09116" lon="-1.25789">
        <ele>24.799999237061</ele>
        <time>2018-08-02T07:09:59.000Z</time>
      </trkpt>
      <trkpt lat="47.09127" lon="-1.25768">
        <ele>24.60000038147</ele>
        <time>2018-08-02T07:10:12.000Z</time>
      </trkpt>
      <trkpt lat="47.09134" lon="-1.25756">
        <ele>24.39999961853</ele>
        <time>2018-08-02T07:10:20.000Z</time>
      </trkpt>
      <trkpt lat="47.09136" lon="-1.25755">
        <ele>24.39999961853</ele>
        <time>2018-08-02T07:10:21.000Z</time>
      </trkpt>
      <trkpt lat="47.09147" lon="-1.25736">
        <ele>23.799999237061</ele>
        <time>2018-08-02T07:10:34.000Z</time>
      </trkpt>
      <trkpt lat="47.09149" lon="-1.25733">
        <ele>23.799999237061</ele>
        <time>2018-08-02T07:10:36.000Z</time>
      </trkpt>
      <trkpt lat="47.09158" lon="-1.25718">
        <ele>23.799999237061</ele>
        <time>2018-08-02T07:10:47.000Z</time>
      </trkpt>
      <trkpt lat="47.09158" lon="-1.25717">
        <ele>23.799999237061</ele>
        <time>2018-08-02T07:10:48.000Z</time>
      </trkpt>
      <trkpt lat="47.0916" lon="-1.25714">
        <ele>23.799999237061</ele>
        <time>2018-08-02T07:10:50.000Z</time>
      </trkpt>
      <trkpt lat="47.09163" lon="-1.2571">
        <ele>23.799999237061</ele>
        <time>2018-08-02T07:10:53.000Z</time>
      </trkpt>
      <trkpt lat="47.09171" lon="-1.25698">
        <ele>24.200000762939</ele>
        <time>2018-08-02T07:11:01.000Z</time>
      </trkpt>
      <trkpt lat="47.09172" lon="-1.25695">
        <ele>24.39999961853</ele>
        <time>2018-08-02T07:11:03.000Z</time>
      </trkpt>
      <trkpt lat="47.09185" lon="-1.25674">
        <ele>25</ele>
        <time>2018-08-02T07:11:17.000Z</time>
      </trkpt>
      <trkpt lat="47.09195" lon="-1.25652">
        <ele>25.799999237061</ele>
        <time>2018-08-02T07:11:31.000Z</time>
      </trkpt>
      <trkpt lat="47.09202" lon="-1.2564">
        <ele>26.200000762939</ele>
        <time>2018-08-02T07:11:39.000Z</time>
      </trkpt>
      <trkpt lat="47.09203" lon="-1.25639">
        <ele>26.200000762939</ele>
        <time>2018-08-02T07:11:40.000Z</time>
      </trkpt>
      <trkpt lat="47.0922" lon="-1.25625">
        <ele>26</ele>
        <time>2018-08-02T07:11:52.000Z</time>
      </trkpt>
      <trkpt lat="47.09222" lon="-1.25624">
        <ele>26</ele>
        <time>2018-08-02T07:11:53.000Z</time>
      </trkpt>
      <trkpt lat="47.0923" lon="-1.25617">
        <ele>26</ele>
        <time>2018-08-02T07:12:00.000Z</time>
      </trkpt>
      <trkpt lat="47.09232" lon="-1.25616">
        <ele>26</ele>
        <time>2018-08-02T07:12:01.000Z</time>
      </trkpt>
      <trkpt lat="47.09235" lon="-1.25612">
        <ele>26</ele>
        <time>2018-08-02T07:12:04.000Z</time>
      </trkpt>
      <trkpt lat="47.0924" lon="-1.25608">
        <ele>26</ele>
        <time>2018-08-02T07:12:08.000Z</time>
      </trkpt>
      <trkpt lat="47.09241" lon="-1.25607">
        <ele>26</ele>
        <time>2018-08-02T07:12:09.000Z</time>
      </trkpt>
      <trkpt lat="47.0925" lon="-1.25598">
        <ele>26.200000762939</ele>
        <time>2018-08-02T07:12:17.000Z</time>
      </trkpt>
      <trkpt lat="47.09251" lon="-1.25597">
        <ele>26.200000762939</ele>
        <time>2018-08-02T07:12:18.000Z</time>
      </trkpt>
      <trkpt lat="47.09266" lon="-1.25582">
        <ele>26.799999237061</ele>
        <time>2018-08-02T07:12:32.000Z</time>
      </trkpt>
      <trkpt lat="47.09271" lon="-1.25576">
        <ele>27</ele>
        <time>2018-08-02T07:12:37.000Z</time>
      </trkpt>
      <trkpt lat="47.09273" lon="-1.25575">
        <ele>27</ele>
        <time>2018-08-02T07:12:38.000Z</time>
      </trkpt>
      <trkpt lat="47.0928" lon="-1.25568">
        <ele>27.39999961853</ele>
        <time>2018-08-02T07:12:45.000Z</time>
      </trkpt>
      <trkpt lat="47.09281" lon="-1.25567">
        <ele>27.39999961853</ele>
        <time>2018-08-02T07:12:46.000Z</time>
      </trkpt>
      <trkpt lat="47.09284" lon="-1.25563">
        <ele>27.39999961853</ele>
        <time>2018-08-02T07:12:51.000Z</time>
      </trkpt>
      <trkpt lat="47.09285" lon="-1.25562">
        <ele>27.60000038147</ele>
        <time>2018-08-02T07:12:52.000Z</time>
      </trkpt>
      <trkpt lat="47.09289" lon="-1.25558">
        <ele>27.60000038147</ele>
        <time>2018-08-02T07:12:56.000Z</time>
      </trkpt>
      <trkpt lat="47.09291" lon="-1.25557">
        <ele>27.60000038147</ele>
        <time>2018-08-02T07:12:58.000Z</time>
      </trkpt>
      <trkpt lat="47.09306" lon="-1.25541">
        <ele>28</ele>
        <time>2018-08-02T07:13:13.000Z</time>
      </trkpt>
      <trkpt lat="47.09308" lon="-1.25539">
        <ele>28</ele>
        <time>2018-08-02T07:13:15.000Z</time>
      </trkpt>
      <trkpt lat="47.0931" lon="-1.25537">
        <ele>28.200000762939</ele>
        <time>2018-08-02T07:13:17.000Z</time>
      </trkpt>
      <trkpt lat="47.09316" lon="-1.25532">
        <ele>28.200000762939</ele>
        <time>2018-08-02T07:13:23.000Z</time>
      </trkpt>
      <trkpt lat="47.09317" lon="-1.25531">
        <ele>28.200000762939</ele>
        <time>2018-08-02T07:13:24.000Z</time>
      </trkpt>
      <trkpt lat="47.0932" lon="-1.25526">
        <ele>28.39999961853</ele>
        <time>2018-08-02T07:13:28.000Z</time>
      </trkpt>
      <trkpt lat="47.09321" lon="-1.25524">
        <ele>28.39999961853</ele>
        <time>2018-08-02T07:13:29.000Z</time>
      </trkpt>
      <trkpt lat="47.09326" lon="-1.25509">
        <ele>28.60000038147</ele>
        <time>2018-08-02T07:13:38.000Z</time>
      </trkpt>
      <trkpt lat="47.09326" lon="-1.25507">
        <ele>28.60000038147</ele>
        <time>2018-08-02T07:13:39.000Z</time>
      </trkpt>
      <trkpt lat="47.09331" lon="-1.25481">
        <ele>28.799999237061</ele>
        <time>2018-08-02T07:13:54.000Z</time>
      </trkpt>
      <trkpt lat="47.09332" lon="-1.25479">
        <ele>28.799999237061</ele>
        <time>2018-08-02T07:13:55.000Z</time>
      </trkpt>
      <trkpt lat="47.09333" lon="-1.25472">
        <ele>29</ele>
        <time>2018-08-02T07:13:59.000Z</time>
      </trkpt>
      <trkpt lat="47.09334" lon="-1.25465">
        <ele>29.39999961853</ele>
        <time>2018-08-02T07:14:03.000Z</time>
      </trkpt>
      <trkpt lat="47.0934" lon="-1.25439">
        <ele>30.39999961853</ele>
        <time>2018-08-02T07:14:19.000Z</time>
      </trkpt>
      <trkpt lat="47.09347" lon="-1.25413">
        <ele>31.39999961853</ele>
        <time>2018-08-02T07:14:34.000Z</time>
      </trkpt>
      <trkpt lat="47.09349" lon="-1.25403">
        <ele>31.799999237061</ele>
        <time>2018-08-02T07:14:40.000Z</time>
      </trkpt>
      <trkpt lat="47.09349" lon="-1.25402">
        <ele>32</ele>
        <time>2018-08-02T07:14:41.000Z</time>
      </trkpt>
      <trkpt lat="47.09357" lon="-1.25377">
        <ele>32.599998474121</ele>
        <time>2018-08-02T07:14:56.000Z</time>
      </trkpt>
      <trkpt lat="47.09362" lon="-1.25357">
        <ele>33</ele>
        <time>2018-08-02T07:15:08.000Z</time>
      </trkpt>
      <trkpt lat="47.09364" lon="-1.25351">
        <ele>33</ele>
        <time>2018-08-02T07:15:11.000Z</time>
      </trkpt>
      <trkpt lat="47.09369" lon="-1.25326">
        <ele>33.400001525879</ele>
        <time>2018-08-02T07:15:25.000Z</time>
      </trkpt>
      <trkpt lat="47.0937" lon="-1.25319">
        <ele>33.400001525879</ele>
        <time>2018-08-02T07:15:29.000Z</time>
      </trkpt>
      <trkpt lat="47.09371" lon="-1.25317">
        <ele>33.400001525879</ele>
        <time>2018-08-02T07:15:30.000Z</time>
      </trkpt>
      <trkpt lat="47.09372" lon="-1.25292">
        <ele>34.200000762939</ele>
        <time>2018-08-02T07:15:43.000Z</time>
      </trkpt>
      <trkpt lat="47.09372" lon="-1.2529">
        <ele>34.200000762939</ele>
        <time>2018-08-02T07:15:44.000Z</time>
      </trkpt>
      <trkpt lat="47.09372" lon="-1.25277">
        <ele>34.799999237061</ele>
        <time>2018-08-02T07:15:51.000Z</time>
      </trkpt>
      <trkpt lat="47.09373" lon="-1.25275">
        <ele>34.799999237061</ele>
        <time>2018-08-02T07:15:52.000Z</time>
      </trkpt>
      <trkpt lat="47.09373" lon="-1.25268">
        <ele>35</ele>
        <time>2018-08-02T07:15:56.000Z</time>
      </trkpt>
      <trkpt lat="47.09374" lon="-1.2524">
        <ele>35.400001525879</ele>
        <time>2018-08-02T07:16:11.000Z</time>
      </trkpt>
      <trkpt lat="47.09372" lon="-1.25217">
        <ele>35.799999237061</ele>
        <time>2018-08-02T07:16:24.000Z</time>
      </trkpt>
      <trkpt lat="47.09372" lon="-1.25215">
        <ele>35.799999237061</ele>
        <time>2018-08-02T07:16:25.000Z</time>
      </trkpt>
      <trkpt lat="47.09372" lon="-1.25203">
        <ele>35.799999237061</ele>
        <time>2018-08-02T07:16:31.000Z</time>
      </trkpt>
      <trkpt lat="47.09372" lon="-1.25202">
        <ele>35.799999237061</ele>
        <time>2018-08-02T07:16:32.000Z</time>
      </trkpt>
      <trkpt lat="47.09372" lon="-1.25194">
        <ele>36</ele>
        <time>2018-08-02T07:16:36.000Z</time>
      </trkpt>
      <trkpt lat="47.09371" lon="-1.25178">
        <ele>36.200000762939</ele>
        <time>2018-08-02T07:16:47.000Z</time>
      </trkpt>
      <trkpt lat="47.09371" lon="-1.25176">
        <ele>36.200000762939</ele>
        <time>2018-08-02T07:16:48.000Z</time>
      </trkpt>
      <trkpt lat="47.09371" lon="-1.2517">
        <ele>36.400001525879</ele>
        <time>2018-08-02T07:16:52.000Z</time>
      </trkpt>
      <trkpt lat="47.09371" lon="-1.25166">
        <ele>36.599998474121</ele>
        <time>2018-08-02T07:16:54.000Z</time>
      </trkpt>
      <trkpt lat="47.09371" lon="-1.25155">
        <ele>36.799999237061</ele>
        <time>2018-08-02T07:17:02.000Z</time>
      </trkpt>
      <trkpt lat="47.09372" lon="-1.25153">
        <ele>36.799999237061</ele>
        <time>2018-08-02T07:17:03.000Z</time>
      </trkpt>
      <trkpt lat="47.09372" lon="-1.2515">
        <ele>36.799999237061</ele>
        <time>2018-08-02T07:17:05.000Z</time>
      </trkpt>
      <trkpt lat="47.09373" lon="-1.25143">
        <ele>37</ele>
        <time>2018-08-02T07:17:09.000Z</time>
      </trkpt>
      <trkpt lat="47.09373" lon="-1.25141">
        <ele>37</ele>
        <time>2018-08-02T07:17:10.000Z</time>
      </trkpt>
      <trkpt lat="47.09375" lon="-1.25133">
        <ele>36.799999237061</ele>
        <time>2018-08-02T07:17:14.000Z</time>
      </trkpt>
      <trkpt lat="47.09375" lon="-1.25132">
        <ele>36.799999237061</ele>
        <time>2018-08-02T07:17:15.000Z</time>
      </trkpt>
      <trkpt lat="47.09379" lon="-1.25106">
        <ele>36.599998474121</ele>
        <time>2018-08-02T07:17:28.000Z</time>
      </trkpt>
      <trkpt lat="47.0938" lon="-1.25098">
        <ele>36.400001525879</ele>
        <time>2018-08-02T07:17:32.000Z</time>
      </trkpt>
      <trkpt lat="47.09381" lon="-1.25096">
        <ele>36.400001525879</ele>
        <time>2018-08-02T07:17:33.000Z</time>
      </trkpt>
      <trkpt lat="47.09383" lon="-1.25086">
        <ele>36.400001525879</ele>
        <time>2018-08-02T07:17:39.000Z</time>
      </trkpt>
      <trkpt lat="47.09383" lon="-1.25084">
        <ele>36.400001525879</ele>
        <time>2018-08-02T07:17:40.000Z</time>
      </trkpt>
      <trkpt lat="47.09389" lon="-1.25058">
        <ele>36</ele>
        <time>2018-08-02T07:17:54.000Z</time>
      </trkpt>
      <trkpt lat="47.09395" lon="-1.25034">
        <ele>35.200000762939</ele>
        <time>2018-08-02T07:18:08.000Z</time>
      </trkpt>
      <trkpt lat="47.09396" lon="-1.25032">
        <ele>35</ele>
        <time>2018-08-02T07:18:09.000Z</time>
      </trkpt>
      <trkpt lat="47.09399" lon="-1.2502">
        <ele>34.599998474121</ele>
        <time>2018-08-02T07:18:16.000Z</time>
      </trkpt>
      <trkpt lat="47.094" lon="-1.25017">
        <ele>34.400001525879</ele>
        <time>2018-08-02T07:18:18.000Z</time>
      </trkpt>
      <trkpt lat="47.09401" lon="-1.2501">
        <ele>34.200000762939</ele>
        <time>2018-08-02T07:18:22.000Z</time>
      </trkpt>
      <trkpt lat="47.09402" lon="-1.25009">
        <ele>34.200000762939</ele>
        <time>2018-08-02T07:18:23.000Z</time>
      </trkpt>
      <trkpt lat="47.09409" lon="-1.24983">
        <ele>33.200000762939</ele>
        <time>2018-08-02T07:18:38.000Z</time>
      </trkpt>
      <trkpt lat="47.09416" lon="-1.24958">
        <ele>32.799999237061</ele>
        <time>2018-08-02T07:18:53.000Z</time>
      </trkpt>
      <trkpt lat="47.09419" lon="-1.24939">
        <ele>32.799999237061</ele>
        <time>2018-08-02T07:19:04.000Z</time>
      </trkpt>
      <trkpt lat="47.09421" lon="-1.24935">
        <ele>32.799999237061</ele>
        <time>2018-08-02T07:19:06.000Z</time>
      </trkpt>
      <trkpt lat="47.09427" lon="-1.2491">
        <ele>32.599998474121</ele>
        <time>2018-08-02T07:19:20.000Z</time>
      </trkpt>
      <trkpt lat="47.09433" lon="-1.24884">
        <ele>32.599998474121</ele>
        <time>2018-08-02T07:19:35.000Z</time>
      </trkpt>
      <trkpt lat="47.09441" lon="-1.2486">
        <ele>32.599998474121</ele>
        <time>2018-08-02T07:19:50.000Z</time>
      </trkpt>
      <trkpt lat="47.09444" lon="-1.24851">
        <ele>32.599998474121</ele>
        <time>2018-08-02T07:19:55.000Z</time>
      </trkpt>
      <trkpt lat="47.09444" lon="-1.24849">
        <ele>32.599998474121</ele>
        <time>2018-08-02T07:19:56.000Z</time>
      </trkpt>
      <trkpt lat="47.09453" lon="-1.24825">
        <ele>32.200000762939</ele>
        <time>2018-08-02T07:20:11.000Z</time>
      </trkpt>
      <trkpt lat="47.09457" lon="-1.24815">
        <ele>32.200000762939</ele>
        <time>2018-08-02T07:20:17.000Z</time>
      </trkpt>
      <trkpt lat="47.09457" lon="-1.24813">
        <ele>32.200000762939</ele>
        <time>2018-08-02T07:20:18.000Z</time>
      </trkpt>
      <trkpt lat="47.09459" lon="-1.24807">
        <ele>32.200000762939</ele>
        <time>2018-08-02T07:20:22.000Z</time>
      </trkpt>
      <trkpt lat="47.0946" lon="-1.24805">
        <ele>32.200000762939</ele>
        <time>2018-08-02T07:20:23.000Z</time>
      </trkpt>
      <trkpt lat="47.09464" lon="-1.24791">
        <ele>32</ele>
        <time>2018-08-02T07:20:31.000Z</time>
      </trkpt>
      <trkpt lat="47.09465" lon="-1.24789">
        <ele>32</ele>
        <time>2018-08-02T07:20:32.000Z</time>
      </trkpt>
      <trkpt lat="47.09471" lon="-1.24763">
        <ele>32</ele>
        <time>2018-08-02T07:20:46.000Z</time>
      </trkpt>
      <trkpt lat="47.09459" lon="-1.24746">
        <ele>32.799999237061</ele>
        <time>2018-08-02T07:21:01.000Z</time>
      </trkpt>
      <trkpt lat="47.09458" lon="-1.24746">
        <ele>33</ele>
        <time>2018-08-02T07:21:02.000Z</time>
      </trkpt>
      <trkpt lat="47.09456" lon="-1.24745">
        <ele>33</ele>
        <time>2018-08-02T07:21:03.000Z</time>
      </trkpt>
      <trkpt lat="47.0945" lon="-1.24742">
        <ele>33.400001525879</ele>
        <time>2018-08-02T07:21:07.000Z</time>
      </trkpt>
      <trkpt lat="47.09448" lon="-1.24742">
        <ele>33.599998474121</ele>
        <time>2018-08-02T07:21:08.000Z</time>
      </trkpt>
      <trkpt lat="47.09431" lon="-1.24735">
        <ele>34.599998474121</ele>
        <time>2018-08-02T07:21:22.000Z</time>
      </trkpt>
      <trkpt lat="47.09428" lon="-1.24734">
        <ele>34.799999237061</ele>
        <time>2018-08-02T07:21:24.000Z</time>
      </trkpt>
      <trkpt lat="47.09427" lon="-1.24734">
        <ele>34.799999237061</ele>
        <time>2018-08-02T07:21:25.000Z</time>
      </trkpt>
      <trkpt lat="47.09422" lon="-1.24731">
        <ele>35.200000762939</ele>
        <time>2018-08-02T07:21:30.000Z</time>
      </trkpt>
      <trkpt lat="47.09419" lon="-1.2473">
        <ele>35.400001525879</ele>
        <time>2018-08-02T07:21:32.000Z</time>
      </trkpt>
      <trkpt lat="47.09403" lon="-1.2472">
        <ele>36.400001525879</ele>
        <time>2018-08-02T07:21:45.000Z</time>
      </trkpt>
      <trkpt lat="47.094" lon="-1.24718">
        <ele>36.599998474121</ele>
        <time>2018-08-02T07:21:48.000Z</time>
      </trkpt>
      <trkpt lat="47.09397" lon="-1.24715">
        <ele>36.799999237061</ele>
        <time>2018-08-02T07:21:51.000Z</time>
      </trkpt>
      <trkpt lat="47.09388" lon="-1.24709">
        <ele>37.200000762939</ele>
        <time>2018-08-02T07:21:59.000Z</time>
      </trkpt>
      <trkpt lat="47.09387" lon="-1.24708">
        <ele>37.400001525879</ele>
        <time>2018-08-02T07:22:00.000Z</time>
      </trkpt>
      <trkpt lat="47.09381" lon="-1.24704">
        <ele>37.599998474121</ele>
        <time>2018-08-02T07:22:05.000Z</time>
      </trkpt>
      <trkpt lat="47.09374" lon="-1.247">
        <ele>38</ele>
        <time>2018-08-02T07:22:11.000Z</time>
      </trkpt>
      <trkpt lat="47.09373" lon="-1.24699">
        <ele>38.200000762939</ele>
        <time>2018-08-02T07:22:13.000Z</time>
      </trkpt>
      <trkpt lat="47.0937" lon="-1.24696">
        <ele>38.400001525879</ele>
        <time>2018-08-02T07:22:17.000Z</time>
      </trkpt>
      <trkpt lat="47.09369" lon="-1.24695">
        <ele>38.400001525879</ele>
        <time>2018-08-02T07:22:18.000Z</time>
      </trkpt>
      <trkpt lat="47.09352" lon="-1.24683">
        <ele>38.799999237061</ele>
        <time>2018-08-02T07:22:33.000Z</time>
      </trkpt>
      <trkpt lat="47.09345" lon="-1.24677">
        <ele>39</ele>
        <time>2018-08-02T07:22:41.000Z</time>
      </trkpt>
      <trkpt lat="47.09336" lon="-1.2467">
        <ele>39</ele>
        <time>2018-08-02T07:22:48.000Z</time>
      </trkpt>
      <trkpt lat="47.09334" lon="-1.24669">
        <ele>39</ele>
        <time>2018-08-02T07:22:49.000Z</time>
      </trkpt>
      <trkpt lat="47.09318" lon="-1.24656">
        <ele>39.200000762939</ele>
        <time>2018-08-02T07:23:03.000Z</time>
      </trkpt>
      <trkpt lat="47.09306" lon="-1.24639">
        <ele>39.400001525879</ele>
        <time>2018-08-02T07:23:18.000Z</time>
      </trkpt>
      <trkpt lat="47.0931" lon="-1.24623">
        <ele>39.400001525879</ele>
        <time>2018-08-02T07:23:27.000Z</time>
      </trkpt>
      <trkpt lat="47.0931" lon="-1.24621">
        <ele>39.400001525879</ele>
        <time>2018-08-02T07:23:28.000Z</time>
      </trkpt>
      <trkpt lat="47.09317" lon="-1.24597">
        <ele>39.200000762939</ele>
        <time>2018-08-02T07:23:45.000Z</time>
      </trkpt>
      <trkpt lat="47.0932" lon="-1.2457">
        <ele>39.200000762939</ele>
        <time>2018-08-02T07:24:00.000Z</time>
      </trkpt>
      <trkpt lat="47.09322" lon="-1.24546">
        <ele>39.400001525879</ele>
        <time>2018-08-02T07:24:13.000Z</time>
      </trkpt>
      <trkpt lat="47.09322" lon="-1.24544">
        <ele>39.400001525879</ele>
        <time>2018-08-02T07:24:14.000Z</time>
      </trkpt>
      <trkpt lat="47.09325" lon="-1.24518">
        <ele>39.599998474121</ele>
        <time>2018-08-02T07:24:28.000Z</time>
      </trkpt>
      <trkpt lat="47.09326" lon="-1.24509">
        <ele>39.599998474121</ele>
        <time>2018-08-02T07:24:33.000Z</time>
      </trkpt>
      <trkpt lat="47.09327" lon="-1.24508">
        <ele>39.599998474121</ele>
        <time>2018-08-02T07:24:34.000Z</time>
      </trkpt>
      <trkpt lat="47.09327" lon="-1.24486">
        <ele>39.799999237061</ele>
        <time>2018-08-02T07:24:46.000Z</time>
      </trkpt>
      <trkpt lat="47.09327" lon="-1.24484">
        <ele>39.799999237061</ele>
        <time>2018-08-02T07:24:47.000Z</time>
      </trkpt>
      <trkpt lat="47.09328" lon="-1.24477">
        <ele>39.799999237061</ele>
        <time>2018-08-02T07:24:51.000Z</time>
      </trkpt>
      <trkpt lat="47.09328" lon="-1.24475">
        <ele>39.799999237061</ele>
        <time>2018-08-02T07:24:52.000Z</time>
      </trkpt>
      <trkpt lat="47.09328" lon="-1.24454">
        <ele>39.799999237061</ele>
        <time>2018-08-02T07:25:03.000Z</time>
      </trkpt>
      <trkpt lat="47.09328" lon="-1.24453">
        <ele>39.799999237061</ele>
        <time>2018-08-02T07:25:04.000Z</time>
      </trkpt>
      <trkpt lat="47.09324" lon="-1.24425">
        <ele>40.200000762939</ele>
        <time>2018-08-02T07:25:19.000Z</time>
      </trkpt>
      <trkpt lat="47.09324" lon="-1.24399">
        <ele>40.200000762939</ele>
        <time>2018-08-02T07:25:32.000Z</time>
      </trkpt>
      <trkpt lat="47.09324" lon="-1.24397">
        <ele>40.200000762939</ele>
        <time>2018-08-02T07:25:33.000Z</time>
      </trkpt>
      <trkpt lat="47.09326" lon="-1.2437">
        <ele>40.599998474121</ele>
        <time>2018-08-02T07:25:48.000Z</time>
      </trkpt>
      <trkpt lat="47.09326" lon="-1.24366">
        <ele>40.799999237061</ele>
        <time>2018-08-02T07:25:50.000Z</time>
      </trkpt>
      <trkpt lat="47.09326" lon="-1.24364">
        <ele>40.799999237061</ele>
        <time>2018-08-02T07:25:51.000Z</time>
      </trkpt>
      <trkpt lat="47.09327" lon="-1.24336">
        <ele>41.400001525879</ele>
        <time>2018-08-02T07:26:05.000Z</time>
      </trkpt>
      <trkpt lat="47.0933" lon="-1.2431">
        <ele>41.599998474121</ele>
        <time>2018-08-02T07:26:19.000Z</time>
      </trkpt>
      <trkpt lat="47.09331" lon="-1.24296">
        <ele>41.599998474121</ele>
        <time>2018-08-02T07:26:27.000Z</time>
      </trkpt>
      <trkpt lat="47.09332" lon="-1.24295">
        <ele>41.599998474121</ele>
        <time>2018-08-02T07:26:28.000Z</time>
      </trkpt>
      <trkpt lat="47.09334" lon="-1.24273">
        <ele>41.799999237061</ele>
        <time>2018-08-02T07:26:41.000Z</time>
      </trkpt>
      <trkpt lat="47.09334" lon="-1.24272">
        <ele>41.799999237061</ele>
        <time>2018-08-02T07:26:42.000Z</time>
      </trkpt>
      <trkpt lat="47.09338" lon="-1.24256">
        <ele>41.799999237061</ele>
        <time>2018-08-02T07:26:53.000Z</time>
      </trkpt>
      <trkpt lat="47.09339" lon="-1.2425">
        <ele>41.599998474121</ele>
        <time>2018-08-02T07:26:57.000Z</time>
      </trkpt>
      <trkpt lat="47.09341" lon="-1.24241">
        <ele>41.599998474121</ele>
        <time>2018-08-02T07:27:03.000Z</time>
      </trkpt>
      <trkpt lat="47.09341" lon="-1.24239">
        <ele>41.599998474121</ele>
        <time>2018-08-02T07:27:04.000Z</time>
      </trkpt>
      <trkpt lat="47.09344" lon="-1.24233">
        <ele>41.400001525879</ele>
        <time>2018-08-02T07:27:08.000Z</time>
      </trkpt>
      <trkpt lat="47.09344" lon="-1.24231">
        <ele>41.400001525879</ele>
        <time>2018-08-02T07:27:09.000Z</time>
      </trkpt>
      <trkpt lat="47.09353" lon="-1.24207">
        <ele>39.400001525879</ele>
        <time>2018-08-02T07:27:25.000Z</time>
      </trkpt>
      <trkpt lat="47.09355" lon="-1.2418">
        <ele>39.400001525879</ele>
        <time>2018-08-02T07:27:40.000Z</time>
      </trkpt>
      <trkpt lat="47.09356" lon="-1.24153">
        <ele>39.799999237061</ele>
        <time>2018-08-02T07:27:55.000Z</time>
      </trkpt>
      <trkpt lat="47.09358" lon="-1.24127">
        <ele>39.400001525879</ele>
        <time>2018-08-02T07:28:10.000Z</time>
      </trkpt>
      <trkpt lat="47.09361" lon="-1.24113">
        <ele>38.599998474121</ele>
        <time>2018-08-02T07:28:19.000Z</time>
      </trkpt>
      <trkpt lat="47.09362" lon="-1.24112">
        <ele>38.400001525879</ele>
        <time>2018-08-02T07:28:20.000Z</time>
      </trkpt>
      <trkpt lat="47.09362" lon="-1.24109">
        <ele>38.400001525879</ele>
        <time>2018-08-02T07:28:22.000Z</time>
      </trkpt>
      <trkpt lat="47.09361" lon="-1.24082">
        <ele>39.200000762939</ele>
        <time>2018-08-02T07:28:38.000Z</time>
      </trkpt>
      <trkpt lat="47.09358" lon="-1.24073">
        <ele>40</ele>
        <time>2018-08-02T07:28:42.000Z</time>
      </trkpt>
      <trkpt lat="47.09358" lon="-1.24071">
        <ele>40.200000762939</ele>
        <time>2018-08-02T07:28:43.000Z</time>
      </trkpt>
      <trkpt lat="47.09356" lon="-1.2406">
        <ele>41</ele>
        <time>2018-08-02T07:28:49.000Z</time>
      </trkpt>
      <trkpt lat="47.09356" lon="-1.24058">
        <ele>41.200000762939</ele>
        <time>2018-08-02T07:28:50.000Z</time>
      </trkpt>
      <trkpt lat="47.09354" lon="-1.24045">
        <ele>42.599998474121</ele>
        <time>2018-08-02T07:28:57.000Z</time>
      </trkpt>
      <trkpt lat="47.09353" lon="-1.2404">
        <ele>43</ele>
        <time>2018-08-02T07:29:00.000Z</time>
      </trkpt>
      <trkpt lat="47.09354" lon="-1.24019">
        <ele>43</ele>
        <time>2018-08-02T07:29:12.000Z</time>
      </trkpt>
      <trkpt lat="47.09354" lon="-1.24017">
        <ele>43</ele>
        <time>2018-08-02T07:29:13.000Z</time>
      </trkpt>
      <trkpt lat="47.09353" lon="-1.24009">
        <ele>42.799999237061</ele>
        <time>2018-08-02T07:29:17.000Z</time>
      </trkpt>
      <trkpt lat="47.09353" lon="-1.24007">
        <ele>43</ele>
        <time>2018-08-02T07:29:18.000Z</time>
      </trkpt>
      <trkpt lat="47.09354" lon="-1.24002">
        <ele>42.799999237061</ele>
        <time>2018-08-02T07:29:21.000Z</time>
      </trkpt>
      <trkpt lat="47.09355" lon="-1.23975">
        <ele>42.599998474121</ele>
        <time>2018-08-02T07:29:36.000Z</time>
      </trkpt>
      <trkpt lat="47.09359" lon="-1.2395">
        <ele>45</ele>
        <time>2018-08-02T07:29:51.000Z</time>
      </trkpt>
      <trkpt lat="47.09367" lon="-1.23926">
        <ele>45.400001525879</ele>
        <time>2018-08-02T07:30:06.000Z</time>
      </trkpt>
      <trkpt lat="47.09371" lon="-1.2391">
        <ele>45.400001525879</ele>
        <time>2018-08-02T07:30:16.000Z</time>
      </trkpt>
      <trkpt lat="47.09371" lon="-1.23908">
        <ele>45.400001525879</ele>
        <time>2018-08-02T07:30:17.000Z</time>
      </trkpt>
      <trkpt lat="47.09379" lon="-1.23883">
        <ele>46.200000762939</ele>
        <time>2018-08-02T07:30:32.000Z</time>
      </trkpt>
      <trkpt lat="47.09386" lon="-1.23858">
        <ele>47.400001525879</ele>
        <time>2018-08-02T07:30:47.000Z</time>
      </trkpt>
      <trkpt lat="47.09391" lon="-1.23832">
        <ele>49</ele>
        <time>2018-08-02T07:31:02.000Z</time>
      </trkpt>
      <trkpt lat="47.09394" lon="-1.23817">
        <ele>49.200000762939</ele>
        <time>2018-08-02T07:31:10.000Z</time>
      </trkpt>
      <trkpt lat="47.09394" lon="-1.23815">
        <ele>49.200000762939</ele>
        <time>2018-08-02T07:31:11.000Z</time>
      </trkpt>
      <trkpt lat="47.09397" lon="-1.23789">
        <ele>49.200000762939</ele>
        <time>2018-08-02T07:31:26.000Z</time>
      </trkpt>
      <trkpt lat="47.09398" lon="-1.23786">
        <ele>49.200000762939</ele>
        <time>2018-08-02T07:31:28.000Z</time>
      </trkpt>
      <trkpt lat="47.09398" lon="-1.23784">
        <ele>49.200000762939</ele>
        <time>2018-08-02T07:31:29.000Z</time>
      </trkpt>
      <trkpt lat="47.09399" lon="-1.23777">
        <ele>49.200000762939</ele>
        <time>2018-08-02T07:31:34.000Z</time>
      </trkpt>
      <trkpt lat="47.09398" lon="-1.23776">
        <ele>49.200000762939</ele>
        <time>2018-08-02T07:31:35.000Z</time>
      </trkpt>
      <trkpt lat="47.09399" lon="-1.23772">
        <ele>49.200000762939</ele>
        <time>2018-08-02T07:31:38.000Z</time>
      </trkpt>
      <trkpt lat="47.09402" lon="-1.23754">
        <ele>49</ele>
        <time>2018-08-02T07:31:49.000Z</time>
      </trkpt>
      <trkpt lat="47.09402" lon="-1.23753">
        <ele>49</ele>
        <time>2018-08-02T07:31:50.000Z</time>
      </trkpt>
      <trkpt lat="47.09403" lon="-1.23748">
        <ele>49</ele>
        <time>2018-08-02T07:31:53.000Z</time>
      </trkpt>
      <trkpt lat="47.09406" lon="-1.23737">
        <ele>49</ele>
        <time>2018-08-02T07:31:59.000Z</time>
      </trkpt>
      <trkpt lat="47.09407" lon="-1.23736">
        <ele>49</ele>
        <time>2018-08-02T07:32:00.000Z</time>
      </trkpt>
      <trkpt lat="47.0941" lon="-1.23721">
        <ele>49</ele>
        <time>2018-08-02T07:32:08.000Z</time>
      </trkpt>
      <trkpt lat="47.0941" lon="-1.2372">
        <ele>49</ele>
        <time>2018-08-02T07:32:09.000Z</time>
      </trkpt>
      <trkpt lat="47.09411" lon="-1.23714">
        <ele>49</ele>
        <time>2018-08-02T07:32:12.000Z</time>
      </trkpt>
      <trkpt lat="47.09412" lon="-1.23711">
        <ele>49</ele>
        <time>2018-08-02T07:32:14.000Z</time>
      </trkpt>
      <trkpt lat="47.09416" lon="-1.23694">
        <ele>48.799999237061</ele>
        <time>2018-08-02T07:32:24.000Z</time>
      </trkpt>
      <trkpt lat="47.09416" lon="-1.23692">
        <ele>48.799999237061</ele>
        <time>2018-08-02T07:32:25.000Z</time>
      </trkpt>
      <trkpt lat="47.09418" lon="-1.23682">
        <ele>48.799999237061</ele>
        <time>2018-08-02T07:32:31.000Z</time>
      </trkpt>
      <trkpt lat="47.09419" lon="-1.2368">
        <ele>48.799999237061</ele>
        <time>2018-08-02T07:32:32.000Z</time>
      </trkpt>
      <trkpt lat="47.09421" lon="-1.23671">
        <ele>48.799999237061</ele>
        <time>2018-08-02T07:32:37.000Z</time>
      </trkpt>
      <trkpt lat="47.09422" lon="-1.23664">
        <ele>48.799999237061</ele>
        <time>2018-08-02T07:32:41.000Z</time>
      </trkpt>
      <trkpt lat="47.09424" lon="-1.23656">
        <ele>48.599998474121</ele>
        <time>2018-08-02T07:32:45.000Z</time>
      </trkpt>
      <trkpt lat="47.09424" lon="-1.23652">
        <ele>48.599998474121</ele>
        <time>2018-08-02T07:32:47.000Z</time>
      </trkpt>
      <trkpt lat="47.09426" lon="-1.23641">
        <ele>48.799999237061</ele>
        <time>2018-08-02T07:32:53.000Z</time>
      </trkpt>
      <trkpt lat="47.09426" lon="-1.2364">
        <ele>48.799999237061</ele>
        <time>2018-08-02T07:32:54.000Z</time>
      </trkpt>
      <trkpt lat="47.09428" lon="-1.2362">
        <ele>49.200000762939</ele>
        <time>2018-08-02T07:33:05.000Z</time>
      </trkpt>
      <trkpt lat="47.09428" lon="-1.23618">
        <ele>49.200000762939</ele>
        <time>2018-08-02T07:33:06.000Z</time>
      </trkpt>
      <trkpt lat="47.09436" lon="-1.23593">
        <ele>49.400001525879</ele>
        <time>2018-08-02T07:33:23.000Z</time>
      </trkpt>
      <trkpt lat="47.09436" lon="-1.23592">
        <ele>49.400001525879</ele>
        <time>2018-08-02T07:33:24.000Z</time>
      </trkpt>
      <trkpt lat="47.09436" lon="-1.23591">
        <ele>49.400001525879</ele>
        <time>2018-08-02T07:33:25.000Z</time>
      </trkpt>
      <trkpt lat="47.09438" lon="-1.23589">
        <ele>49.400001525879</ele>
        <time>2018-08-02T07:33:28.000Z</time>
      </trkpt>
      <trkpt lat="47.09438" lon="-1.23581">
        <ele>49.400001525879</ele>
        <time>2018-08-02T07:34:57.000Z</time>
      </trkpt>
      <trkpt lat="47.09445" lon="-1.23577">
        <ele>49.400001525879</ele>
        <time>2018-08-02T07:35:03.000Z</time>
      </trkpt>
      <trkpt lat="47.09446" lon="-1.23575">
        <ele>49.400001525879</ele>
        <time>2018-08-02T07:35:04.000Z</time>
      </trkpt>
      <trkpt lat="47.09448" lon="-1.23566">
        <ele>49.400001525879</ele>
        <time>2018-08-02T07:35:10.000Z</time>
      </trkpt>
      <trkpt lat="47.09448" lon="-1.23565">
        <ele>49.400001525879</ele>
        <time>2018-08-02T07:35:11.000Z</time>
      </trkpt>
      <trkpt lat="47.09449" lon="-1.2356">
        <ele>49.599998474121</ele>
        <time>2018-08-02T07:35:14.000Z</time>
      </trkpt>
      <trkpt lat="47.09455" lon="-1.23543">
        <ele>50</ele>
        <time>2018-08-02T07:35:32.000Z</time>
      </trkpt>
      <trkpt lat="47.09456" lon="-1.23538">
        <ele>50.200000762939</ele>
        <time>2018-08-02T07:35:36.000Z</time>
      </trkpt>
      <trkpt lat="47.09458" lon="-1.23532">
        <ele>50.200000762939</ele>
        <time>2018-08-02T07:35:52.000Z</time>
      </trkpt>
      <trkpt lat="47.09459" lon="-1.23521">
        <ele>50.599998474121</ele>
        <time>2018-08-02T07:35:59.000Z</time>
      </trkpt>
      <trkpt lat="47.0946" lon="-1.2352">
        <ele>50.599998474121</ele>
        <time>2018-08-02T07:36:00.000Z</time>
      </trkpt>
      <trkpt lat="47.09463" lon="-1.23497">
        <ele>51.200000762939</ele>
        <time>2018-08-02T07:36:14.000Z</time>
      </trkpt>
      <trkpt lat="47.09464" lon="-1.23495">
        <ele>51.200000762939</ele>
        <time>2018-08-02T07:36:15.000Z</time>
      </trkpt>
      <trkpt lat="47.09465" lon="-1.23483">
        <ele>51.599998474121</ele>
        <time>2018-08-02T07:36:22.000Z</time>
      </trkpt>
      <trkpt lat="47.09465" lon="-1.23481">
        <ele>51.599998474121</ele>
        <time>2018-08-02T07:36:23.000Z</time>
      </trkpt>
      <trkpt lat="47.09464" lon="-1.23475">
        <ele>51.799999237061</ele>
        <time>2018-08-02T07:36:27.000Z</time>
      </trkpt>
      <trkpt lat="47.09464" lon="-1.23473">
        <ele>51.799999237061</ele>
        <time>2018-08-02T07:36:28.000Z</time>
      </trkpt>
      <trkpt lat="47.09464" lon="-1.23472">
        <ele>51.799999237061</ele>
        <time>2018-08-02T07:36:29.000Z</time>
      </trkpt>
      <trkpt lat="47.0946" lon="-1.23444">
        <ele>52.400001525879</ele>
        <time>2018-08-02T07:36:44.000Z</time>
      </trkpt>
      <trkpt lat="47.09457" lon="-1.23428">
        <ele>52.799999237061</ele>
        <time>2018-08-02T07:36:53.000Z</time>
      </trkpt>
      <trkpt lat="47.09456" lon="-1.23426">
        <ele>52.799999237061</ele>
        <time>2018-08-02T07:36:54.000Z</time>
      </trkpt>
      <trkpt lat="47.09455" lon="-1.23409">
        <ele>53.200000762939</ele>
        <time>2018-08-02T07:37:03.000Z</time>
      </trkpt>
      <trkpt lat="47.09455" lon="-1.23407">
        <ele>53.200000762939</ele>
        <time>2018-08-02T07:37:04.000Z</time>
      </trkpt>
      <trkpt lat="47.09449" lon="-1.23381">
        <ele>53.400001525879</ele>
        <time>2018-08-02T07:37:19.000Z</time>
      </trkpt>
      <trkpt lat="47.09449" lon="-1.23379">
        <ele>53.400001525879</ele>
        <time>2018-08-02T07:37:20.000Z</time>
      </trkpt>
      <trkpt lat="47.09448" lon="-1.23377">
        <ele>53.400001525879</ele>
        <time>2018-08-02T07:37:21.000Z</time>
      </trkpt>
      <trkpt lat="47.09443" lon="-1.23351">
        <ele>53.599998474121</ele>
        <time>2018-08-02T07:37:35.000Z</time>
      </trkpt>
      <trkpt lat="47.09438" lon="-1.23326">
        <ele>53.799999237061</ele>
        <time>2018-08-02T07:37:50.000Z</time>
      </trkpt>
      <trkpt lat="47.09431" lon="-1.23304">
        <ele>54</ele>
        <time>2018-08-02T07:38:02.000Z</time>
      </trkpt>
      <trkpt lat="47.09431" lon="-1.23303">
        <ele>54.200000762939</ele>
        <time>2018-08-02T07:38:03.000Z</time>
      </trkpt>
      <trkpt lat="47.09427" lon="-1.23276">
        <ele>54.599998474121</ele>
        <time>2018-08-02T07:38:17.000Z</time>
      </trkpt>
      <trkpt lat="47.0942" lon="-1.23251">
        <ele>55.400001525879</ele>
        <time>2018-08-02T07:38:31.000Z</time>
      </trkpt>
      <trkpt lat="47.0942" lon="-1.2325">
        <ele>55.400001525879</ele>
        <time>2018-08-02T07:38:32.000Z</time>
      </trkpt>
      <trkpt lat="47.0942" lon="-1.23248">
        <ele>55.400001525879</ele>
        <time>2018-08-02T07:38:33.000Z</time>
      </trkpt>
      <trkpt lat="47.09413" lon="-1.23223">
        <ele>56</ele>
        <time>2018-08-02T07:38:47.000Z</time>
      </trkpt>
      <trkpt lat="47.09413" lon="-1.23221">
        <ele>56</ele>
        <time>2018-08-02T07:38:48.000Z</time>
      </trkpt>
      <trkpt lat="47.09412" lon="-1.23217">
        <ele>56.200000762939</ele>
        <time>2018-08-02T07:38:50.000Z</time>
      </trkpt>
      <trkpt lat="47.09403" lon="-1.23192">
        <ele>56.599998474121</ele>
        <time>2018-08-02T07:39:05.000Z</time>
      </trkpt>
      <trkpt lat="47.09403" lon="-1.23191">
        <ele>56.599998474121</ele>
        <time>2018-08-02T07:39:06.000Z</time>
      </trkpt>
      <trkpt lat="47.09399" lon="-1.23172">
        <ele>57</ele>
        <time>2018-08-02T07:39:17.000Z</time>
      </trkpt>
      <trkpt lat="47.09399" lon="-1.2317">
        <ele>57</ele>
        <time>2018-08-02T07:39:18.000Z</time>
      </trkpt>
      <trkpt lat="47.09398" lon="-1.23167">
        <ele>57</ele>
        <time>2018-08-02T07:39:20.000Z</time>
      </trkpt>
      <trkpt lat="47.09391" lon="-1.23142">
        <ele>57.799999237061</ele>
        <time>2018-08-02T07:39:36.000Z</time>
      </trkpt>
      <trkpt lat="47.09383" lon="-1.23117">
        <ele>58.599998474121</ele>
        <time>2018-08-02T07:39:51.000Z</time>
      </trkpt>
      <trkpt lat="47.09379" lon="-1.23103">
        <ele>59.200000762939</ele>
        <time>2018-08-02T07:39:59.000Z</time>
      </trkpt>
      <trkpt lat="47.09379" lon="-1.23101">
        <ele>59.200000762939</ele>
        <time>2018-08-02T07:40:00.000Z</time>
      </trkpt>
      <trkpt lat="47.09372" lon="-1.23076">
        <ele>59.799999237061</ele>
        <time>2018-08-02T07:40:15.000Z</time>
      </trkpt>
      <trkpt lat="47.09372" lon="-1.23074">
        <ele>59.799999237061</ele>
        <time>2018-08-02T07:40:16.000Z</time>
      </trkpt>
      <trkpt lat="47.09371" lon="-1.23073">
        <ele>59.799999237061</ele>
        <time>2018-08-02T07:40:17.000Z</time>
      </trkpt>
      <trkpt lat="47.09369" lon="-1.23066">
        <ele>60</ele>
        <time>2018-08-02T07:40:21.000Z</time>
      </trkpt>
      <trkpt lat="47.09364" lon="-1.23049">
        <ele>60</ele>
        <time>2018-08-02T07:40:31.000Z</time>
      </trkpt>
      <trkpt lat="47.09364" lon="-1.23048">
        <ele>60.200000762939</ele>
        <time>2018-08-02T07:40:32.000Z</time>
      </trkpt>
      <trkpt lat="47.09362" lon="-1.23043">
        <ele>60.200000762939</ele>
        <time>2018-08-02T07:40:35.000Z</time>
      </trkpt>
      <trkpt lat="47.09358" lon="-1.2303">
        <ele>60.200000762939</ele>
        <time>2018-08-02T07:40:42.000Z</time>
      </trkpt>
      <trkpt lat="47.09358" lon="-1.23028">
        <ele>60.200000762939</ele>
        <time>2018-08-02T07:40:43.000Z</time>
      </trkpt>
      <trkpt lat="47.09352" lon="-1.23002">
        <ele>60</ele>
        <time>2018-08-02T07:40:58.000Z</time>
      </trkpt>
      <trkpt lat="47.09351" lon="-1.22998">
        <ele>60</ele>
        <time>2018-08-02T07:41:00.000Z</time>
      </trkpt>
      <trkpt lat="47.09351" lon="-1.22997">
        <ele>60</ele>
        <time>2018-08-02T07:41:01.000Z</time>
      </trkpt>
      <trkpt lat="47.09349" lon="-1.22987">
        <ele>59.799999237061</ele>
        <time>2018-08-02T07:41:06.000Z</time>
      </trkpt>
      <trkpt lat="47.09348" lon="-1.22983">
        <ele>59.799999237061</ele>
        <time>2018-08-02T07:41:08.000Z</time>
      </trkpt>
      <trkpt lat="47.09343" lon="-1.22959">
        <ele>60</ele>
        <time>2018-08-02T07:41:25.000Z</time>
      </trkpt>
      <trkpt lat="47.09343" lon="-1.22956">
        <ele>60.200000762939</ele>
        <time>2018-08-02T07:41:27.000Z</time>
      </trkpt>
      <trkpt lat="47.09343" lon="-1.22954">
        <ele>60.200000762939</ele>
        <time>2018-08-02T07:41:28.000Z</time>
      </trkpt>
      <trkpt lat="47.09342" lon="-1.22952">
        <ele>60.200000762939</ele>
        <time>2018-08-02T07:41:30.000Z</time>
      </trkpt>
      <trkpt lat="47.09344" lon="-1.22946">
        <ele>60.400001525879</ele>
        <time>2018-08-02T07:41:34.000Z</time>
      </trkpt>
      <trkpt lat="47.09345" lon="-1.22934">
        <ele>60.599998474121</ele>
        <time>2018-08-02T07:41:41.000Z</time>
      </trkpt>
      <trkpt lat="47.09345" lon="-1.22932">
        <ele>60.599998474121</ele>
        <time>2018-08-02T07:41:42.000Z</time>
      </trkpt>
      <trkpt lat="47.09349" lon="-1.22908">
        <ele>61.200000762939</ele>
        <time>2018-08-02T07:41:56.000Z</time>
      </trkpt>
      <trkpt lat="47.0935" lon="-1.22907">
        <ele>61.200000762939</ele>
        <time>2018-08-02T07:41:57.000Z</time>
      </trkpt>
      <trkpt lat="47.09356" lon="-1.22882">
        <ele>61.599998474121</ele>
        <time>2018-08-02T07:42:12.000Z</time>
      </trkpt>
      <trkpt lat="47.09361" lon="-1.22861">
        <ele>62</ele>
        <time>2018-08-02T07:42:24.000Z</time>
      </trkpt>
      <trkpt lat="47.09362" lon="-1.22859">
        <ele>62</ele>
        <time>2018-08-02T07:42:25.000Z</time>
      </trkpt>
      <trkpt lat="47.09363" lon="-1.22852">
        <ele>62</ele>
        <time>2018-08-02T07:42:29.000Z</time>
      </trkpt>
      <trkpt lat="47.09364" lon="-1.2285">
        <ele>62</ele>
        <time>2018-08-02T07:42:30.000Z</time>
      </trkpt>
      <trkpt lat="47.09367" lon="-1.22839">
        <ele>62</ele>
        <time>2018-08-02T07:42:36.000Z</time>
      </trkpt>
      <trkpt lat="47.09367" lon="-1.22837">
        <ele>62</ele>
        <time>2018-08-02T07:42:37.000Z</time>
      </trkpt>
      <trkpt lat="47.0937" lon="-1.22827">
        <ele>62</ele>
        <time>2018-08-02T07:42:43.000Z</time>
      </trkpt>
      <trkpt lat="47.09371" lon="-1.22824">
        <ele>62</ele>
        <time>2018-08-02T07:42:45.000Z</time>
      </trkpt>
      <trkpt lat="47.09375" lon="-1.22806">
        <ele>62</ele>
        <time>2018-08-02T07:42:55.000Z</time>
      </trkpt>
      <trkpt lat="47.09375" lon="-1.22804">
        <ele>62</ele>
        <time>2018-08-02T07:42:56.000Z</time>
      </trkpt>
      <trkpt lat="47.09377" lon="-1.22798">
        <ele>62.200000762939</ele>
        <time>2018-08-02T07:42:59.000Z</time>
      </trkpt>
      <trkpt lat="47.09379" lon="-1.22788">
        <ele>62.200000762939</ele>
        <time>2018-08-02T07:43:05.000Z</time>
      </trkpt>
      <trkpt lat="47.09379" lon="-1.22786">
        <ele>62.400001525879</ele>
        <time>2018-08-02T07:43:06.000Z</time>
      </trkpt>
      <trkpt lat="47.09388" lon="-1.22763">
        <ele>62.599998474121</ele>
        <time>2018-08-02T07:43:20.000Z</time>
      </trkpt>
      <trkpt lat="47.09388" lon="-1.22762">
        <ele>62.599998474121</ele>
        <time>2018-08-02T07:43:21.000Z</time>
      </trkpt>
      <trkpt lat="47.09392" lon="-1.22757">
        <ele>62.599998474121</ele>
        <time>2018-08-02T07:43:25.000Z</time>
      </trkpt>
      <trkpt lat="47.09395" lon="-1.22756">
        <ele>62.599998474121</ele>
        <time>2018-08-02T07:43:27.000Z</time>
      </trkpt>
      <trkpt lat="47.09399" lon="-1.22755">
        <ele>62.599998474121</ele>
        <time>2018-08-02T07:43:31.000Z</time>
      </trkpt>
      <trkpt lat="47.094" lon="-1.22755">
        <ele>62.599998474121</ele>
        <time>2018-08-02T07:43:32.000Z</time>
      </trkpt>
      <trkpt lat="47.09406" lon="-1.22755">
        <ele>62.599998474121</ele>
        <time>2018-08-02T07:43:37.000Z</time>
      </trkpt>
      <trkpt lat="47.09407" lon="-1.22756">
        <ele>62.599998474121</ele>
        <time>2018-08-02T07:43:38.000Z</time>
      </trkpt>
      <trkpt lat="47.09413" lon="-1.22757">
        <ele>62.799999237061</ele>
        <time>2018-08-02T07:43:43.000Z</time>
      </trkpt>
      <trkpt lat="47.09431" lon="-1.22763">
        <ele>63</ele>
        <time>2018-08-02T07:43:59.000Z</time>
      </trkpt>
      <trkpt lat="47.09438" lon="-1.22765">
        <ele>63.200000762939</ele>
        <time>2018-08-02T07:44:04.000Z</time>
      </trkpt>
      <trkpt lat="47.09439" lon="-1.22766">
        <ele>63.200000762939</ele>
        <time>2018-08-02T07:44:05.000Z</time>
      </trkpt>
      <trkpt lat="47.09458" lon="-1.22772">
        <ele>63.599998474121</ele>
        <time>2018-08-02T07:44:21.000Z</time>
      </trkpt>
      <trkpt lat="47.0947" lon="-1.22776">
        <ele>63.599998474121</ele>
        <time>2018-08-02T07:44:31.000Z</time>
      </trkpt>
      <trkpt lat="47.09471" lon="-1.22776">
        <ele>63.599998474121</ele>
        <time>2018-08-02T07:44:32.000Z</time>
      </trkpt>
      <trkpt lat="47.09475" lon="-1.22777">
        <ele>63.599998474121</ele>
        <time>2018-08-02T07:44:35.000Z</time>
      </trkpt>
      <trkpt lat="47.09481" lon="-1.22779">
        <ele>63.599998474121</ele>
        <time>2018-08-02T07:44:40.000Z</time>
      </trkpt>
      <trkpt lat="47.09483" lon="-1.2278">
        <ele>63.599998474121</ele>
        <time>2018-08-02T07:44:42.000Z</time>
      </trkpt>
      <trkpt lat="47.09501" lon="-1.22788">
        <ele>63.400001525879</ele>
        <time>2018-08-02T07:44:58.000Z</time>
      </trkpt>
      <trkpt lat="47.09503" lon="-1.22788">
        <ele>63.400001525879</ele>
        <time>2018-08-02T07:44:59.000Z</time>
      </trkpt>
      <trkpt lat="47.09516" lon="-1.22792">
        <ele>63.200000762939</ele>
        <time>2018-08-02T07:45:09.000Z</time>
      </trkpt>
      <trkpt lat="47.09517" lon="-1.22792">
        <ele>63.200000762939</ele>
        <time>2018-08-02T07:45:10.000Z</time>
      </trkpt>
      <trkpt lat="47.09534" lon="-1.22799">
        <ele>63.200000762939</ele>
        <time>2018-08-02T07:45:24.000Z</time>
      </trkpt>
      <trkpt lat="47.09535" lon="-1.22799">
        <ele>63.200000762939</ele>
        <time>2018-08-02T07:45:25.000Z</time>
      </trkpt>
      <trkpt lat="47.0954" lon="-1.22801">
        <ele>63.200000762939</ele>
        <time>2018-08-02T07:45:29.000Z</time>
      </trkpt>
      <trkpt lat="47.09557" lon="-1.22807">
        <ele>63</ele>
        <time>2018-08-02T07:45:42.000Z</time>
      </trkpt>
      <trkpt lat="47.0956" lon="-1.22807">
        <ele>63</ele>
        <time>2018-08-02T07:45:44.000Z</time>
      </trkpt>
      <trkpt lat="47.09569" lon="-1.2281">
        <ele>63</ele>
        <time>2018-08-02T07:45:52.000Z</time>
      </trkpt>
      <trkpt lat="47.09572" lon="-1.22812">
        <ele>63</ele>
        <time>2018-08-02T07:45:55.000Z</time>
      </trkpt>
      <trkpt lat="47.09576" lon="-1.22814">
        <ele>63</ele>
        <time>2018-08-02T07:45:59.000Z</time>
      </trkpt>
      <trkpt lat="47.09594" lon="-1.2282">
        <ele>62.400001525879</ele>
        <time>2018-08-02T07:46:13.000Z</time>
      </trkpt>
      <trkpt lat="47.09611" lon="-1.22826">
        <ele>62</ele>
        <time>2018-08-02T07:46:27.000Z</time>
      </trkpt>
      <trkpt lat="47.09612" lon="-1.22827">
        <ele>62</ele>
        <time>2018-08-02T07:46:28.000Z</time>
      </trkpt>
      <trkpt lat="47.09621" lon="-1.22835">
        <ele>61.599998474121</ele>
        <time>2018-08-02T07:46:37.000Z</time>
      </trkpt>
      <trkpt lat="47.09623" lon="-1.22836">
        <ele>61.599998474121</ele>
        <time>2018-08-02T07:46:38.000Z</time>
      </trkpt>
      <trkpt lat="47.09624" lon="-1.22851">
        <ele>61.400001525879</ele>
        <time>2018-08-02T07:46:46.000Z</time>
      </trkpt>
      <trkpt lat="47.09624" lon="-1.22853">
        <ele>61.400001525879</ele>
        <time>2018-08-02T07:46:47.000Z</time>
      </trkpt>
      <trkpt lat="47.09633" lon="-1.22873">
        <ele>61</ele>
        <time>2018-08-02T07:47:04.000Z</time>
      </trkpt>
      <trkpt lat="47.09637" lon="-1.22876">
        <ele>60.799999237061</ele>
        <time>2018-08-02T07:47:08.000Z</time>
      </trkpt>
      <trkpt lat="47.09638" lon="-1.22878">
        <ele>60.799999237061</ele>
        <time>2018-08-02T07:47:09.000Z</time>
      </trkpt>
      <trkpt lat="47.09646" lon="-1.2289">
        <ele>60.400001525879</ele>
        <time>2018-08-02T07:47:19.000Z</time>
      </trkpt>
      <trkpt lat="47.09647" lon="-1.22892">
        <ele>60.400001525879</ele>
        <time>2018-08-02T07:47:20.000Z</time>
      </trkpt>
      <trkpt lat="47.0965" lon="-1.22894">
        <ele>60.200000762939</ele>
        <time>2018-08-02T07:47:23.000Z</time>
      </trkpt>
      <trkpt lat="47.09659" lon="-1.22903">
        <ele>59.799999237061</ele>
        <time>2018-08-02T07:47:31.000Z</time>
      </trkpt>
      <trkpt lat="47.0966" lon="-1.22904">
        <ele>59.799999237061</ele>
        <time>2018-08-02T07:47:32.000Z</time>
      </trkpt>
      <trkpt lat="47.09665" lon="-1.22909">
        <ele>59.400001525879</ele>
        <time>2018-08-02T07:47:38.000Z</time>
      </trkpt>
      <trkpt lat="47.09666" lon="-1.2291">
        <ele>59.400001525879</ele>
        <time>2018-08-02T07:47:39.000Z</time>
      </trkpt>
      <trkpt lat="47.09674" lon="-1.22918">
        <ele>59</ele>
        <time>2018-08-02T07:47:46.000Z</time>
      </trkpt>
      <trkpt lat="47.09675" lon="-1.22918">
        <ele>58.799999237061</ele>
        <time>2018-08-02T07:47:47.000Z</time>
      </trkpt>
      <trkpt lat="47.09686" lon="-1.22921">
        <ele>58.400001525879</ele>
        <time>2018-08-02T07:47:55.000Z</time>
      </trkpt>
      <trkpt lat="47.09689" lon="-1.22921">
        <ele>58.400001525879</ele>
        <time>2018-08-02T07:47:57.000Z</time>
      </trkpt>
      <trkpt lat="47.09695" lon="-1.22921">
        <ele>58.200000762939</ele>
        <time>2018-08-02T07:48:01.000Z</time>
      </trkpt>
      <trkpt lat="47.09697" lon="-1.22921">
        <ele>58</ele>
        <time>2018-08-02T07:48:02.000Z</time>
      </trkpt>
      <trkpt lat="47.09715" lon="-1.22927">
        <ele>57.400001525879</ele>
        <time>2018-08-02T07:48:15.000Z</time>
      </trkpt>
      <trkpt lat="47.09716" lon="-1.22928">
        <ele>57.200000762939</ele>
        <time>2018-08-02T07:48:16.000Z</time>
      </trkpt>
      <trkpt lat="47.09725" lon="-1.22933">
        <ele>57</ele>
        <time>2018-08-02T07:48:23.000Z</time>
      </trkpt>
      <trkpt lat="47.09726" lon="-1.22934">
        <ele>57</ele>
        <time>2018-08-02T07:48:24.000Z</time>
      </trkpt>
      <trkpt lat="47.09732" lon="-1.22936">
        <ele>56.799999237061</ele>
        <time>2018-08-02T07:48:29.000Z</time>
      </trkpt>
      <trkpt lat="47.09734" lon="-1.22937">
        <ele>56.799999237061</ele>
        <time>2018-08-02T07:48:31.000Z</time>
      </trkpt>
      <trkpt lat="47.09736" lon="-1.22938">
        <ele>56.599998474121</ele>
        <time>2018-08-02T07:48:32.000Z</time>
      </trkpt>
      <trkpt lat="47.09754" lon="-1.22947">
        <ele>55.799999237061</ele>
        <time>2018-08-02T07:48:47.000Z</time>
      </trkpt>
      <trkpt lat="47.09757" lon="-1.2295">
        <ele>55.599998474121</ele>
        <time>2018-08-02T07:48:51.000Z</time>
      </trkpt>
      <trkpt lat="47.09758" lon="-1.22951">
        <ele>55.400001525879</ele>
        <time>2018-08-02T07:48:52.000Z</time>
      </trkpt>
      <trkpt lat="47.09761" lon="-1.22956">
        <ele>55.200000762939</ele>
        <time>2018-08-02T07:48:57.000Z</time>
      </trkpt>
      <trkpt lat="47.09762" lon="-1.22958">
        <ele>55.200000762939</ele>
        <time>2018-08-02T07:48:58.000Z</time>
      </trkpt>
      <trkpt lat="47.09758" lon="-1.22982">
        <ele>54.799999237061</ele>
        <time>2018-08-02T07:49:12.000Z</time>
      </trkpt>
      <trkpt lat="47.09754" lon="-1.22992">
        <ele>54.200000762939</ele>
        <time>2018-08-02T07:49:18.000Z</time>
      </trkpt>
      <trkpt lat="47.09753" lon="-1.22995">
        <ele>53.799999237061</ele>
        <time>2018-08-02T07:49:20.000Z</time>
      </trkpt>
      <trkpt lat="47.09752" lon="-1.22998">
        <ele>53.599998474121</ele>
        <time>2018-08-02T07:49:22.000Z</time>
      </trkpt>
      <trkpt lat="47.09747" lon="-1.23016">
        <ele>52.200000762939</ele>
        <time>2018-08-02T07:49:32.000Z</time>
      </trkpt>
      <trkpt lat="47.09746" lon="-1.23017">
        <ele>52.200000762939</ele>
        <time>2018-08-02T07:49:33.000Z</time>
      </trkpt>
      <trkpt lat="47.09742" lon="-1.23034">
        <ele>50.799999237061</ele>
        <time>2018-08-02T07:49:44.000Z</time>
      </trkpt>
      <trkpt lat="47.09742" lon="-1.23036">
        <ele>50.599998474121</ele>
        <time>2018-08-02T07:49:45.000Z</time>
      </trkpt>
      <trkpt lat="47.09739" lon="-1.23045">
        <ele>50</ele>
        <time>2018-08-02T07:49:51.000Z</time>
      </trkpt>
      <trkpt lat="47.09739" lon="-1.23046">
        <ele>49.799999237061</ele>
        <time>2018-08-02T07:49:52.000Z</time>
      </trkpt>
      <trkpt lat="47.09739" lon="-1.23058">
        <ele>48.599998474121</ele>
        <time>2018-08-02T07:49:59.000Z</time>
      </trkpt>
      <trkpt lat="47.0974" lon="-1.2306">
        <ele>48.400001525879</ele>
        <time>2018-08-02T07:50:00.000Z</time>
      </trkpt>
      <trkpt lat="47.09741" lon="-1.23065">
        <ele>48</ele>
        <time>2018-08-02T07:50:04.000Z</time>
      </trkpt>
      <trkpt lat="47.09742" lon="-1.23066">
        <ele>47.799999237061</ele>
        <time>2018-08-02T07:50:05.000Z</time>
      </trkpt>
      <trkpt lat="47.09746" lon="-1.2307">
        <ele>47</ele>
        <time>2018-08-02T07:50:10.000Z</time>
      </trkpt>
      <trkpt lat="47.09746" lon="-1.23071">
        <ele>47</ele>
        <time>2018-08-02T07:50:11.000Z</time>
      </trkpt>
      <trkpt lat="47.09754" lon="-1.23079">
        <ele>46</ele>
        <time>2018-08-02T07:50:19.000Z</time>
      </trkpt>
      <trkpt lat="47.09755" lon="-1.2308">
        <ele>45.799999237061</ele>
        <time>2018-08-02T07:50:20.000Z</time>
      </trkpt>
      <trkpt lat="47.09761" lon="-1.23087">
        <ele>45</ele>
        <time>2018-08-02T07:50:27.000Z</time>
      </trkpt>
      <trkpt lat="47.09762" lon="-1.23088">
        <ele>44.799999237061</ele>
        <time>2018-08-02T07:50:28.000Z</time>
      </trkpt>
      <trkpt lat="47.09778" lon="-1.23102">
        <ele>42.799999237061</ele>
        <time>2018-08-02T07:50:43.000Z</time>
      </trkpt>
      <trkpt lat="47.09787" lon="-1.23115">
        <ele>40.400001525879</ele>
        <time>2018-08-02T07:50:56.000Z</time>
      </trkpt>
      <trkpt lat="47.09788" lon="-1.23116">
        <ele>40.200000762939</ele>
        <time>2018-08-02T07:50:57.000Z</time>
      </trkpt>
      <trkpt lat="47.098" lon="-1.23137">
        <ele>35.599998474121</ele>
        <time>2018-08-02T07:51:14.000Z</time>
      </trkpt>
      <trkpt lat="47.09801" lon="-1.23138">
        <ele>35.400001525879</ele>
        <time>2018-08-02T07:51:15.000Z</time>
      </trkpt>
      <trkpt lat="47.09802" lon="-1.23141">
        <ele>34.799999237061</ele>
        <time>2018-08-02T07:51:17.000Z</time>
      </trkpt>
      <trkpt lat="47.09804" lon="-1.23146">
        <ele>33.799999237061</ele>
        <time>2018-08-02T07:51:21.000Z</time>
      </trkpt>
      <trkpt lat="47.09805" lon="-1.23149">
        <ele>33.400001525879</ele>
        <time>2018-08-02T07:51:23.000Z</time>
      </trkpt>
      <trkpt lat="47.09808" lon="-1.23165">
        <ele>30.799999237061</ele>
        <time>2018-08-02T07:51:34.000Z</time>
      </trkpt>
      <trkpt lat="47.09809" lon="-1.23166">
        <ele>30.799999237061</ele>
        <time>2018-08-02T07:51:35.000Z</time>
      </trkpt>
      <trkpt lat="47.0981" lon="-1.23173">
        <ele>30.200000762939</ele>
        <time>2018-08-02T07:51:39.000Z</time>
      </trkpt>
      <trkpt lat="47.09812" lon="-1.23199">
        <ele>28.200000762939</ele>
        <time>2018-08-02T07:51:56.000Z</time>
      </trkpt>
      <trkpt lat="47.09812" lon="-1.23201">
        <ele>28.200000762939</ele>
        <time>2018-08-02T07:51:57.000Z</time>
      </trkpt>
      <trkpt lat="47.09813" lon="-1.23209">
        <ele>27.60000038147</ele>
        <time>2018-08-02T07:52:02.000Z</time>
      </trkpt>
      <trkpt lat="47.09813" lon="-1.23211">
        <ele>27.39999961853</ele>
        <time>2018-08-02T07:52:03.000Z</time>
      </trkpt>
      <trkpt lat="47.09812" lon="-1.23237">
        <ele>26.39999961853</ele>
        <time>2018-08-02T07:52:23.000Z</time>
      </trkpt>
      <trkpt lat="47.09815" lon="-1.23247">
        <ele>27.200000762939</ele>
        <time>2018-08-02T07:52:42.000Z</time>
      </trkpt>
      <trkpt lat="47.09816" lon="-1.23252">
        <ele>28</ele>
        <time>2018-08-02T07:52:46.000Z</time>
      </trkpt>
      <trkpt lat="47.09819" lon="-1.23268">
        <ele>30.200000762939</ele>
        <time>2018-08-02T07:53:03.000Z</time>
      </trkpt>
      <trkpt lat="47.09821" lon="-1.23276">
        <ele>31.200000762939</ele>
        <time>2018-08-02T07:53:10.000Z</time>
      </trkpt>
      <trkpt lat="47.09823" lon="-1.23284">
        <ele>32.400001525879</ele>
        <time>2018-08-02T07:53:17.000Z</time>
      </trkpt>
      <trkpt lat="47.09824" lon="-1.23287">
        <ele>32.799999237061</ele>
        <time>2018-08-02T07:53:19.000Z</time>
      </trkpt>
      <trkpt lat="47.09826" lon="-1.23292">
        <ele>33.400001525879</ele>
        <time>2018-08-02T07:53:23.000Z</time>
      </trkpt>
      <trkpt lat="47.09829" lon="-1.23309">
        <ele>35.599998474121</ele>
        <time>2018-08-02T07:53:49.000Z</time>
      </trkpt>
      <trkpt lat="47.09826" lon="-1.2331">
        <ele>35.799999237061</ele>
        <time>2018-08-02T07:53:54.000Z</time>
      </trkpt>
      <trkpt lat="47.09822" lon="-1.23312">
        <ele>35.599998474121</ele>
        <time>2018-08-02T07:54:01.000Z</time>
      </trkpt>
      <trkpt lat="47.09817" lon="-1.23312">
        <ele>35.200000762939</ele>
        <time>2018-08-02T07:54:07.000Z</time>
      </trkpt>
      <trkpt lat="47.09813" lon="-1.23311">
        <ele>34.799999237061</ele>
        <time>2018-08-02T07:54:12.000Z</time>
      </trkpt>
      <trkpt lat="47.0981" lon="-1.23314">
        <ele>35</ele>
        <time>2018-08-02T07:54:16.000Z</time>
      </trkpt>
      <trkpt lat="47.09805" lon="-1.2332">
        <ele>35</ele>
        <time>2018-08-02T07:54:25.000Z</time>
      </trkpt>
      <trkpt lat="47.09795" lon="-1.23325">
        <ele>34.599998474121</ele>
        <time>2018-08-02T07:54:34.000Z</time>
      </trkpt>
      <trkpt lat="47.09794" lon="-1.23325">
        <ele>34.599998474121</ele>
        <time>2018-08-02T07:54:35.000Z</time>
      </trkpt>
      <trkpt lat="47.09784" lon="-1.23337">
        <ele>34.799999237061</ele>
        <time>2018-08-02T07:54:52.000Z</time>
      </trkpt>
      <trkpt lat="47.09778" lon="-1.23341">
        <ele>34.599998474121</ele>
        <time>2018-08-02T07:54:57.000Z</time>
      </trkpt>
      <trkpt lat="47.09777" lon="-1.23342">
        <ele>34.599998474121</ele>
        <time>2018-08-02T07:54:58.000Z</time>
      </trkpt>
      <trkpt lat="47.09774" lon="-1.23344">
        <ele>34.599998474121</ele>
        <time>2018-08-02T07:55:01.000Z</time>
      </trkpt>
      <trkpt lat="47.09772" lon="-1.23346">
        <ele>34.400001525879</ele>
        <time>2018-08-02T07:55:04.000Z</time>
      </trkpt>
      <trkpt lat="47.09771" lon="-1.23347">
        <ele>34.400001525879</ele>
        <time>2018-08-02T07:55:06.000Z</time>
      </trkpt>
      <trkpt lat="47.09768" lon="-1.23351">
        <ele>34.599998474121</ele>
        <time>2018-08-02T07:55:10.000Z</time>
      </trkpt>
      <trkpt lat="47.09757" lon="-1.23359">
        <ele>34.400001525879</ele>
        <time>2018-08-02T07:55:20.000Z</time>
      </trkpt>
      <trkpt lat="47.09756" lon="-1.2336">
        <ele>34.400001525879</ele>
        <time>2018-08-02T07:55:21.000Z</time>
      </trkpt>
      <trkpt lat="47.0974" lon="-1.23371">
        <ele>33.799999237061</ele>
        <time>2018-08-02T07:55:39.000Z</time>
      </trkpt>
      <trkpt lat="47.09738" lon="-1.23371">
        <ele>33.599998474121</ele>
        <time>2018-08-02T07:55:40.000Z</time>
      </trkpt>
      <trkpt lat="47.09731" lon="-1.23375">
        <ele>33</ele>
        <time>2018-08-02T07:55:46.000Z</time>
      </trkpt>
      <trkpt lat="47.09729" lon="-1.23376">
        <ele>33</ele>
        <time>2018-08-02T07:55:47.000Z</time>
      </trkpt>
      <trkpt lat="47.09725" lon="-1.23381">
        <ele>32.799999237061</ele>
        <time>2018-08-02T07:55:52.000Z</time>
      </trkpt>
      <trkpt lat="47.0972" lon="-1.23387">
        <ele>32.599998474121</ele>
        <time>2018-08-02T07:55:58.000Z</time>
      </trkpt>
      <trkpt lat="47.09718" lon="-1.23388">
        <ele>32.400001525879</ele>
        <time>2018-08-02T07:56:00.000Z</time>
      </trkpt>
      <trkpt lat="47.09713" lon="-1.23391">
        <ele>32</ele>
        <time>2018-08-02T07:56:04.000Z</time>
      </trkpt>
      <trkpt lat="47.09712" lon="-1.23392">
        <ele>32</ele>
        <time>2018-08-02T07:56:05.000Z</time>
      </trkpt>
      <trkpt lat="47.09699" lon="-1.23403">
        <ele>30.60000038147</ele>
        <time>2018-08-02T07:56:18.000Z</time>
      </trkpt>
      <trkpt lat="47.09699" lon="-1.23404">
        <ele>30.60000038147</ele>
        <time>2018-08-02T07:56:19.000Z</time>
      </trkpt>
      <trkpt lat="47.09687" lon="-1.23415">
        <ele>29.200000762939</ele>
        <time>2018-08-02T07:56:31.000Z</time>
      </trkpt>
      <trkpt lat="47.09686" lon="-1.23416">
        <ele>29</ele>
        <time>2018-08-02T07:56:32.000Z</time>
      </trkpt>
      <trkpt lat="47.09679" lon="-1.23422">
        <ele>28.39999961853</ele>
        <time>2018-08-02T07:56:39.000Z</time>
      </trkpt>
      <trkpt lat="47.09679" lon="-1.23423">
        <ele>28.200000762939</ele>
        <time>2018-08-02T07:56:40.000Z</time>
      </trkpt>
      <trkpt lat="47.09675" lon="-1.23427">
        <ele>27.799999237061</ele>
        <time>2018-08-02T07:56:44.000Z</time>
      </trkpt>
      <trkpt lat="47.09668" lon="-1.23437">
        <ele>27</ele>
        <time>2018-08-02T07:56:52.000Z</time>
      </trkpt>
      <trkpt lat="47.09667" lon="-1.23438">
        <ele>26.799999237061</ele>
        <time>2018-08-02T07:56:53.000Z</time>
      </trkpt>
      <trkpt lat="47.09665" lon="-1.23441">
        <ele>26.60000038147</ele>
        <time>2018-08-02T07:56:55.000Z</time>
      </trkpt>
      <trkpt lat="47.09664" lon="-1.23445">
        <ele>26.39999961853</ele>
        <time>2018-08-02T07:56:58.000Z</time>
      </trkpt>
      <trkpt lat="47.09661" lon="-1.23456">
        <ele>26.200000762939</ele>
        <time>2018-08-02T07:57:06.000Z</time>
      </trkpt>
      <trkpt lat="47.09661" lon="-1.23457">
        <ele>26.200000762939</ele>
        <time>2018-08-02T07:57:07.000Z</time>
      </trkpt>
      <trkpt lat="47.09659" lon="-1.23463">
        <ele>26.200000762939</ele>
        <time>2018-08-02T07:57:10.000Z</time>
      </trkpt>
      <trkpt lat="47.0965" lon="-1.23485">
        <ele>28</ele>
        <time>2018-08-02T07:57:26.000Z</time>
      </trkpt>
      <trkpt lat="47.09649" lon="-1.23486">
        <ele>28</ele>
        <time>2018-08-02T07:57:27.000Z</time>
      </trkpt>
      <trkpt lat="47.09649" lon="-1.23514">
        <ele>28.799999237061</ele>
        <time>2018-08-02T07:57:39.000Z</time>
      </trkpt>
      <trkpt lat="47.09648" lon="-1.23519">
        <ele>29</ele>
        <time>2018-08-02T07:57:42.000Z</time>
      </trkpt>
      <trkpt lat="47.09648" lon="-1.23523">
        <ele>29.200000762939</ele>
        <time>2018-08-02T07:57:44.000Z</time>
      </trkpt>
      <trkpt lat="47.09646" lon="-1.23531">
        <ele>29.60000038147</ele>
        <time>2018-08-02T07:57:48.000Z</time>
      </trkpt>
      <trkpt lat="47.09646" lon="-1.23532">
        <ele>29.60000038147</ele>
        <time>2018-08-02T07:57:49.000Z</time>
      </trkpt>
      <trkpt lat="47.09642" lon="-1.23556">
        <ele>31</ele>
        <time>2018-08-02T07:58:03.000Z</time>
      </trkpt>
      <trkpt lat="47.09641" lon="-1.23558">
        <ele>31</ele>
        <time>2018-08-02T07:58:04.000Z</time>
      </trkpt>
      <trkpt lat="47.0964" lon="-1.23567">
        <ele>31.200000762939</ele>
        <time>2018-08-02T07:58:09.000Z</time>
      </trkpt>
      <trkpt lat="47.09641" lon="-1.23583">
        <ele>30.799999237061</ele>
        <time>2018-08-02T07:58:18.000Z</time>
      </trkpt>
      <trkpt lat="47.0964" lon="-1.23585">
        <ele>30.799999237061</ele>
        <time>2018-08-02T07:58:19.000Z</time>
      </trkpt>
      <trkpt lat="47.0964" lon="-1.23599">
        <ele>30.799999237061</ele>
        <time>2018-08-02T07:58:26.000Z</time>
      </trkpt>
      <trkpt lat="47.0964" lon="-1.23601">
        <ele>30.60000038147</ele>
        <time>2018-08-02T07:58:27.000Z</time>
      </trkpt>
      <trkpt lat="47.0964" lon="-1.23611">
        <ele>30.60000038147</ele>
        <time>2018-08-02T07:58:33.000Z</time>
      </trkpt>
      <trkpt lat="47.0964" lon="-1.23613">
        <ele>30.39999961853</ele>
        <time>2018-08-02T07:58:34.000Z</time>
      </trkpt>
      <trkpt lat="47.09644" lon="-1.23639">
        <ele>29.60000038147</ele>
        <time>2018-08-02T07:58:49.000Z</time>
      </trkpt>
      <trkpt lat="47.09645" lon="-1.23645">
        <ele>29.39999961853</ele>
        <time>2018-08-02T07:58:52.000Z</time>
      </trkpt>
      <trkpt lat="47.09645" lon="-1.23648">
        <ele>29.200000762939</ele>
        <time>2018-08-02T07:58:54.000Z</time>
      </trkpt>
      <trkpt lat="47.09648" lon="-1.23675">
        <ele>28.799999237061</ele>
        <time>2018-08-02T07:59:12.000Z</time>
      </trkpt>
      <trkpt lat="47.09648" lon="-1.23701">
        <ele>29.39999961853</ele>
        <time>2018-08-02T07:59:32.000Z</time>
      </trkpt>
      <trkpt lat="47.09646" lon="-1.2371">
        <ele>29.60000038147</ele>
        <time>2018-08-02T07:59:38.000Z</time>
      </trkpt>
      <trkpt lat="47.09646" lon="-1.23713">
        <ele>29.799999237061</ele>
        <time>2018-08-02T07:59:40.000Z</time>
      </trkpt>
      <trkpt lat="47.09649" lon="-1.2374">
        <ele>29.60000038147</ele>
        <time>2018-08-02T07:59:55.000Z</time>
      </trkpt>
      <trkpt lat="47.09649" lon="-1.23767">
        <ele>29.799999237061</ele>
        <time>2018-08-02T08:00:10.000Z</time>
      </trkpt>
      <trkpt lat="47.09649" lon="-1.23793">
        <ele>30.200000762939</ele>
        <time>2018-08-02T08:00:30.000Z</time>
      </trkpt>
      <trkpt lat="47.09651" lon="-1.23802">
        <ele>30.200000762939</ele>
        <time>2018-08-02T08:00:37.000Z</time>
      </trkpt>
      <trkpt lat="47.09651" lon="-1.23805">
        <ele>30.200000762939</ele>
        <time>2018-08-02T08:00:39.000Z</time>
      </trkpt>
      <trkpt lat="47.09652" lon="-1.23812">
        <ele>30.200000762939</ele>
        <time>2018-08-02T08:00:43.000Z</time>
      </trkpt>
      <trkpt lat="47.09652" lon="-1.23817">
        <ele>30</ele>
        <time>2018-08-02T08:00:46.000Z</time>
      </trkpt>
      <trkpt lat="47.09653" lon="-1.23835">
        <ele>30.39999961853</ele>
        <time>2018-08-02T08:00:57.000Z</time>
      </trkpt>
      <trkpt lat="47.09653" lon="-1.23837">
        <ele>30.39999961853</ele>
        <time>2018-08-02T08:00:58.000Z</time>
      </trkpt>
      <trkpt lat="47.0965" lon="-1.23853">
        <ele>30.799999237061</ele>
        <time>2018-08-02T08:01:08.000Z</time>
      </trkpt>
      <trkpt lat="47.0965" lon="-1.23855">
        <ele>31</ele>
        <time>2018-08-02T08:01:09.000Z</time>
      </trkpt>
      <trkpt lat="47.09649" lon="-1.2386">
        <ele>31</ele>
        <time>2018-08-02T08:01:12.000Z</time>
      </trkpt>
      <trkpt lat="47.09648" lon="-1.23864">
        <ele>31.200000762939</ele>
        <time>2018-08-02T08:01:15.000Z</time>
      </trkpt>
      <trkpt lat="47.09648" lon="-1.23866">
        <ele>31.200000762939</ele>
        <time>2018-08-02T08:01:17.000Z</time>
      </trkpt>
      <trkpt lat="47.09638" lon="-1.2389">
        <ele>31.60000038147</ele>
        <time>2018-08-02T08:01:31.000Z</time>
      </trkpt>
      <trkpt lat="47.09638" lon="-1.23891">
        <ele>31.60000038147</ele>
        <time>2018-08-02T08:01:32.000Z</time>
      </trkpt>
      <trkpt lat="47.09631" lon="-1.23904">
        <ele>32.200000762939</ele>
        <time>2018-08-02T08:01:40.000Z</time>
      </trkpt>
      <trkpt lat="47.0963" lon="-1.23905">
        <ele>32.200000762939</ele>
        <time>2018-08-02T08:01:41.000Z</time>
      </trkpt>
      <trkpt lat="47.09628" lon="-1.23911">
        <ele>32.799999237061</ele>
        <time>2018-08-02T08:01:46.000Z</time>
      </trkpt>
      <trkpt lat="47.09627" lon="-1.23912">
        <ele>32.799999237061</ele>
        <time>2018-08-02T08:01:47.000Z</time>
      </trkpt>
      <trkpt lat="47.09621" lon="-1.23927">
        <ele>34</ele>
        <time>2018-08-02T08:01:57.000Z</time>
      </trkpt>
      <trkpt lat="47.0962" lon="-1.23928">
        <ele>34.200000762939</ele>
        <time>2018-08-02T08:01:58.000Z</time>
      </trkpt>
      <trkpt lat="47.09615" lon="-1.2394">
        <ele>35.200000762939</ele>
        <time>2018-08-02T08:02:08.000Z</time>
      </trkpt>
      <trkpt lat="47.09615" lon="-1.23941">
        <ele>35.200000762939</ele>
        <time>2018-08-02T08:02:09.000Z</time>
      </trkpt>
      <trkpt lat="47.09614" lon="-1.23944">
        <ele>35.400001525879</ele>
        <time>2018-08-02T08:02:11.000Z</time>
      </trkpt>
      <trkpt lat="47.09611" lon="-1.23949">
        <ele>35.799999237061</ele>
        <time>2018-08-02T08:02:15.000Z</time>
      </trkpt>
      <trkpt lat="47.096" lon="-1.23956">
        <ele>36</ele>
        <time>2018-08-02T08:02:23.000Z</time>
      </trkpt>
      <trkpt lat="47.09599" lon="-1.23957">
        <ele>36</ele>
        <time>2018-08-02T08:02:24.000Z</time>
      </trkpt>
      <trkpt lat="47.09596" lon="-1.23961">
        <ele>36.200000762939</ele>
        <time>2018-08-02T08:02:30.000Z</time>
      </trkpt>
      <trkpt lat="47.09594" lon="-1.23969">
        <ele>37</ele>
        <time>2018-08-02T08:02:39.000Z</time>
      </trkpt>
      <trkpt lat="47.09589" lon="-1.23975">
        <ele>37.400001525879</ele>
        <time>2018-08-02T08:02:46.000Z</time>
      </trkpt>
      <trkpt lat="47.09584" lon="-1.23981">
        <ele>37.799999237061</ele>
        <time>2018-08-02T08:02:51.000Z</time>
      </trkpt>
      <trkpt lat="47.09581" lon="-1.23984">
        <ele>37.799999237061</ele>
        <time>2018-08-02T08:02:54.000Z</time>
      </trkpt>
      <trkpt lat="47.09578" lon="-1.23985">
        <ele>37.599998474121</ele>
        <time>2018-08-02T08:02:58.000Z</time>
      </trkpt>
      <trkpt lat="47.09576" lon="-1.23985">
        <ele>37.400001525879</ele>
        <time>2018-08-02T08:03:00.000Z</time>
      </trkpt>
      <trkpt lat="47.09574" lon="-1.23986">
        <ele>37.200000762939</ele>
        <time>2018-08-02T08:03:02.000Z</time>
      </trkpt>
      <trkpt lat="47.09572" lon="-1.23987">
        <ele>37</ele>
        <time>2018-08-02T08:03:04.000Z</time>
      </trkpt>
      <trkpt lat="47.09565" lon="-1.2399">
        <ele>36.599998474121</ele>
        <time>2018-08-02T08:03:12.000Z</time>
      </trkpt>
      <trkpt lat="47.09562" lon="-1.23992">
        <ele>36.200000762939</ele>
        <time>2018-08-02T08:03:15.000Z</time>
      </trkpt>
      <trkpt lat="47.09559" lon="-1.23994">
        <ele>36.200000762939</ele>
        <time>2018-08-02T08:03:18.000Z</time>
      </trkpt>
      <trkpt lat="47.09545" lon="-1.24007">
        <ele>35.599998474121</ele>
        <time>2018-08-02T08:03:35.000Z</time>
      </trkpt>
      <trkpt lat="47.09536" lon="-1.24008">
        <ele>34.599998474121</ele>
        <time>2018-08-02T08:03:42.000Z</time>
      </trkpt>
      <trkpt lat="47.09536" lon="-1.24009">
        <ele>34.400001525879</ele>
        <time>2018-08-02T08:03:43.000Z</time>
      </trkpt>
      <trkpt lat="47.09533" lon="-1.2401">
        <ele>34.200000762939</ele>
        <time>2018-08-02T08:03:45.000Z</time>
      </trkpt>
      <trkpt lat="47.09527" lon="-1.24011">
        <ele>33.599998474121</ele>
        <time>2018-08-02T08:03:52.000Z</time>
      </trkpt>
      <trkpt lat="47.09525" lon="-1.24014">
        <ele>33.599998474121</ele>
        <time>2018-08-02T08:03:56.000Z</time>
      </trkpt>
      <trkpt lat="47.09522" lon="-1.24017">
        <ele>33.400001525879</ele>
        <time>2018-08-02T08:03:59.000Z</time>
      </trkpt>
      <trkpt lat="47.09518" lon="-1.24027">
        <ele>33.799999237061</ele>
        <time>2018-08-02T08:04:06.000Z</time>
      </trkpt>
      <trkpt lat="47.09517" lon="-1.24028">
        <ele>33.799999237061</ele>
        <time>2018-08-02T08:04:07.000Z</time>
      </trkpt>
      <trkpt lat="47.09513" lon="-1.24036">
        <ele>34</ele>
        <time>2018-08-02T08:04:15.000Z</time>
      </trkpt>
      <trkpt lat="47.09512" lon="-1.24037">
        <ele>34</ele>
        <time>2018-08-02T08:04:16.000Z</time>
      </trkpt>
      <trkpt lat="47.09506" lon="-1.24044">
        <ele>34</ele>
        <time>2018-08-02T08:04:24.000Z</time>
      </trkpt>
      <trkpt lat="47.09506" lon="-1.24046">
        <ele>34</ele>
        <time>2018-08-02T08:04:26.000Z</time>
      </trkpt>
      <trkpt lat="47.09503" lon="-1.24053">
        <ele>34.400001525879</ele>
        <time>2018-08-02T08:04:33.000Z</time>
      </trkpt>
      <trkpt lat="47.09502" lon="-1.24079">
        <ele>35</ele>
        <time>2018-08-02T08:05:11.000Z</time>
      </trkpt>
      <trkpt lat="47.09502" lon="-1.24082">
        <ele>35</ele>
        <time>2018-08-02T08:05:14.000Z</time>
      </trkpt>
      <trkpt lat="47.09504" lon="-1.24087">
        <ele>35.200000762939</ele>
        <time>2018-08-02T08:05:19.000Z</time>
      </trkpt>
      <trkpt lat="47.09505" lon="-1.24093">
        <ele>35.400001525879</ele>
        <time>2018-08-02T08:05:27.000Z</time>
      </trkpt>
      <trkpt lat="47.09505" lon="-1.24097">
        <ele>35.400001525879</ele>
        <time>2018-08-02T08:05:30.000Z</time>
      </trkpt>
      <trkpt lat="47.09505" lon="-1.241">
        <ele>35.400001525879</ele>
        <time>2018-08-02T08:05:33.000Z</time>
      </trkpt>
      <trkpt lat="47.09501" lon="-1.24126">
        <ele>34.799999237061</ele>
        <time>2018-08-02T08:05:50.000Z</time>
      </trkpt>
      <trkpt lat="47.09507" lon="-1.24151">
        <ele>35.200000762939</ele>
        <time>2018-08-02T08:06:07.000Z</time>
      </trkpt>
      <trkpt lat="47.09509" lon="-1.24167">
        <ele>35.200000762939</ele>
        <time>2018-08-02T08:06:17.000Z</time>
      </trkpt>
      <trkpt lat="47.09509" lon="-1.24169">
        <ele>35.200000762939</ele>
        <time>2018-08-02T08:06:18.000Z</time>
      </trkpt>
      <trkpt lat="47.09513" lon="-1.24176">
        <ele>35.400001525879</ele>
        <time>2018-08-02T08:06:24.000Z</time>
      </trkpt>
      <trkpt lat="47.09513" lon="-1.24178">
        <ele>35.400001525879</ele>
        <time>2018-08-02T08:06:25.000Z</time>
      </trkpt>
      <trkpt lat="47.09522" lon="-1.24188">
        <ele>36</ele>
        <time>2018-08-02T08:06:38.000Z</time>
      </trkpt>
      <trkpt lat="47.09523" lon="-1.24189">
        <ele>36.200000762939</ele>
        <time>2018-08-02T08:06:39.000Z</time>
      </trkpt>
      <trkpt lat="47.09526" lon="-1.24193">
        <ele>36.400001525879</ele>
        <time>2018-08-02T08:06:44.000Z</time>
      </trkpt>
      <trkpt lat="47.09529" lon="-1.24195">
        <ele>36.599998474121</ele>
        <time>2018-08-02T08:06:48.000Z</time>
      </trkpt>
      <trkpt lat="47.0953" lon="-1.24196">
        <ele>36.599998474121</ele>
        <time>2018-08-02T08:06:50.000Z</time>
      </trkpt>
      <trkpt lat="47.09532" lon="-1.24199">
        <ele>36.799999237061</ele>
        <time>2018-08-02T08:06:54.000Z</time>
      </trkpt>
      <trkpt lat="47.09533" lon="-1.24209">
        <ele>36.200000762939</ele>
        <time>2018-08-02T08:07:01.000Z</time>
      </trkpt>
      <trkpt lat="47.09533" lon="-1.24211">
        <ele>36.200000762939</ele>
        <time>2018-08-02T08:07:02.000Z</time>
      </trkpt>
      <trkpt lat="47.09532" lon="-1.24216">
        <ele>36</ele>
        <time>2018-08-02T08:07:06.000Z</time>
      </trkpt>
      <trkpt lat="47.09533" lon="-1.24227">
        <ele>35.400001525879</ele>
        <time>2018-08-02T08:07:13.000Z</time>
      </trkpt>
      <trkpt lat="47.09533" lon="-1.24229">
        <ele>35.400001525879</ele>
        <time>2018-08-02T08:07:14.000Z</time>
      </trkpt>
      <trkpt lat="47.09536" lon="-1.24234">
        <ele>35.400001525879</ele>
        <time>2018-08-02T08:07:20.000Z</time>
      </trkpt>
      <trkpt lat="47.09535" lon="-1.24243">
        <ele>35</ele>
        <time>2018-08-02T08:07:27.000Z</time>
      </trkpt>
      <trkpt lat="47.09534" lon="-1.24247">
        <ele>34.799999237061</ele>
        <time>2018-08-02T08:07:29.000Z</time>
      </trkpt>
      <trkpt lat="47.09534" lon="-1.2425">
        <ele>34.599998474121</ele>
        <time>2018-08-02T08:07:31.000Z</time>
      </trkpt>
      <trkpt lat="47.09533" lon="-1.24258">
        <ele>34.400001525879</ele>
        <time>2018-08-02T08:07:35.000Z</time>
      </trkpt>
      <trkpt lat="47.09532" lon="-1.24273">
        <ele>33.599998474121</ele>
        <time>2018-08-02T08:07:43.000Z</time>
      </trkpt>
      <trkpt lat="47.09532" lon="-1.24275">
        <ele>33.599998474121</ele>
        <time>2018-08-02T08:07:44.000Z</time>
      </trkpt>
      <trkpt lat="47.09532" lon="-1.24281">
        <ele>33.599998474121</ele>
        <time>2018-08-02T08:07:47.000Z</time>
      </trkpt>
      <trkpt lat="47.09543" lon="-1.243">
        <ele>34.599998474121</ele>
        <time>2018-08-02T08:08:04.000Z</time>
      </trkpt>
      <trkpt lat="47.09546" lon="-1.24301">
        <ele>34.799999237061</ele>
        <time>2018-08-02T08:08:07.000Z</time>
      </trkpt>
      <trkpt lat="47.09546" lon="-1.24301">
        <ele>34.799999237061</ele>
        <time>2018-08-02T08:08:08.000Z</time>
      </trkpt>
      <trkpt lat="47.09549" lon="-1.24302">
        <ele>35.200000762939</ele>
        <time>2018-08-02T08:08:13.000Z</time>
      </trkpt>
      <trkpt lat="47.09553" lon="-1.24306">
        <ele>35.599998474121</ele>
        <time>2018-08-02T08:08:26.000Z</time>
      </trkpt>
      <trkpt lat="47.09557" lon="-1.24312">
        <ele>35.799999237061</ele>
        <time>2018-08-02T08:08:32.000Z</time>
      </trkpt>
      <trkpt lat="47.09564" lon="-1.24318">
        <ele>36.599998474121</ele>
        <time>2018-08-02T08:08:40.000Z</time>
      </trkpt>
      <trkpt lat="47.09564" lon="-1.24319">
        <ele>36.599998474121</ele>
        <time>2018-08-02T08:08:41.000Z</time>
      </trkpt>
      <trkpt lat="47.09568" lon="-1.24321">
        <ele>37</ele>
        <time>2018-08-02T08:08:45.000Z</time>
      </trkpt>
      <trkpt lat="47.09569" lon="-1.24321">
        <ele>37.200000762939</ele>
        <time>2018-08-02T08:08:46.000Z</time>
      </trkpt>
      <trkpt lat="47.09574" lon="-1.24323">
        <ele>37.599998474121</ele>
        <time>2018-08-02T08:08:50.000Z</time>
      </trkpt>
      <trkpt lat="47.09576" lon="-1.24325">
        <ele>37.799999237061</ele>
        <time>2018-08-02T08:08:53.000Z</time>
      </trkpt>
      <trkpt lat="47.09583" lon="-1.24327">
        <ele>38.200000762939</ele>
        <time>2018-08-02T08:09:00.000Z</time>
      </trkpt>
      <trkpt lat="47.09585" lon="-1.24329">
        <ele>38.400001525879</ele>
        <time>2018-08-02T08:09:03.000Z</time>
      </trkpt>
      <trkpt lat="47.09586" lon="-1.2433">
        <ele>38.400001525879</ele>
        <time>2018-08-02T08:09:05.000Z</time>
      </trkpt>
      <trkpt lat="47.09588" lon="-1.24332">
        <ele>38.400001525879</ele>
        <time>2018-08-02T08:09:08.000Z</time>
      </trkpt>
      <trkpt lat="47.09592" lon="-1.24335">
        <ele>38.599998474121</ele>
        <time>2018-08-02T08:09:12.000Z</time>
      </trkpt>
      <trkpt lat="47.096" lon="-1.2434">
        <ele>39</ele>
        <time>2018-08-02T08:09:18.000Z</time>
      </trkpt>
      <trkpt lat="47.09601" lon="-1.24341">
        <ele>39.200000762939</ele>
        <time>2018-08-02T08:09:19.000Z</time>
      </trkpt>
      <trkpt lat="47.09604" lon="-1.24347">
        <ele>39.200000762939</ele>
        <time>2018-08-02T08:09:23.000Z</time>
      </trkpt>
      <trkpt lat="47.09605" lon="-1.24349">
        <ele>39.200000762939</ele>
        <time>2018-08-02T08:09:24.000Z</time>
      </trkpt>
      <trkpt lat="47.09608" lon="-1.24359">
        <ele>39.400001525879</ele>
        <time>2018-08-02T08:09:29.000Z</time>
      </trkpt>
      <trkpt lat="47.09608" lon="-1.24361">
        <ele>39.400001525879</ele>
        <time>2018-08-02T08:09:30.000Z</time>
      </trkpt>
      <trkpt lat="47.09614" lon="-1.24368">
        <ele>39.400001525879</ele>
        <time>2018-08-02T08:09:37.000Z</time>
      </trkpt>
      <trkpt lat="47.09615" lon="-1.24368">
        <ele>39.599998474121</ele>
        <time>2018-08-02T08:09:38.000Z</time>
      </trkpt>
      <trkpt lat="47.0962" lon="-1.2437">
        <ele>39.799999237061</ele>
        <time>2018-08-02T08:09:42.000Z</time>
      </trkpt>
      <trkpt lat="47.09627" lon="-1.24373">
        <ele>40</ele>
        <time>2018-08-02T08:09:47.000Z</time>
      </trkpt>
      <trkpt lat="47.09628" lon="-1.24374">
        <ele>40</ele>
        <time>2018-08-02T08:09:48.000Z</time>
      </trkpt>
      <trkpt lat="47.09635" lon="-1.24382">
        <ele>40.200000762939</ele>
        <time>2018-08-02T08:09:57.000Z</time>
      </trkpt>
      <trkpt lat="47.09636" lon="-1.24382">
        <ele>40.200000762939</ele>
        <time>2018-08-02T08:09:58.000Z</time>
      </trkpt>
      <trkpt lat="47.09642" lon="-1.2439">
        <ele>40.200000762939</ele>
        <time>2018-08-02T08:10:07.000Z</time>
      </trkpt>
      <trkpt lat="47.09644" lon="-1.24391">
        <ele>40.400001525879</ele>
        <time>2018-08-02T08:10:09.000Z</time>
      </trkpt>
      <trkpt lat="47.09647" lon="-1.24394">
        <ele>40.400001525879</ele>
        <time>2018-08-02T08:10:12.000Z</time>
      </trkpt>
      <trkpt lat="47.09655" lon="-1.244">
        <ele>40.400001525879</ele>
        <time>2018-08-02T08:10:20.000Z</time>
      </trkpt>
      <trkpt lat="47.09656" lon="-1.24401">
        <ele>40.400001525879</ele>
        <time>2018-08-02T08:10:21.000Z</time>
      </trkpt>
      <trkpt lat="47.09661" lon="-1.24406">
        <ele>41</ele>
        <time>2018-08-02T08:10:26.000Z</time>
      </trkpt>
      <trkpt lat="47.09662" lon="-1.24407">
        <ele>41</ele>
        <time>2018-08-02T08:10:27.000Z</time>
      </trkpt>
      <trkpt lat="47.09663" lon="-1.24408">
        <ele>41</ele>
        <time>2018-08-02T08:10:29.000Z</time>
      </trkpt>
      <trkpt lat="47.09673" lon="-1.24412">
        <ele>41.799999237061</ele>
        <time>2018-08-02T08:10:38.000Z</time>
      </trkpt>
      <trkpt lat="47.09675" lon="-1.24414">
        <ele>41.799999237061</ele>
        <time>2018-08-02T08:10:40.000Z</time>
      </trkpt>
      <trkpt lat="47.09682" lon="-1.24417">
        <ele>42.400001525879</ele>
        <time>2018-08-02T08:10:45.000Z</time>
      </trkpt>
      <trkpt lat="47.09685" lon="-1.24418">
        <ele>42.599998474121</ele>
        <time>2018-08-02T08:10:47.000Z</time>
      </trkpt>
      <trkpt lat="47.09692" lon="-1.24424">
        <ele>43</ele>
        <time>2018-08-02T08:11:04.000Z</time>
      </trkpt>
      <trkpt lat="47.09709" lon="-1.24435">
        <ele>44</ele>
        <time>2018-08-02T08:11:22.000Z</time>
      </trkpt>
      <trkpt lat="47.09726" lon="-1.24445">
        <ele>45.200000762939</ele>
        <time>2018-08-02T08:11:38.000Z</time>
      </trkpt>
      <trkpt lat="47.09727" lon="-1.24446">
        <ele>45.200000762939</ele>
        <time>2018-08-02T08:11:39.000Z</time>
      </trkpt>
      <trkpt lat="47.09732" lon="-1.24447">
        <ele>45.599998474121</ele>
        <time>2018-08-02T08:11:45.000Z</time>
      </trkpt>
      <trkpt lat="47.0975" lon="-1.24455">
        <ele>46.200000762939</ele>
        <time>2018-08-02T08:12:03.000Z</time>
      </trkpt>
      <trkpt lat="47.09752" lon="-1.24456">
        <ele>46.200000762939</ele>
        <time>2018-08-02T08:12:05.000Z</time>
      </trkpt>
      <trkpt lat="47.09754" lon="-1.24457">
        <ele>46.200000762939</ele>
        <time>2018-08-02T08:12:07.000Z</time>
      </trkpt>
      <trkpt lat="47.09761" lon="-1.24461">
        <ele>46.200000762939</ele>
        <time>2018-08-02T08:12:14.000Z</time>
      </trkpt>
      <trkpt lat="47.09763" lon="-1.24462">
        <ele>46.200000762939</ele>
        <time>2018-08-02T08:12:16.000Z</time>
      </trkpt>
      <trkpt lat="47.0977" lon="-1.24465">
        <ele>45.799999237061</ele>
        <time>2018-08-02T08:12:22.000Z</time>
      </trkpt>
      <trkpt lat="47.09771" lon="-1.24465">
        <ele>45.799999237061</ele>
        <time>2018-08-02T08:12:23.000Z</time>
      </trkpt>
      <trkpt lat="47.09772" lon="-1.24466">
        <ele>45.799999237061</ele>
        <time>2018-08-02T08:12:26.000Z</time>
      </trkpt>
      <trkpt lat="47.09775" lon="-1.24468">
        <ele>45.599998474121</ele>
        <time>2018-08-02T08:12:30.000Z</time>
      </trkpt>
      <trkpt lat="47.09779" lon="-1.24469">
        <ele>45.400001525879</ele>
        <time>2018-08-02T08:12:34.000Z</time>
      </trkpt>
      <trkpt lat="47.0978" lon="-1.2447">
        <ele>45.400001525879</ele>
        <time>2018-08-02T08:12:35.000Z</time>
      </trkpt>
      <trkpt lat="47.09793" lon="-1.24476">
        <ele>45</ele>
        <time>2018-08-02T08:12:47.000Z</time>
      </trkpt>
      <trkpt lat="47.09794" lon="-1.24476">
        <ele>44.799999237061</ele>
        <time>2018-08-02T08:12:48.000Z</time>
      </trkpt>
      <trkpt lat="47.09796" lon="-1.24478">
        <ele>44.799999237061</ele>
        <time>2018-08-02T08:12:50.000Z</time>
      </trkpt>
      <trkpt lat="47.09812" lon="-1.24485">
        <ele>43.799999237061</ele>
        <time>2018-08-02T08:13:03.000Z</time>
      </trkpt>
      <trkpt lat="47.09813" lon="-1.24485">
        <ele>43.799999237061</ele>
        <time>2018-08-02T08:13:04.000Z</time>
      </trkpt>
      <trkpt lat="47.09827" lon="-1.24491">
        <ele>43.599998474121</ele>
        <time>2018-08-02T08:13:16.000Z</time>
      </trkpt>
      <trkpt lat="47.09828" lon="-1.24492">
        <ele>43.599998474121</ele>
        <time>2018-08-02T08:13:17.000Z</time>
      </trkpt>
      <trkpt lat="47.09833" lon="-1.24493">
        <ele>43.400001525879</ele>
        <time>2018-08-02T08:13:21.000Z</time>
      </trkpt>
      <trkpt lat="47.09837" lon="-1.24498">
        <ele>43</ele>
        <time>2018-08-02T08:13:29.000Z</time>
      </trkpt>
      <trkpt lat="47.09839" lon="-1.24524">
        <ele>42.200000762939</ele>
        <time>2018-08-02T08:13:43.000Z</time>
      </trkpt>
      <trkpt lat="47.09838" lon="-1.24529">
        <ele>42</ele>
        <time>2018-08-02T08:13:46.000Z</time>
      </trkpt>
      <trkpt lat="47.09838" lon="-1.24531">
        <ele>41.799999237061</ele>
        <time>2018-08-02T08:13:47.000Z</time>
      </trkpt>
      <trkpt lat="47.09834" lon="-1.24558">
        <ele>41</ele>
        <time>2018-08-02T08:14:04.000Z</time>
      </trkpt>
      <trkpt lat="47.09833" lon="-1.24559">
        <ele>41</ele>
        <time>2018-08-02T08:14:05.000Z</time>
      </trkpt>
      <trkpt lat="47.09833" lon="-1.24565">
        <ele>40.799999237061</ele>
        <time>2018-08-02T08:14:09.000Z</time>
      </trkpt>
      <trkpt lat="47.09832" lon="-1.24571">
        <ele>40.400001525879</ele>
        <time>2018-08-02T08:14:12.000Z</time>
      </trkpt>
      <trkpt lat="47.09839" lon="-1.2458">
        <ele>39.599998474121</ele>
        <time>2018-08-02T08:15:04.000Z</time>
      </trkpt>
      <trkpt lat="47.09846" lon="-1.24579">
        <ele>39.799999237061</ele>
        <time>2018-08-02T08:15:14.000Z</time>
      </trkpt>
      <trkpt lat="47.09848" lon="-1.24579">
        <ele>39.799999237061</ele>
        <time>2018-08-02T08:15:17.000Z</time>
      </trkpt>
      <trkpt lat="47.09858" lon="-1.24573">
        <ele>40.200000762939</ele>
        <time>2018-08-02T08:15:40.000Z</time>
      </trkpt>
      <trkpt lat="47.0986" lon="-1.24573">
        <ele>40.200000762939</ele>
        <time>2018-08-02T08:15:42.000Z</time>
      </trkpt>
      <trkpt lat="47.09863" lon="-1.24571">
        <ele>40.400001525879</ele>
        <time>2018-08-02T08:15:46.000Z</time>
      </trkpt>
      <trkpt lat="47.09867" lon="-1.24568">
        <ele>40.599998474121</ele>
        <time>2018-08-02T08:15:51.000Z</time>
      </trkpt>
      <trkpt lat="47.09874" lon="-1.24565">
        <ele>40.799999237061</ele>
        <time>2018-08-02T08:15:59.000Z</time>
      </trkpt>
      <trkpt lat="47.09882" lon="-1.24562">
        <ele>41</ele>
        <time>2018-08-02T08:16:07.000Z</time>
      </trkpt>
      <trkpt lat="47.09883" lon="-1.24562">
        <ele>41</ele>
        <time>2018-08-02T08:16:08.000Z</time>
      </trkpt>
      <trkpt lat="47.0989" lon="-1.24559">
        <ele>41</ele>
        <time>2018-08-02T08:16:14.000Z</time>
      </trkpt>
      <trkpt lat="47.09891" lon="-1.24558">
        <ele>41</ele>
        <time>2018-08-02T08:16:15.000Z</time>
      </trkpt>
      <trkpt lat="47.09896" lon="-1.24556">
        <ele>41</ele>
        <time>2018-08-02T08:16:19.000Z</time>
      </trkpt>
      <trkpt lat="47.09904" lon="-1.24551">
        <ele>41.200000762939</ele>
        <time>2018-08-02T08:16:27.000Z</time>
      </trkpt>
      <trkpt lat="47.09905" lon="-1.2455">
        <ele>41.200000762939</ele>
        <time>2018-08-02T08:16:28.000Z</time>
      </trkpt>
      <trkpt lat="47.09912" lon="-1.24547">
        <ele>41.200000762939</ele>
        <time>2018-08-02T08:16:35.000Z</time>
      </trkpt>
      <trkpt lat="47.09913" lon="-1.24546">
        <ele>41.200000762939</ele>
        <time>2018-08-02T08:16:36.000Z</time>
      </trkpt>
      <trkpt lat="47.09917" lon="-1.24544">
        <ele>41.200000762939</ele>
        <time>2018-08-02T08:16:40.000Z</time>
      </trkpt>
      <trkpt lat="47.09923" lon="-1.24542">
        <ele>41</ele>
        <time>2018-08-02T08:16:46.000Z</time>
      </trkpt>
      <trkpt lat="47.09927" lon="-1.24541">
        <ele>41</ele>
        <time>2018-08-02T08:16:49.000Z</time>
      </trkpt>
      <trkpt lat="47.09931" lon="-1.24539">
        <ele>41</ele>
        <time>2018-08-02T08:16:53.000Z</time>
      </trkpt>
      <trkpt lat="47.09948" lon="-1.24529">
        <ele>40.799999237061</ele>
        <time>2018-08-02T08:17:06.000Z</time>
      </trkpt>
      <trkpt lat="47.09961" lon="-1.24521">
        <ele>40.799999237061</ele>
        <time>2018-08-02T08:17:19.000Z</time>
      </trkpt>
      <trkpt lat="47.09964" lon="-1.2452">
        <ele>40.799999237061</ele>
        <time>2018-08-02T08:17:21.000Z</time>
      </trkpt>
      <trkpt lat="47.09981" lon="-1.24509">
        <ele>40.599998474121</ele>
        <time>2018-08-02T08:17:36.000Z</time>
      </trkpt>
      <trkpt lat="47.09982" lon="-1.24508">
        <ele>40.599998474121</ele>
        <time>2018-08-02T08:17:37.000Z</time>
      </trkpt>
      <trkpt lat="47.09984" lon="-1.24507">
        <ele>40.599998474121</ele>
        <time>2018-08-02T08:17:39.000Z</time>
      </trkpt>
      <trkpt lat="47.1" lon="-1.24493">
        <ele>40.599998474121</ele>
        <time>2018-08-02T08:17:54.000Z</time>
      </trkpt>
      <trkpt lat="47.10012" lon="-1.24472">
        <ele>41.400001525879</ele>
        <time>2018-08-02T08:18:09.000Z</time>
      </trkpt>
      <trkpt lat="47.10012" lon="-1.24471">
        <ele>41.400001525879</ele>
        <time>2018-08-02T08:18:10.000Z</time>
      </trkpt>
      <trkpt lat="47.10013" lon="-1.2447">
        <ele>41.400001525879</ele>
        <time>2018-08-02T08:18:11.000Z</time>
      </trkpt>
      <trkpt lat="47.10015" lon="-1.24465">
        <ele>41.599998474121</ele>
        <time>2018-08-02T08:18:14.000Z</time>
      </trkpt>
      <trkpt lat="47.10023" lon="-1.24441">
        <ele>42.799999237061</ele>
        <time>2018-08-02T08:18:29.000Z</time>
      </trkpt>
      <trkpt lat="47.10025" lon="-1.24433">
        <ele>43.200000762939</ele>
        <time>2018-08-02T08:18:34.000Z</time>
      </trkpt>
      <trkpt lat="47.10025" lon="-1.24432">
        <ele>43.200000762939</ele>
        <time>2018-08-02T08:18:35.000Z</time>
      </trkpt>
      <trkpt lat="47.10035" lon="-1.24408">
        <ele>44.400001525879</ele>
        <time>2018-08-02T08:18:51.000Z</time>
      </trkpt>
      <trkpt lat="47.10039" lon="-1.24398">
        <ele>44.799999237061</ele>
        <time>2018-08-02T08:18:59.000Z</time>
      </trkpt>
      <trkpt lat="47.1004" lon="-1.24397">
        <ele>45</ele>
        <time>2018-08-02T08:19:00.000Z</time>
      </trkpt>
      <trkpt lat="47.10047" lon="-1.2438">
        <ele>45.200000762939</ele>
        <time>2018-08-02T08:19:12.000Z</time>
      </trkpt>
      <trkpt lat="47.10048" lon="-1.24378">
        <ele>45.200000762939</ele>
        <time>2018-08-02T08:19:13.000Z</time>
      </trkpt>
      <trkpt lat="47.10052" lon="-1.24364">
        <ele>45.400001525879</ele>
        <time>2018-08-02T08:19:22.000Z</time>
      </trkpt>
      <trkpt lat="47.10053" lon="-1.24362">
        <ele>45.400001525879</ele>
        <time>2018-08-02T08:19:23.000Z</time>
      </trkpt>
      <trkpt lat="47.10059" lon="-1.24336">
        <ele>45.799999237061</ele>
        <time>2018-08-02T08:19:41.000Z</time>
      </trkpt>
      <trkpt lat="47.10067" lon="-1.24313">
        <ele>46.200000762939</ele>
        <time>2018-08-02T08:19:57.000Z</time>
      </trkpt>
      <trkpt lat="47.1007" lon="-1.24301">
        <ele>46</ele>
        <time>2018-08-02T08:20:05.000Z</time>
      </trkpt>
      <trkpt lat="47.1007" lon="-1.243">
        <ele>46</ele>
        <time>2018-08-02T08:20:06.000Z</time>
      </trkpt>
      <trkpt lat="47.10078" lon="-1.24276">
        <ele>46</ele>
        <time>2018-08-02T08:20:23.000Z</time>
      </trkpt>
      <trkpt lat="47.10083" lon="-1.24262">
        <ele>46.200000762939</ele>
        <time>2018-08-02T08:20:33.000Z</time>
      </trkpt>
      <trkpt lat="47.10083" lon="-1.24261">
        <ele>46.200000762939</ele>
        <time>2018-08-02T08:20:34.000Z</time>
      </trkpt>
      <trkpt lat="47.10085" lon="-1.24255">
        <ele>46.400001525879</ele>
        <time>2018-08-02T08:20:38.000Z</time>
      </trkpt>
      <trkpt lat="47.10087" lon="-1.2425">
        <ele>46.400001525879</ele>
        <time>2018-08-02T08:20:42.000Z</time>
      </trkpt>
      <trkpt lat="47.10089" lon="-1.24248">
        <ele>46.400001525879</ele>
        <time>2018-08-02T08:20:44.000Z</time>
      </trkpt>
      <trkpt lat="47.10092" lon="-1.24241">
        <ele>46.599998474121</ele>
        <time>2018-08-02T08:20:49.000Z</time>
      </trkpt>
      <trkpt lat="47.10092" lon="-1.2424">
        <ele>46.599998474121</ele>
        <time>2018-08-02T08:20:50.000Z</time>
      </trkpt>
      <trkpt lat="47.10095" lon="-1.24236">
        <ele>46.599998474121</ele>
        <time>2018-08-02T08:20:53.000Z</time>
      </trkpt>
      <trkpt lat="47.10101" lon="-1.24229">
        <ele>46.799999237061</ele>
        <time>2018-08-02T08:21:00.000Z</time>
      </trkpt>
      <trkpt lat="47.10103" lon="-1.24228">
        <ele>47</ele>
        <time>2018-08-02T08:21:01.000Z</time>
      </trkpt>
      <trkpt lat="47.10111" lon="-1.24226">
        <ele>47.200000762939</ele>
        <time>2018-08-02T08:21:08.000Z</time>
      </trkpt>
      <trkpt lat="47.10112" lon="-1.24225">
        <ele>47.400001525879</ele>
        <time>2018-08-02T08:21:09.000Z</time>
      </trkpt>
      <trkpt lat="47.10129" lon="-1.24214">
        <ele>48</ele>
        <time>2018-08-02T08:21:26.000Z</time>
      </trkpt>
      <trkpt lat="47.10143" lon="-1.24228">
        <ele>48.400001525879</ele>
        <time>2018-08-02T08:21:43.000Z</time>
      </trkpt>
      <trkpt lat="47.10155" lon="-1.24247">
        <ele>48.799999237061</ele>
        <time>2018-08-02T08:21:57.000Z</time>
      </trkpt>
      <trkpt lat="47.10164" lon="-1.24256">
        <ele>49</ele>
        <time>2018-08-02T08:22:05.000Z</time>
      </trkpt>
      <trkpt lat="47.10165" lon="-1.24257">
        <ele>49.200000762939</ele>
        <time>2018-08-02T08:22:06.000Z</time>
      </trkpt>
      <trkpt lat="47.10169" lon="-1.2426">
        <ele>49.200000762939</ele>
        <time>2018-08-02T08:22:10.000Z</time>
      </trkpt>
      <trkpt lat="47.1017" lon="-1.24261">
        <ele>49.200000762939</ele>
        <time>2018-08-02T08:22:11.000Z</time>
      </trkpt>
      <trkpt lat="47.10185" lon="-1.24276">
        <ele>49.599998474121</ele>
        <time>2018-08-02T08:22:25.000Z</time>
      </trkpt>
      <trkpt lat="47.10202" lon="-1.24289">
        <ele>50.200000762939</ele>
        <time>2018-08-02T08:22:40.000Z</time>
      </trkpt>
      <trkpt lat="47.10204" lon="-1.24292">
        <ele>50.400001525879</ele>
        <time>2018-08-02T08:22:42.000Z</time>
      </trkpt>
      <trkpt lat="47.10205" lon="-1.24293">
        <ele>50.400001525879</ele>
        <time>2018-08-02T08:22:43.000Z</time>
      </trkpt>
      <trkpt lat="47.10211" lon="-1.24318">
        <ele>50.799999237061</ele>
        <time>2018-08-02T08:22:58.000Z</time>
      </trkpt>
      <trkpt lat="47.102" lon="-1.24339">
        <ele>50.200000762939</ele>
        <time>2018-08-02T08:23:15.000Z</time>
      </trkpt>
      <trkpt lat="47.10195" lon="-1.24352">
        <ele>49.799999237061</ele>
        <time>2018-08-02T08:23:23.000Z</time>
      </trkpt>
      <trkpt lat="47.10195" lon="-1.24354">
        <ele>49.799999237061</ele>
        <time>2018-08-02T08:23:24.000Z</time>
      </trkpt>
      <trkpt lat="47.10196" lon="-1.24381">
        <ele>49.200000762939</ele>
        <time>2018-08-02T08:23:38.000Z</time>
      </trkpt>
      <trkpt lat="47.10196" lon="-1.24383">
        <ele>49.200000762939</ele>
        <time>2018-08-02T08:23:39.000Z</time>
      </trkpt>
      <trkpt lat="47.10197" lon="-1.24387">
        <ele>49</ele>
        <time>2018-08-02T08:23:41.000Z</time>
      </trkpt>
      <trkpt lat="47.10204" lon="-1.24413">
        <ele>48.599998474121</ele>
        <time>2018-08-02T08:23:57.000Z</time>
      </trkpt>
      <trkpt lat="47.10208" lon="-1.24433">
        <ele>48.200000762939</ele>
        <time>2018-08-02T08:24:09.000Z</time>
      </trkpt>
      <trkpt lat="47.10208" lon="-1.24435">
        <ele>48.200000762939</ele>
        <time>2018-08-02T08:24:10.000Z</time>
      </trkpt>
      <trkpt lat="47.10209" lon="-1.24447">
        <ele>48</ele>
        <time>2018-08-02T08:24:18.000Z</time>
      </trkpt>
      <trkpt lat="47.10209" lon="-1.24449">
        <ele>47.799999237061</ele>
        <time>2018-08-02T08:24:19.000Z</time>
      </trkpt>
      <trkpt lat="47.10204" lon="-1.24475">
        <ele>47.200000762939</ele>
        <time>2018-08-02T08:24:35.000Z</time>
      </trkpt>
      <trkpt lat="47.10199" lon="-1.24492">
        <ele>46.599998474121</ele>
        <time>2018-08-02T08:24:45.000Z</time>
      </trkpt>
      <trkpt lat="47.10199" lon="-1.24493">
        <ele>46.599998474121</ele>
        <time>2018-08-02T08:24:46.000Z</time>
      </trkpt>
      <trkpt lat="47.10196" lon="-1.24501">
        <ele>46.400001525879</ele>
        <time>2018-08-02T08:24:51.000Z</time>
      </trkpt>
      <trkpt lat="47.10196" lon="-1.24503">
        <ele>46.200000762939</ele>
        <time>2018-08-02T08:24:52.000Z</time>
      </trkpt>
      <trkpt lat="47.10189" lon="-1.24528">
        <ele>45.599998474121</ele>
        <time>2018-08-02T08:25:08.000Z</time>
      </trkpt>
      <trkpt lat="47.10182" lon="-1.24553">
        <ele>44.599998474121</ele>
        <time>2018-08-02T08:25:23.000Z</time>
      </trkpt>
      <trkpt lat="47.10181" lon="-1.24556">
        <ele>44.400001525879</ele>
        <time>2018-08-02T08:25:25.000Z</time>
      </trkpt>
      <trkpt lat="47.1018" lon="-1.24558">
        <ele>44.400001525879</ele>
        <time>2018-08-02T08:25:26.000Z</time>
      </trkpt>
      <trkpt lat="47.10173" lon="-1.24583">
        <ele>43.599998474121</ele>
        <time>2018-08-02T08:25:42.000Z</time>
      </trkpt>
      <trkpt lat="47.10167" lon="-1.24605">
        <ele>43</ele>
        <time>2018-08-02T08:25:55.000Z</time>
      </trkpt>
      <trkpt lat="47.10166" lon="-1.24606">
        <ele>43</ele>
        <time>2018-08-02T08:25:56.000Z</time>
      </trkpt>
      <trkpt lat="47.10162" lon="-1.24625">
        <ele>42.599998474121</ele>
        <time>2018-08-02T08:26:07.000Z</time>
      </trkpt>
      <trkpt lat="47.10161" lon="-1.24626">
        <ele>42.400001525879</ele>
        <time>2018-08-02T08:26:08.000Z</time>
      </trkpt>
      <trkpt lat="47.1016" lon="-1.24633">
        <ele>42.400001525879</ele>
        <time>2018-08-02T08:26:12.000Z</time>
      </trkpt>
      <trkpt lat="47.1016" lon="-1.2466">
        <ele>42</ele>
        <time>2018-08-02T08:26:28.000Z</time>
      </trkpt>
      <trkpt lat="47.10165" lon="-1.24686">
        <ele>42</ele>
        <time>2018-08-02T08:26:42.000Z</time>
      </trkpt>
      <trkpt lat="47.10167" lon="-1.24698">
        <ele>42</ele>
        <time>2018-08-02T08:26:48.000Z</time>
      </trkpt>
      <trkpt lat="47.10167" lon="-1.247">
        <ele>42</ele>
        <time>2018-08-02T08:26:49.000Z</time>
      </trkpt>
      <trkpt lat="47.10171" lon="-1.24722">
        <ele>42.200000762939</ele>
        <time>2018-08-02T08:27:02.000Z</time>
      </trkpt>
      <trkpt lat="47.10172" lon="-1.24724">
        <ele>42.200000762939</ele>
        <time>2018-08-02T08:27:03.000Z</time>
      </trkpt>
      <trkpt lat="47.10178" lon="-1.24748">
        <ele>42.400001525879</ele>
        <time>2018-08-02T08:27:17.000Z</time>
      </trkpt>
      <trkpt lat="47.10179" lon="-1.2475">
        <ele>42.400001525879</ele>
        <time>2018-08-02T08:27:18.000Z</time>
      </trkpt>
      <trkpt lat="47.10181" lon="-1.24761">
        <ele>42.599998474121</ele>
        <time>2018-08-02T08:27:25.000Z</time>
      </trkpt>
      <trkpt lat="47.10182" lon="-1.24763">
        <ele>42.599998474121</ele>
        <time>2018-08-02T08:27:26.000Z</time>
      </trkpt>
      <trkpt lat="47.10183" lon="-1.24769">
        <ele>42.599998474121</ele>
        <time>2018-08-02T08:27:30.000Z</time>
      </trkpt>
      <trkpt lat="47.10184" lon="-1.24771">
        <ele>42.599998474121</ele>
        <time>2018-08-02T08:27:31.000Z</time>
      </trkpt>
      <trkpt lat="47.10188" lon="-1.24797">
        <ele>42.799999237061</ele>
        <time>2018-08-02T08:27:46.000Z</time>
      </trkpt>
      <trkpt lat="47.1019" lon="-1.24804">
        <ele>43</ele>
        <time>2018-08-02T08:27:50.000Z</time>
      </trkpt>
      <trkpt lat="47.1019" lon="-1.24806">
        <ele>43</ele>
        <time>2018-08-02T08:27:51.000Z</time>
      </trkpt>
      <trkpt lat="47.10195" lon="-1.2483">
        <ele>43.200000762939</ele>
        <time>2018-08-02T08:28:05.000Z</time>
      </trkpt>
      <trkpt lat="47.10195" lon="-1.24832">
        <ele>43.200000762939</ele>
        <time>2018-08-02T08:28:06.000Z</time>
      </trkpt>
      <trkpt lat="47.10196" lon="-1.24835">
        <ele>43.200000762939</ele>
        <time>2018-08-02T08:28:08.000Z</time>
      </trkpt>
      <trkpt lat="47.10198" lon="-1.24845">
        <ele>43.400001525879</ele>
        <time>2018-08-02T08:28:14.000Z</time>
      </trkpt>
      <trkpt lat="47.10198" lon="-1.24847">
        <ele>43.400001525879</ele>
        <time>2018-08-02T08:28:15.000Z</time>
      </trkpt>
      <trkpt lat="47.10204" lon="-1.24874">
        <ele>43.599998474121</ele>
        <time>2018-08-02T08:28:31.000Z</time>
      </trkpt>
      <trkpt lat="47.10206" lon="-1.24884">
        <ele>43.599998474121</ele>
        <time>2018-08-02T08:28:36.000Z</time>
      </trkpt>
      <trkpt lat="47.10207" lon="-1.24886">
        <ele>43.599998474121</ele>
        <time>2018-08-02T08:28:37.000Z</time>
      </trkpt>
      <trkpt lat="47.10212" lon="-1.24911">
        <ele>43.799999237061</ele>
        <time>2018-08-02T08:28:52.000Z</time>
      </trkpt>
      <trkpt lat="47.10215" lon="-1.24924">
        <ele>44</ele>
        <time>2018-08-02T08:28:59.000Z</time>
      </trkpt>
      <trkpt lat="47.10215" lon="-1.24926">
        <ele>44</ele>
        <time>2018-08-02T08:29:00.000Z</time>
      </trkpt>
      <trkpt lat="47.1022" lon="-1.24948">
        <ele>43.400001525879</ele>
        <time>2018-08-02T08:29:13.000Z</time>
      </trkpt>
      <trkpt lat="47.1022" lon="-1.2495">
        <ele>43.400001525879</ele>
        <time>2018-08-02T08:29:14.000Z</time>
      </trkpt>
      <trkpt lat="47.10222" lon="-1.24959">
        <ele>43.200000762939</ele>
        <time>2018-08-02T08:29:20.000Z</time>
      </trkpt>
      <trkpt lat="47.10222" lon="-1.24961">
        <ele>43.200000762939</ele>
        <time>2018-08-02T08:29:21.000Z</time>
      </trkpt>
      <trkpt lat="47.10226" lon="-1.24986">
        <ele>42.799999237061</ele>
        <time>2018-08-02T08:29:38.000Z</time>
      </trkpt>
      <trkpt lat="47.10227" lon="-1.24988">
        <ele>42.599998474121</ele>
        <time>2018-08-02T08:29:39.000Z</time>
      </trkpt>
      <trkpt lat="47.10227" lon="-1.24991">
        <ele>42.599998474121</ele>
        <time>2018-08-02T08:29:41.000Z</time>
      </trkpt>
      <trkpt lat="47.10232" lon="-1.25011">
        <ele>42.400001525879</ele>
        <time>2018-08-02T08:29:53.000Z</time>
      </trkpt>
      <trkpt lat="47.10232" lon="-1.25013">
        <ele>42.400001525879</ele>
        <time>2018-08-02T08:29:54.000Z</time>
      </trkpt>
      <trkpt lat="47.10233" lon="-1.25018">
        <ele>42.400001525879</ele>
        <time>2018-08-02T08:29:57.000Z</time>
      </trkpt>
      <trkpt lat="47.10235" lon="-1.25025">
        <ele>42.400001525879</ele>
        <time>2018-08-02T08:30:01.000Z</time>
      </trkpt>
      <trkpt lat="47.10235" lon="-1.25027">
        <ele>42.400001525879</ele>
        <time>2018-08-02T08:30:02.000Z</time>
      </trkpt>
      <trkpt lat="47.10236" lon="-1.25032">
        <ele>42.200000762939</ele>
        <time>2018-08-02T08:30:05.000Z</time>
      </trkpt>
      <trkpt lat="47.10237" lon="-1.25046">
        <ele>42.200000762939</ele>
        <time>2018-08-02T08:30:12.000Z</time>
      </trkpt>
      <trkpt lat="47.10237" lon="-1.25047">
        <ele>42.200000762939</ele>
        <time>2018-08-02T08:30:13.000Z</time>
      </trkpt>
      <trkpt lat="47.10237" lon="-1.2505">
        <ele>42</ele>
        <time>2018-08-02T08:30:15.000Z</time>
      </trkpt>
      <trkpt lat="47.10232" lon="-1.25077">
        <ele>41.799999237061</ele>
        <time>2018-08-02T08:30:31.000Z</time>
      </trkpt>
      <trkpt lat="47.10231" lon="-1.2508">
        <ele>41.799999237061</ele>
        <time>2018-08-02T08:30:33.000Z</time>
      </trkpt>
      <trkpt lat="47.10229" lon="-1.25088">
        <ele>41.599998474121</ele>
        <time>2018-08-02T08:30:38.000Z</time>
      </trkpt>
      <trkpt lat="47.10226" lon="-1.25092">
        <ele>41.599998474121</ele>
        <time>2018-08-02T08:31:23.000Z</time>
      </trkpt>
      <trkpt lat="47.10224" lon="-1.25097">
        <ele>41.599998474121</ele>
        <time>2018-08-02T08:31:39.000Z</time>
      </trkpt>
      <trkpt lat="47.10219" lon="-1.25101">
        <ele>41.400001525879</ele>
        <time>2018-08-02T08:31:49.000Z</time>
      </trkpt>
      <trkpt lat="47.10213" lon="-1.25101">
        <ele>41.200000762939</ele>
        <time>2018-08-02T08:32:17.000Z</time>
      </trkpt>
      <trkpt lat="47.10212" lon="-1.25102">
        <ele>41.200000762939</ele>
        <time>2018-08-02T08:32:19.000Z</time>
      </trkpt>
      <trkpt lat="47.10209" lon="-1.25106">
        <ele>41.200000762939</ele>
        <time>2018-08-02T08:32:23.000Z</time>
      </trkpt>
      <trkpt lat="47.10207" lon="-1.25107">
        <ele>41.200000762939</ele>
        <time>2018-08-02T08:32:25.000Z</time>
      </trkpt>
      <trkpt lat="47.10201" lon="-1.25119">
        <ele>41</ele>
        <time>2018-08-02T08:32:33.000Z</time>
      </trkpt>
      <trkpt lat="47.10199" lon="-1.2512">
        <ele>41</ele>
        <time>2018-08-02T08:32:34.000Z</time>
      </trkpt>
      <trkpt lat="47.10189" lon="-1.2513">
        <ele>40.599998474121</ele>
        <time>2018-08-02T08:32:45.000Z</time>
      </trkpt>
      <trkpt lat="47.10188" lon="-1.25131">
        <ele>40.599998474121</ele>
        <time>2018-08-02T08:32:46.000Z</time>
      </trkpt>
      <trkpt lat="47.10185" lon="-1.25135">
        <ele>40.599998474121</ele>
        <time>2018-08-02T08:32:49.000Z</time>
      </trkpt>
      <trkpt lat="47.10182" lon="-1.25138">
        <ele>40.599998474121</ele>
        <time>2018-08-02T08:32:52.000Z</time>
      </trkpt>
      <trkpt lat="47.10172" lon="-1.25149">
        <ele>40.200000762939</ele>
        <time>2018-08-02T08:33:02.000Z</time>
      </trkpt>
      <trkpt lat="47.10171" lon="-1.2515">
        <ele>40.200000762939</ele>
        <time>2018-08-02T08:33:03.000Z</time>
      </trkpt>
      <trkpt lat="47.10162" lon="-1.25162">
        <ele>40</ele>
        <time>2018-08-02T08:33:13.000Z</time>
      </trkpt>
      <trkpt lat="47.10161" lon="-1.25163">
        <ele>40</ele>
        <time>2018-08-02T08:33:14.000Z</time>
      </trkpt>
      <trkpt lat="47.10158" lon="-1.25168">
        <ele>40</ele>
        <time>2018-08-02T08:33:18.000Z</time>
      </trkpt>
      <trkpt lat="47.10154" lon="-1.25173">
        <ele>39.799999237061</ele>
        <time>2018-08-02T08:33:22.000Z</time>
      </trkpt>
      <trkpt lat="47.10143" lon="-1.25192">
        <ele>39.599998474121</ele>
        <time>2018-08-02T08:33:37.000Z</time>
      </trkpt>
      <trkpt lat="47.10142" lon="-1.25194">
        <ele>39.599998474121</ele>
        <time>2018-08-02T08:33:38.000Z</time>
      </trkpt>
      <trkpt lat="47.10132" lon="-1.25208">
        <ele>39.400001525879</ele>
        <time>2018-08-02T08:33:49.000Z</time>
      </trkpt>
      <trkpt lat="47.10131" lon="-1.25209">
        <ele>39.400001525879</ele>
        <time>2018-08-02T08:33:50.000Z</time>
      </trkpt>
      <trkpt lat="47.10125" lon="-1.2522">
        <ele>39.200000762939</ele>
        <time>2018-08-02T08:33:58.000Z</time>
      </trkpt>
      <trkpt lat="47.10124" lon="-1.25221">
        <ele>39.200000762939</ele>
        <time>2018-08-02T08:33:59.000Z</time>
      </trkpt>
      <trkpt lat="47.1012" lon="-1.25229">
        <ele>39</ele>
        <time>2018-08-02T08:34:05.000Z</time>
      </trkpt>
      <trkpt lat="47.10119" lon="-1.25231">
        <ele>39</ele>
        <time>2018-08-02T08:34:06.000Z</time>
      </trkpt>
      <trkpt lat="47.10106" lon="-1.25251">
        <ele>38.400001525879</ele>
        <time>2018-08-02T08:34:22.000Z</time>
      </trkpt>
      <trkpt lat="47.10106" lon="-1.25252">
        <ele>38.400001525879</ele>
        <time>2018-08-02T08:34:23.000Z</time>
      </trkpt>
      <trkpt lat="47.10105" lon="-1.25254">
        <ele>38.400001525879</ele>
        <time>2018-08-02T08:34:24.000Z</time>
      </trkpt>
      <trkpt lat="47.101" lon="-1.25259">
        <ele>38.200000762939</ele>
        <time>2018-08-02T08:34:29.000Z</time>
      </trkpt>
      <trkpt lat="47.10098" lon="-1.25262">
        <ele>38.200000762939</ele>
        <time>2018-08-02T08:34:31.000Z</time>
      </trkpt>
      <trkpt lat="47.10085" lon="-1.25282">
        <ele>37.599998474121</ele>
        <time>2018-08-02T08:34:46.000Z</time>
      </trkpt>
      <trkpt lat="47.10084" lon="-1.25283">
        <ele>37.599998474121</ele>
        <time>2018-08-02T08:34:47.000Z</time>
      </trkpt>
      <trkpt lat="47.10083" lon="-1.25285">
        <ele>37.400001525879</ele>
        <time>2018-08-02T08:34:48.000Z</time>
      </trkpt>
      <trkpt lat="47.10078" lon="-1.25291">
        <ele>37.400001525879</ele>
        <time>2018-08-02T08:34:53.000Z</time>
      </trkpt>
      <trkpt lat="47.10077" lon="-1.25292">
        <ele>37.200000762939</ele>
        <time>2018-08-02T08:34:54.000Z</time>
      </trkpt>
      <trkpt lat="47.10071" lon="-1.25298">
        <ele>37.200000762939</ele>
        <time>2018-08-02T08:35:01.000Z</time>
      </trkpt>
      <trkpt lat="47.1007" lon="-1.25298">
        <ele>37</ele>
        <time>2018-08-02T08:35:02.000Z</time>
      </trkpt>
      <trkpt lat="47.10062" lon="-1.25305">
        <ele>37</ele>
        <time>2018-08-02T08:35:09.000Z</time>
      </trkpt>
      <trkpt lat="47.10061" lon="-1.25305">
        <ele>37</ele>
        <time>2018-08-02T08:35:10.000Z</time>
      </trkpt>
      <trkpt lat="47.10045" lon="-1.25312">
        <ele>36.599998474121</ele>
        <time>2018-08-02T08:35:25.000Z</time>
      </trkpt>
      <trkpt lat="47.10043" lon="-1.25312">
        <ele>36.599998474121</ele>
        <time>2018-08-02T08:35:26.000Z</time>
      </trkpt>
      <trkpt lat="47.10037" lon="-1.25313">
        <ele>36.599998474121</ele>
        <time>2018-08-02T08:35:31.000Z</time>
      </trkpt>
      <trkpt lat="47.10036" lon="-1.25313">
        <ele>36.599998474121</ele>
        <time>2018-08-02T08:35:32.000Z</time>
      </trkpt>
      <trkpt lat="47.10033" lon="-1.25313">
        <ele>36.400001525879</ele>
        <time>2018-08-02T08:35:34.000Z</time>
      </trkpt>
      <trkpt lat="47.10026" lon="-1.25314">
        <ele>36.400001525879</ele>
        <time>2018-08-02T08:35:40.000Z</time>
      </trkpt>
      <trkpt lat="47.10025" lon="-1.25314">
        <ele>36.400001525879</ele>
        <time>2018-08-02T08:35:41.000Z</time>
      </trkpt>
      <trkpt lat="47.10012" lon="-1.25316">
        <ele>36.400001525879</ele>
        <time>2018-08-02T08:35:51.000Z</time>
      </trkpt>
      <trkpt lat="47.10011" lon="-1.25316">
        <ele>36.400001525879</ele>
        <time>2018-08-02T08:35:52.000Z</time>
      </trkpt>
      <trkpt lat="47.09993" lon="-1.2532">
        <ele>36.200000762939</ele>
        <time>2018-08-02T08:36:06.000Z</time>
      </trkpt>
      <trkpt lat="47.09975" lon="-1.25326">
        <ele>36.400001525879</ele>
        <time>2018-08-02T08:36:20.000Z</time>
      </trkpt>
      <trkpt lat="47.09957" lon="-1.25331">
        <ele>36.400001525879</ele>
        <time>2018-08-02T08:36:34.000Z</time>
      </trkpt>
      <trkpt lat="47.09955" lon="-1.25332">
        <ele>36.400001525879</ele>
        <time>2018-08-02T08:36:36.000Z</time>
      </trkpt>
      <trkpt lat="47.09954" lon="-1.25332">
        <ele>36.400001525879</ele>
        <time>2018-08-02T08:36:37.000Z</time>
      </trkpt>
      <trkpt lat="47.09936" lon="-1.2534">
        <ele>36.599998474121</ele>
        <time>2018-08-02T08:36:52.000Z</time>
      </trkpt>
      <trkpt lat="47.09925" lon="-1.25346">
        <ele>36.799999237061</ele>
        <time>2018-08-02T08:37:01.000Z</time>
      </trkpt>
      <trkpt lat="47.09922" lon="-1.25347">
        <ele>36.799999237061</ele>
        <time>2018-08-02T08:37:03.000Z</time>
      </trkpt>
      <trkpt lat="47.09904" lon="-1.25352">
        <ele>36.799999237061</ele>
        <time>2018-08-02T08:37:18.000Z</time>
      </trkpt>
      <trkpt lat="47.09894" lon="-1.25354">
        <ele>36.599998474121</ele>
        <time>2018-08-02T08:37:27.000Z</time>
      </trkpt>
      <trkpt lat="47.09892" lon="-1.25354">
        <ele>36.599998474121</ele>
        <time>2018-08-02T08:37:28.000Z</time>
      </trkpt>
      <trkpt lat="47.09885" lon="-1.25353">
        <ele>36.400001525879</ele>
        <time>2018-08-02T08:37:33.000Z</time>
      </trkpt>
      <trkpt lat="47.09883" lon="-1.25353">
        <ele>36.400001525879</ele>
        <time>2018-08-02T08:37:34.000Z</time>
      </trkpt>
      <trkpt lat="47.09865" lon="-1.25351">
        <ele>35.799999237061</ele>
        <time>2018-08-02T08:37:49.000Z</time>
      </trkpt>
      <trkpt lat="47.09858" lon="-1.2535">
        <ele>35.599998474121</ele>
        <time>2018-08-02T08:37:55.000Z</time>
      </trkpt>
      <trkpt lat="47.09857" lon="-1.2535">
        <ele>35.599998474121</ele>
        <time>2018-08-02T08:37:56.000Z</time>
      </trkpt>
      <trkpt lat="47.09838" lon="-1.25348">
        <ele>35.200000762939</ele>
        <time>2018-08-02T08:38:12.000Z</time>
      </trkpt>
      <trkpt lat="47.09829" lon="-1.25348">
        <ele>35</ele>
        <time>2018-08-02T08:38:20.000Z</time>
      </trkpt>
      <trkpt lat="47.09827" lon="-1.25347">
        <ele>34.799999237061</ele>
        <time>2018-08-02T08:38:22.000Z</time>
      </trkpt>
      <trkpt lat="47.09823" lon="-1.25347">
        <ele>34.599998474121</ele>
        <time>2018-08-02T08:38:25.000Z</time>
      </trkpt>
      <trkpt lat="47.09817" lon="-1.25346">
        <ele>34.200000762939</ele>
        <time>2018-08-02T08:38:29.000Z</time>
      </trkpt>
      <trkpt lat="47.09815" lon="-1.25346">
        <ele>34.200000762939</ele>
        <time>2018-08-02T08:38:31.000Z</time>
      </trkpt>
      <trkpt lat="47.09811" lon="-1.25346">
        <ele>33.799999237061</ele>
        <time>2018-08-02T08:38:34.000Z</time>
      </trkpt>
      <trkpt lat="47.09793" lon="-1.25341">
        <ele>32.799999237061</ele>
        <time>2018-08-02T08:38:48.000Z</time>
      </trkpt>
      <trkpt lat="47.09783" lon="-1.25329">
        <ele>32.799999237061</ele>
        <time>2018-08-02T08:38:58.000Z</time>
      </trkpt>
      <trkpt lat="47.09781" lon="-1.25326">
        <ele>32.799999237061</ele>
        <time>2018-08-02T08:39:00.000Z</time>
      </trkpt>
      <trkpt lat="47.09773" lon="-1.25319">
        <ele>32.599998474121</ele>
        <time>2018-08-02T08:39:08.000Z</time>
      </trkpt>
      <trkpt lat="47.09772" lon="-1.25319">
        <ele>32.599998474121</ele>
        <time>2018-08-02T08:39:09.000Z</time>
      </trkpt>
      <trkpt lat="47.09754" lon="-1.25313">
        <ele>32.200000762939</ele>
        <time>2018-08-02T08:39:24.000Z</time>
      </trkpt>
      <trkpt lat="47.09736" lon="-1.25305">
        <ele>31.39999961853</ele>
        <time>2018-08-02T08:39:39.000Z</time>
      </trkpt>
      <trkpt lat="47.09719" lon="-1.25296">
        <ele>29.60000038147</ele>
        <time>2018-08-02T08:39:53.000Z</time>
      </trkpt>
      <trkpt lat="47.09705" lon="-1.2529">
        <ele>28.200000762939</ele>
        <time>2018-08-02T08:40:04.000Z</time>
      </trkpt>
      <trkpt lat="47.09702" lon="-1.25289">
        <ele>28</ele>
        <time>2018-08-02T08:40:06.000Z</time>
      </trkpt>
      <trkpt lat="47.09684" lon="-1.25281">
        <ele>26.60000038147</ele>
        <time>2018-08-02T08:40:21.000Z</time>
      </trkpt>
      <trkpt lat="47.09683" lon="-1.2528">
        <ele>26.60000038147</ele>
        <time>2018-08-02T08:40:22.000Z</time>
      </trkpt>
      <trkpt lat="47.0968" lon="-1.25279">
        <ele>26.39999961853</ele>
        <time>2018-08-02T08:40:25.000Z</time>
      </trkpt>
      <trkpt lat="47.09673" lon="-1.25279">
        <ele>26</ele>
        <time>2018-08-02T08:40:31.000Z</time>
      </trkpt>
      <trkpt lat="47.09672" lon="-1.25279">
        <ele>26</ele>
        <time>2018-08-02T08:40:32.000Z</time>
      </trkpt>
      <trkpt lat="47.09654" lon="-1.2527">
        <ele>25.200000762939</ele>
        <time>2018-08-02T08:40:45.000Z</time>
      </trkpt>
      <trkpt lat="47.09653" lon="-1.25269">
        <ele>25.200000762939</ele>
        <time>2018-08-02T08:40:46.000Z</time>
      </trkpt>
      <trkpt lat="47.09648" lon="-1.25266">
        <ele>25</ele>
        <time>2018-08-02T08:40:50.000Z</time>
      </trkpt>
      <trkpt lat="47.09631" lon="-1.2526">
        <ele>24.200000762939</ele>
        <time>2018-08-02T08:41:04.000Z</time>
      </trkpt>
      <trkpt lat="47.09622" lon="-1.25256">
        <ele>23.60000038147</ele>
        <time>2018-08-02T08:41:11.000Z</time>
      </trkpt>
      <trkpt lat="47.09621" lon="-1.25255">
        <ele>23.39999961853</ele>
        <time>2018-08-02T08:41:12.000Z</time>
      </trkpt>
      <trkpt lat="47.09603" lon="-1.25259">
        <ele>21.799999237061</ele>
        <time>2018-08-02T08:41:27.000Z</time>
      </trkpt>
      <trkpt lat="47.09593" lon="-1.25266">
        <ele>21</ele>
        <time>2018-08-02T08:41:36.000Z</time>
      </trkpt>
      <trkpt lat="47.09592" lon="-1.25267">
        <ele>20.799999237061</ele>
        <time>2018-08-02T08:41:37.000Z</time>
      </trkpt>
      <trkpt lat="47.09577" lon="-1.25283">
        <ele>19.39999961853</ele>
        <time>2018-08-02T08:41:52.000Z</time>
      </trkpt>
      <trkpt lat="47.09573" lon="-1.25287">
        <ele>19.60000038147</ele>
        <time>2018-08-02T08:41:57.000Z</time>
      </trkpt>
      <trkpt lat="47.09572" lon="-1.25288">
        <ele>19.60000038147</ele>
        <time>2018-08-02T08:41:58.000Z</time>
      </trkpt>
      <trkpt lat="47.09568" lon="-1.25295">
        <ele>20</ele>
        <time>2018-08-02T08:42:03.000Z</time>
      </trkpt>
      <trkpt lat="47.09567" lon="-1.25296">
        <ele>20</ele>
        <time>2018-08-02T08:42:04.000Z</time>
      </trkpt>
      <trkpt lat="47.09562" lon="-1.25301">
        <ele>20.39999961853</ele>
        <time>2018-08-02T08:42:09.000Z</time>
      </trkpt>
      <trkpt lat="47.09561" lon="-1.25303">
        <ele>20.39999961853</ele>
        <time>2018-08-02T08:42:11.000Z</time>
      </trkpt>
      <trkpt lat="47.09559" lon="-1.2531">
        <ele>20.60000038147</ele>
        <time>2018-08-02T08:42:18.000Z</time>
      </trkpt>
      <trkpt lat="47.09558" lon="-1.25311">
        <ele>20.60000038147</ele>
        <time>2018-08-02T08:42:19.000Z</time>
      </trkpt>
      <trkpt lat="47.09559" lon="-1.25317">
        <ele>20.39999961853</ele>
        <time>2018-08-02T08:42:24.000Z</time>
      </trkpt>
      <trkpt lat="47.0956" lon="-1.25323">
        <ele>20.200000762939</ele>
        <time>2018-08-02T08:42:30.000Z</time>
      </trkpt>
      <trkpt lat="47.09563" lon="-1.25334">
        <ele>20.200000762939</ele>
        <time>2018-08-02T08:42:36.000Z</time>
      </trkpt>
      <trkpt lat="47.09564" lon="-1.25337">
        <ele>20.200000762939</ele>
        <time>2018-08-02T08:42:38.000Z</time>
      </trkpt>
      <trkpt lat="47.09568" lon="-1.2535">
        <ele>20.39999961853</ele>
        <time>2018-08-02T08:42:46.000Z</time>
      </trkpt>
      <trkpt lat="47.09568" lon="-1.25351">
        <ele>20.39999961853</ele>
        <time>2018-08-02T08:42:47.000Z</time>
      </trkpt>
      <trkpt lat="47.09568" lon="-1.25356">
        <ele>20.39999961853</ele>
        <time>2018-08-02T08:42:50.000Z</time>
      </trkpt>
      <trkpt lat="47.09568" lon="-1.25367">
        <ele>20.799999237061</ele>
        <time>2018-08-02T08:42:56.000Z</time>
      </trkpt>
      <trkpt lat="47.09568" lon="-1.25369">
        <ele>20.799999237061</ele>
        <time>2018-08-02T08:42:57.000Z</time>
      </trkpt>
      <trkpt lat="47.09567" lon="-1.25384">
        <ele>21.200000762939</ele>
        <time>2018-08-02T08:43:05.000Z</time>
      </trkpt>
      <trkpt lat="47.09567" lon="-1.25386">
        <ele>21.200000762939</ele>
        <time>2018-08-02T08:43:06.000Z</time>
      </trkpt>
      <trkpt lat="47.09567" lon="-1.2539">
        <ele>21.39999961853</ele>
        <time>2018-08-02T08:43:09.000Z</time>
      </trkpt>
      <trkpt lat="47.09566" lon="-1.25407">
        <ele>21.200000762939</ele>
        <time>2018-08-02T08:43:19.000Z</time>
      </trkpt>
      <trkpt lat="47.09566" lon="-1.25408">
        <ele>21</ele>
        <time>2018-08-02T08:43:20.000Z</time>
      </trkpt>
      <trkpt lat="47.09567" lon="-1.25415">
        <ele>21</ele>
        <time>2018-08-02T08:43:24.000Z</time>
      </trkpt>
      <trkpt lat="47.09567" lon="-1.25423">
        <ele>21</ele>
        <time>2018-08-02T08:43:28.000Z</time>
      </trkpt>
      <trkpt lat="47.09568" lon="-1.25437">
        <ele>20.799999237061</ele>
        <time>2018-08-02T08:43:37.000Z</time>
      </trkpt>
      <trkpt lat="47.09568" lon="-1.25438">
        <ele>20.799999237061</ele>
        <time>2018-08-02T08:43:38.000Z</time>
      </trkpt>
      <trkpt lat="47.09567" lon="-1.25445">
        <ele>20.60000038147</ele>
        <time>2018-08-02T08:43:42.000Z</time>
      </trkpt>
      <trkpt lat="47.09567" lon="-1.25449">
        <ele>20.60000038147</ele>
        <time>2018-08-02T08:43:44.000Z</time>
      </trkpt>
      <trkpt lat="47.09566" lon="-1.25475">
        <ele>20.39999961853</ele>
        <time>2018-08-02T08:44:00.000Z</time>
      </trkpt>
      <trkpt lat="47.09565" lon="-1.2549">
        <ele>20.200000762939</ele>
        <time>2018-08-02T08:44:09.000Z</time>
      </trkpt>
      <trkpt lat="47.09565" lon="-1.25492">
        <ele>20.200000762939</ele>
        <time>2018-08-02T08:44:10.000Z</time>
      </trkpt>
      <trkpt lat="47.09561" lon="-1.25509">
        <ele>20.39999961853</ele>
        <time>2018-08-02T08:44:20.000Z</time>
      </trkpt>
      <trkpt lat="47.0956" lon="-1.25509">
        <ele>20.39999961853</ele>
        <time>2018-08-02T08:44:21.000Z</time>
      </trkpt>
      <trkpt lat="47.0956" lon="-1.25512">
        <ele>20.39999961853</ele>
        <time>2018-08-02T08:44:23.000Z</time>
      </trkpt>
      <trkpt lat="47.09559" lon="-1.25515">
        <ele>20.39999961853</ele>
        <time>2018-08-02T08:44:26.000Z</time>
      </trkpt>
      <trkpt lat="47.09558" lon="-1.25519">
        <ele>20.39999961853</ele>
        <time>2018-08-02T08:44:30.000Z</time>
      </trkpt>
      <trkpt lat="47.09557" lon="-1.25525">
        <ele>20.39999961853</ele>
        <time>2018-08-02T08:44:34.000Z</time>
      </trkpt>
      <trkpt lat="47.09556" lon="-1.25526">
        <ele>20.60000038147</ele>
        <time>2018-08-02T08:44:35.000Z</time>
      </trkpt>
      <trkpt lat="47.09555" lon="-1.2553">
        <ele>20.60000038147</ele>
        <time>2018-08-02T08:44:39.000Z</time>
      </trkpt>
      <trkpt lat="47.09544" lon="-1.25545">
        <ele>20.799999237061</ele>
        <time>2018-08-02T08:44:49.000Z</time>
      </trkpt>
      <trkpt lat="47.09543" lon="-1.25546">
        <ele>20.799999237061</ele>
        <time>2018-08-02T08:44:50.000Z</time>
      </trkpt>
      <trkpt lat="47.09537" lon="-1.25556">
        <ele>21</ele>
        <time>2018-08-02T08:45:00.000Z</time>
      </trkpt>
      <trkpt lat="47.09536" lon="-1.25559">
        <ele>21</ele>
        <time>2018-08-02T08:45:03.000Z</time>
      </trkpt>
      <trkpt lat="47.09532" lon="-1.25564">
        <ele>21</ele>
        <time>2018-08-02T08:45:07.000Z</time>
      </trkpt>
      <trkpt lat="47.09531" lon="-1.25566">
        <ele>21</ele>
        <time>2018-08-02T08:45:08.000Z</time>
      </trkpt>
      <trkpt lat="47.09521" lon="-1.25587">
        <ele>20.39999961853</ele>
        <time>2018-08-02T08:45:24.000Z</time>
      </trkpt>
      <trkpt lat="47.09519" lon="-1.25591">
        <ele>20.39999961853</ele>
        <time>2018-08-02T08:45:28.000Z</time>
      </trkpt>
      <trkpt lat="47.09515" lon="-1.25601">
        <ele>20</ele>
        <time>2018-08-02T08:45:35.000Z</time>
      </trkpt>
      <trkpt lat="47.09515" lon="-1.25603">
        <ele>20</ele>
        <time>2018-08-02T08:45:36.000Z</time>
      </trkpt>
      <trkpt lat="47.09513" lon="-1.25606">
        <ele>20</ele>
        <time>2018-08-02T08:45:38.000Z</time>
      </trkpt>
      <trkpt lat="47.09509" lon="-1.25611">
        <ele>19.799999237061</ele>
        <time>2018-08-02T08:45:42.000Z</time>
      </trkpt>
      <trkpt lat="47.09501" lon="-1.25625">
        <ele>19.60000038147</ele>
        <time>2018-08-02T08:45:52.000Z</time>
      </trkpt>
      <trkpt lat="47.09501" lon="-1.25626">
        <ele>19.60000038147</ele>
        <time>2018-08-02T08:45:53.000Z</time>
      </trkpt>
      <trkpt lat="47.09499" lon="-1.2563">
        <ele>19.39999961853</ele>
        <time>2018-08-02T08:45:56.000Z</time>
      </trkpt>
      <trkpt lat="47.09497" lon="-1.2564">
        <ele>19.200000762939</ele>
        <time>2018-08-02T08:46:02.000Z</time>
      </trkpt>
      <trkpt lat="47.09497" lon="-1.25642">
        <ele>19</ele>
        <time>2018-08-02T08:46:03.000Z</time>
      </trkpt>
      <trkpt lat="47.09498" lon="-1.25656">
        <ele>19.200000762939</ele>
        <time>2018-08-02T08:46:12.000Z</time>
      </trkpt>
      <trkpt lat="47.09498" lon="-1.25658">
        <ele>19.200000762939</ele>
        <time>2018-08-02T08:46:13.000Z</time>
      </trkpt>
      <trkpt lat="47.09499" lon="-1.25664">
        <ele>19.200000762939</ele>
        <time>2018-08-02T08:46:17.000Z</time>
      </trkpt>
      <trkpt lat="47.09499" lon="-1.25673">
        <ele>19.200000762939</ele>
        <time>2018-08-02T08:46:21.000Z</time>
      </trkpt>
      <trkpt lat="47.09499" lon="-1.25678">
        <ele>19.200000762939</ele>
        <time>2018-08-02T08:46:23.000Z</time>
      </trkpt>
      <trkpt lat="47.09503" lon="-1.25701">
        <ele>19.200000762939</ele>
        <time>2018-08-02T08:46:36.000Z</time>
      </trkpt>
      <trkpt lat="47.09502" lon="-1.25704">
        <ele>19.200000762939</ele>
        <time>2018-08-02T08:46:37.000Z</time>
      </trkpt>
      <trkpt lat="47.09501" lon="-1.25721">
        <ele>19.200000762939</ele>
        <time>2018-08-02T08:46:48.000Z</time>
      </trkpt>
      <trkpt lat="47.09501" lon="-1.25724">
        <ele>19.200000762939</ele>
        <time>2018-08-02T08:46:50.000Z</time>
      </trkpt>
      <trkpt lat="47.09497" lon="-1.25749">
        <ele>18.799999237061</ele>
        <time>2018-08-02T08:47:06.000Z</time>
      </trkpt>
      <trkpt lat="47.09495" lon="-1.25756">
        <ele>18.799999237061</ele>
        <time>2018-08-02T08:47:12.000Z</time>
      </trkpt>
      <trkpt lat="47.09496" lon="-1.25774">
        <ele>18.60000038147</ele>
        <time>2018-08-02T08:47:22.000Z</time>
      </trkpt>
      <trkpt lat="47.09496" lon="-1.25776">
        <ele>18.60000038147</ele>
        <time>2018-08-02T08:47:23.000Z</time>
      </trkpt>
      <trkpt lat="47.09496" lon="-1.25783">
        <ele>18.39999961853</ele>
        <time>2018-08-02T08:47:27.000Z</time>
      </trkpt>
      <trkpt lat="47.09494" lon="-1.25809">
        <ele>18</ele>
        <time>2018-08-02T08:47:42.000Z</time>
      </trkpt>
      <trkpt lat="47.09493" lon="-1.25812">
        <ele>18</ele>
        <time>2018-08-02T08:47:44.000Z</time>
      </trkpt>
      <trkpt lat="47.09494" lon="-1.25813">
        <ele>18</ele>
        <time>2018-08-02T08:47:45.000Z</time>
      </trkpt>
      <trkpt lat="47.09493" lon="-1.25825">
        <ele>18</ele>
        <time>2018-08-02T08:47:53.000Z</time>
      </trkpt>
      <trkpt lat="47.09492" lon="-1.25827">
        <ele>18</ele>
        <time>2018-08-02T08:47:54.000Z</time>
      </trkpt>
      <trkpt lat="47.09492" lon="-1.25838">
        <ele>18</ele>
        <time>2018-08-02T08:47:59.000Z</time>
      </trkpt>
      <trkpt lat="47.09492" lon="-1.2584">
        <ele>18</ele>
        <time>2018-08-02T08:48:00.000Z</time>
      </trkpt>
      <trkpt lat="47.0949" lon="-1.25855">
        <ele>18</ele>
        <time>2018-08-02T08:48:09.000Z</time>
      </trkpt>
      <trkpt lat="47.0949" lon="-1.25859">
        <ele>18</ele>
        <time>2018-08-02T08:48:11.000Z</time>
      </trkpt>
      <trkpt lat="47.0949" lon="-1.25864">
        <ele>18</ele>
        <time>2018-08-02T08:48:13.000Z</time>
      </trkpt>
      <trkpt lat="47.0949" lon="-1.25874">
        <ele>18</ele>
        <time>2018-08-02T08:48:18.000Z</time>
      </trkpt>
      <trkpt lat="47.09492" lon="-1.259">
        <ele>18.200000762939</ele>
        <time>2018-08-02T08:48:34.000Z</time>
      </trkpt>
      <trkpt lat="47.09491" lon="-1.25915">
        <ele>18.799999237061</ele>
        <time>2018-08-02T08:48:44.000Z</time>
      </trkpt>
      <trkpt lat="47.09491" lon="-1.25916">
        <ele>19</ele>
        <time>2018-08-02T08:48:45.000Z</time>
      </trkpt>
      <trkpt lat="47.09489" lon="-1.25923">
        <ele>19.200000762939</ele>
        <time>2018-08-02T08:48:49.000Z</time>
      </trkpt>
      <trkpt lat="47.09488" lon="-1.25932">
        <ele>19.60000038147</ele>
        <time>2018-08-02T08:48:55.000Z</time>
      </trkpt>
      <trkpt lat="47.09488" lon="-1.25934">
        <ele>19.799999237061</ele>
        <time>2018-08-02T08:48:56.000Z</time>
      </trkpt>
      <trkpt lat="47.0949" lon="-1.25946">
        <ele>20.39999961853</ele>
        <time>2018-08-02T08:49:01.000Z</time>
      </trkpt>
      <trkpt lat="47.09491" lon="-1.25949">
        <ele>20.60000038147</ele>
        <time>2018-08-02T08:49:03.000Z</time>
      </trkpt>
      <trkpt lat="47.09489" lon="-1.25968">
        <ele>21.39999961853</ele>
        <time>2018-08-02T08:49:14.000Z</time>
      </trkpt>
      <trkpt lat="47.09489" lon="-1.2597">
        <ele>21.39999961853</ele>
        <time>2018-08-02T08:49:15.000Z</time>
      </trkpt>
      <trkpt lat="47.09489" lon="-1.25976">
        <ele>21.799999237061</ele>
        <time>2018-08-02T08:49:19.000Z</time>
      </trkpt>
      <trkpt lat="47.09488" lon="-1.25985">
        <ele>22.39999961853</ele>
        <time>2018-08-02T08:49:24.000Z</time>
      </trkpt>
      <trkpt lat="47.09488" lon="-1.25986">
        <ele>22.60000038147</ele>
        <time>2018-08-02T08:49:25.000Z</time>
      </trkpt>
      <trkpt lat="47.09483" lon="-1.25996">
        <ele>23.39999961853</ele>
        <time>2018-08-02T08:49:32.000Z</time>
      </trkpt>
      <trkpt lat="47.09482" lon="-1.25998">
        <ele>23.39999961853</ele>
        <time>2018-08-02T08:49:33.000Z</time>
      </trkpt>
      <trkpt lat="47.09479" lon="-1.26003">
        <ele>24</ele>
        <time>2018-08-02T08:49:38.000Z</time>
      </trkpt>
      <trkpt lat="47.09478" lon="-1.26004">
        <ele>24</ele>
        <time>2018-08-02T08:49:39.000Z</time>
      </trkpt>
      <trkpt lat="47.09474" lon="-1.26011">
        <ele>24.60000038147</ele>
        <time>2018-08-02T08:49:46.000Z</time>
      </trkpt>
      <trkpt lat="47.09474" lon="-1.26012">
        <ele>24.60000038147</ele>
        <time>2018-08-02T08:49:47.000Z</time>
      </trkpt>
      <trkpt lat="47.09472" lon="-1.26015">
        <ele>24.799999237061</ele>
        <time>2018-08-02T08:49:50.000Z</time>
      </trkpt>
      <trkpt lat="47.09466" lon="-1.26022">
        <ele>25.39999961853</ele>
        <time>2018-08-02T08:49:59.000Z</time>
      </trkpt>
      <trkpt lat="47.09463" lon="-1.26025">
        <ele>25.60000038147</ele>
        <time>2018-08-02T08:50:02.000Z</time>
      </trkpt>
      <trkpt lat="47.09461" lon="-1.26027">
        <ele>25.799999237061</ele>
        <time>2018-08-02T08:50:04.000Z</time>
      </trkpt>
      <trkpt lat="47.09456" lon="-1.2603">
        <ele>26</ele>
        <time>2018-08-02T08:50:09.000Z</time>
      </trkpt>
      <trkpt lat="47.09455" lon="-1.26031">
        <ele>26</ele>
        <time>2018-08-02T08:50:10.000Z</time>
      </trkpt>
      <trkpt lat="47.09446" lon="-1.26034">
        <ele>26.200000762939</ele>
        <time>2018-08-02T08:50:18.000Z</time>
      </trkpt>
      <trkpt lat="47.09446" lon="-1.26034">
        <ele>26.200000762939</ele>
        <time>2018-08-02T08:50:19.000Z</time>
      </trkpt>
      <trkpt lat="47.09436" lon="-1.26041">
        <ele>26.60000038147</ele>
        <time>2018-08-02T08:50:32.000Z</time>
      </trkpt>
      <trkpt lat="47.09435" lon="-1.26042">
        <ele>26.60000038147</ele>
        <time>2018-08-02T08:50:34.000Z</time>
      </trkpt>
      <trkpt lat="47.09428" lon="-1.26047">
        <ele>27</ele>
        <time>2018-08-02T08:50:42.000Z</time>
      </trkpt>
      <trkpt lat="47.09424" lon="-1.26048">
        <ele>27</ele>
        <time>2018-08-02T08:50:46.000Z</time>
      </trkpt>
      <trkpt lat="47.09423" lon="-1.26048">
        <ele>27</ele>
        <time>2018-08-02T08:50:47.000Z</time>
      </trkpt>
      <trkpt lat="47.09417" lon="-1.26047">
        <ele>26.799999237061</ele>
        <time>2018-08-02T08:50:52.000Z</time>
      </trkpt>
      <trkpt lat="47.09403" lon="-1.26048">
        <ele>26.60000038147</ele>
        <time>2018-08-02T08:51:05.000Z</time>
      </trkpt>
      <trkpt lat="47.09402" lon="-1.26048">
        <ele>26.60000038147</ele>
        <time>2018-08-02T08:51:06.000Z</time>
      </trkpt>
      <trkpt lat="47.09397" lon="-1.26051">
        <ele>26.60000038147</ele>
        <time>2018-08-02T08:51:12.000Z</time>
      </trkpt>
      <trkpt lat="47.09396" lon="-1.26051">
        <ele>26.799999237061</ele>
        <time>2018-08-02T08:51:14.000Z</time>
      </trkpt>
      <trkpt lat="47.09394" lon="-1.26052">
        <ele>26.799999237061</ele>
        <time>2018-08-02T08:51:16.000Z</time>
      </trkpt>
      <trkpt lat="47.09388" lon="-1.26055">
        <ele>26.799999237061</ele>
        <time>2018-08-02T08:51:23.000Z</time>
      </trkpt>
      <trkpt lat="47.09387" lon="-1.26055">
        <ele>26.799999237061</ele>
        <time>2018-08-02T08:51:24.000Z</time>
      </trkpt>
      <trkpt lat="47.09384" lon="-1.26054">
        <ele>26.60000038147</ele>
        <time>2018-08-02T08:51:27.000Z</time>
      </trkpt>
      <trkpt lat="47.09378" lon="-1.2606">
        <ele>27</ele>
        <time>2018-08-02T08:51:34.000Z</time>
      </trkpt>
      <trkpt lat="47.09377" lon="-1.26061">
        <ele>27</ele>
        <time>2018-08-02T08:51:35.000Z</time>
      </trkpt>
      <trkpt lat="47.09374" lon="-1.26067">
        <ele>27.39999961853</ele>
        <time>2018-08-02T08:51:40.000Z</time>
      </trkpt>
      <trkpt lat="47.09373" lon="-1.26068">
        <ele>27.39999961853</ele>
        <time>2018-08-02T08:51:41.000Z</time>
      </trkpt>
      <trkpt lat="47.09371" lon="-1.26071">
        <ele>27.60000038147</ele>
        <time>2018-08-02T08:51:44.000Z</time>
      </trkpt>
      <trkpt lat="47.09356" lon="-1.26079">
        <ele>27.799999237061</ele>
        <time>2018-08-02T08:52:00.000Z</time>
      </trkpt>
      <trkpt lat="47.09355" lon="-1.26079">
        <ele>27.799999237061</ele>
        <time>2018-08-02T08:52:01.000Z</time>
      </trkpt>
      <trkpt lat="47.09353" lon="-1.26079">
        <ele>27.799999237061</ele>
        <time>2018-08-02T08:52:03.000Z</time>
      </trkpt>
      <trkpt lat="47.0935" lon="-1.26081">
        <ele>27.799999237061</ele>
        <time>2018-08-02T08:52:07.000Z</time>
      </trkpt>
      <trkpt lat="47.09348" lon="-1.26081">
        <ele>27.799999237061</ele>
        <time>2018-08-02T08:52:09.000Z</time>
      </trkpt>
      <trkpt lat="47.09345" lon="-1.26082">
        <ele>27.799999237061</ele>
        <time>2018-08-02T08:52:13.000Z</time>
      </trkpt>
      <trkpt lat="47.09342" lon="-1.26083">
        <ele>27.799999237061</ele>
        <time>2018-08-02T08:52:18.000Z</time>
      </trkpt>
      <trkpt lat="47.09337" lon="-1.26085">
        <ele>27.799999237061</ele>
        <time>2018-08-02T08:52:25.000Z</time>
      </trkpt>
      <trkpt lat="47.09336" lon="-1.26086">
        <ele>28</ele>
        <time>2018-08-02T08:52:27.000Z</time>
      </trkpt>
      <trkpt lat="47.09334" lon="-1.26088">
        <ele>28</ele>
        <time>2018-08-02T08:52:30.000Z</time>
      </trkpt>
      <trkpt lat="47.09329" lon="-1.26093">
        <ele>28.200000762939</ele>
        <time>2018-08-02T08:52:36.000Z</time>
      </trkpt>
      <trkpt lat="47.09328" lon="-1.26095">
        <ele>28.39999961853</ele>
        <time>2018-08-02T08:52:37.000Z</time>
      </trkpt>
      <trkpt lat="47.09324" lon="-1.26102">
        <ele>28.799999237061</ele>
        <time>2018-08-02T08:52:43.000Z</time>
      </trkpt>
      <trkpt lat="47.09323" lon="-1.26104">
        <ele>28.799999237061</ele>
        <time>2018-08-02T08:52:45.000Z</time>
      </trkpt>
      <trkpt lat="47.09323" lon="-1.26108">
        <ele>29</ele>
        <time>2018-08-02T08:52:50.000Z</time>
      </trkpt>
      <trkpt lat="47.09316" lon="-1.26112">
        <ele>29</ele>
        <time>2018-08-02T08:52:56.000Z</time>
      </trkpt>
      <trkpt lat="47.09312" lon="-1.26116">
        <ele>29</ele>
        <time>2018-08-02T08:53:00.000Z</time>
      </trkpt>
      <trkpt lat="47.09311" lon="-1.26117">
        <ele>29</ele>
        <time>2018-08-02T08:53:01.000Z</time>
      </trkpt>
      <trkpt lat="47.09298" lon="-1.26136">
        <ele>29.60000038147</ele>
        <time>2018-08-02T08:53:16.000Z</time>
      </trkpt>
      <trkpt lat="47.09286" lon="-1.26157">
        <ele>30</ele>
        <time>2018-08-02T08:53:32.000Z</time>
      </trkpt>
      <trkpt lat="47.09281" lon="-1.26163">
        <ele>30</ele>
        <time>2018-08-02T08:53:37.000Z</time>
      </trkpt>
      <trkpt lat="47.0928" lon="-1.26164">
        <ele>29.799999237061</ele>
        <time>2018-08-02T08:53:38.000Z</time>
      </trkpt>
      <trkpt lat="47.09273" lon="-1.26177">
        <ele>30</ele>
        <time>2018-08-02T08:53:48.000Z</time>
      </trkpt>
      <trkpt lat="47.09272" lon="-1.26178">
        <ele>30</ele>
        <time>2018-08-02T08:53:49.000Z</time>
      </trkpt>
      <trkpt lat="47.09269" lon="-1.26192">
        <ele>30.200000762939</ele>
        <time>2018-08-02T08:53:57.000Z</time>
      </trkpt>
      <trkpt lat="47.09269" lon="-1.26196">
        <ele>30.39999961853</ele>
        <time>2018-08-02T08:53:59.000Z</time>
      </trkpt>
      <trkpt lat="47.09269" lon="-1.262">
        <ele>30.60000038147</ele>
        <time>2018-08-02T08:54:01.000Z</time>
      </trkpt>
      <trkpt lat="47.09282" lon="-1.26219">
        <ele>31.200000762939</ele>
        <time>2018-08-02T08:54:18.000Z</time>
      </trkpt>
      <trkpt lat="47.09287" lon="-1.26227">
        <ele>31.60000038147</ele>
        <time>2018-08-02T08:54:24.000Z</time>
      </trkpt>
      <trkpt lat="47.09288" lon="-1.26228">
        <ele>31.60000038147</ele>
        <time>2018-08-02T08:54:25.000Z</time>
      </trkpt>
      <trkpt lat="47.09293" lon="-1.26237">
        <ele>32</ele>
        <time>2018-08-02T08:54:32.000Z</time>
      </trkpt>
      <trkpt lat="47.09294" lon="-1.26239">
        <ele>32</ele>
        <time>2018-08-02T08:54:33.000Z</time>
      </trkpt>
      <trkpt lat="47.09296" lon="-1.26243">
        <ele>32</ele>
        <time>2018-08-02T08:54:36.000Z</time>
      </trkpt>
      <trkpt lat="47.09289" lon="-1.26266">
        <ele>32.200000762939</ele>
        <time>2018-08-02T08:54:51.000Z</time>
      </trkpt>
      <trkpt lat="47.09278" lon="-1.26285">
        <ele>31.799999237061</ele>
        <time>2018-08-02T08:55:05.000Z</time>
      </trkpt>
      <trkpt lat="47.09277" lon="-1.26287">
        <ele>31.799999237061</ele>
        <time>2018-08-02T08:55:06.000Z</time>
      </trkpt>
      <trkpt lat="47.09268" lon="-1.263">
        <ele>31.60000038147</ele>
        <time>2018-08-02T08:55:17.000Z</time>
      </trkpt>
      <trkpt lat="47.09267" lon="-1.26302">
        <ele>31.60000038147</ele>
        <time>2018-08-02T08:55:18.000Z</time>
      </trkpt>
      <trkpt lat="47.09253" lon="-1.26321">
        <ele>31.200000762939</ele>
        <time>2018-08-02T08:55:33.000Z</time>
      </trkpt>
      <trkpt lat="47.09243" lon="-1.26337">
        <ele>31</ele>
        <time>2018-08-02T08:55:45.000Z</time>
      </trkpt>
      <trkpt lat="47.09242" lon="-1.26339">
        <ele>31</ele>
        <time>2018-08-02T08:55:46.000Z</time>
      </trkpt>
      <trkpt lat="47.0924" lon="-1.26342">
        <ele>30.799999237061</ele>
        <time>2018-08-02T08:55:49.000Z</time>
      </trkpt>
      <trkpt lat="47.09235" lon="-1.26349">
        <ele>30.39999961853</ele>
        <time>2018-08-02T08:55:54.000Z</time>
      </trkpt>
      <trkpt lat="47.09234" lon="-1.2635">
        <ele>30.39999961853</ele>
        <time>2018-08-02T08:55:55.000Z</time>
      </trkpt>
      <trkpt lat="47.09231" lon="-1.26357">
        <ele>30</ele>
        <time>2018-08-02T08:55:59.000Z</time>
      </trkpt>
      <trkpt lat="47.0923" lon="-1.26359">
        <ele>30</ele>
        <time>2018-08-02T08:56:00.000Z</time>
      </trkpt>
      <trkpt lat="47.09226" lon="-1.26366">
        <ele>29.799999237061</ele>
        <time>2018-08-02T08:56:05.000Z</time>
      </trkpt>
      <trkpt lat="47.09225" lon="-1.26368">
        <ele>29.60000038147</ele>
        <time>2018-08-02T08:56:06.000Z</time>
      </trkpt>
      <trkpt lat="47.09223" lon="-1.26373">
        <ele>29.60000038147</ele>
        <time>2018-08-02T08:56:09.000Z</time>
      </trkpt>
      <trkpt lat="47.0922" lon="-1.26379">
        <ele>29.39999961853</ele>
        <time>2018-08-02T08:56:13.000Z</time>
      </trkpt>
      <trkpt lat="47.09218" lon="-1.26382">
        <ele>29.200000762939</ele>
        <time>2018-08-02T08:56:15.000Z</time>
      </trkpt>
      <trkpt lat="47.09222" lon="-1.26407">
        <ele>29.39999961853</ele>
        <time>2018-08-02T08:56:31.000Z</time>
      </trkpt>
      <trkpt lat="47.09225" lon="-1.26411">
        <ele>29.799999237061</ele>
        <time>2018-08-02T08:56:35.000Z</time>
      </trkpt>
      <trkpt lat="47.09226" lon="-1.26412">
        <ele>29.799999237061</ele>
        <time>2018-08-02T08:56:36.000Z</time>
      </trkpt>
      <trkpt lat="47.09236" lon="-1.26428">
        <ele>30.60000038147</ele>
        <time>2018-08-02T08:56:49.000Z</time>
      </trkpt>
      <trkpt lat="47.09237" lon="-1.26429">
        <ele>30.60000038147</ele>
        <time>2018-08-02T08:56:50.000Z</time>
      </trkpt>
      <trkpt lat="47.09245" lon="-1.26443">
        <ele>31</ele>
        <time>2018-08-02T08:57:01.000Z</time>
      </trkpt>
      <trkpt lat="47.09248" lon="-1.26448">
        <ele>31.200000762939</ele>
        <time>2018-08-02T08:57:04.000Z</time>
      </trkpt>
      <trkpt lat="47.09246" lon="-1.26464">
        <ele>31</ele>
        <time>2018-08-02T08:57:20.000Z</time>
      </trkpt>
      <trkpt lat="47.09245" lon="-1.26464">
        <ele>31</ele>
        <time>2018-08-02T08:57:21.000Z</time>
      </trkpt>
      <trkpt lat="47.09232" lon="-1.26461">
        <ele>30.200000762939</ele>
        <time>2018-08-02T08:57:33.000Z</time>
      </trkpt>
      <trkpt lat="47.0923" lon="-1.2646">
        <ele>30</ele>
        <time>2018-08-02T08:57:35.000Z</time>
      </trkpt>
      <trkpt lat="47.09223" lon="-1.26457">
        <ele>29.60000038147</ele>
        <time>2018-08-02T08:57:41.000Z</time>
      </trkpt>
      <trkpt lat="47.09221" lon="-1.26457">
        <ele>29.39999961853</ele>
        <time>2018-08-02T08:57:42.000Z</time>
      </trkpt>
      <trkpt lat="47.09213" lon="-1.26455">
        <ele>28.799999237061</ele>
        <time>2018-08-02T08:57:48.000Z</time>
      </trkpt>
      <trkpt lat="47.09212" lon="-1.26454">
        <ele>28.799999237061</ele>
        <time>2018-08-02T08:57:49.000Z</time>
      </trkpt>
      <trkpt lat="47.092" lon="-1.2645">
        <ele>28</ele>
        <time>2018-08-02T08:57:59.000Z</time>
      </trkpt>
      <trkpt lat="47.09199" lon="-1.2645">
        <ele>27.799999237061</ele>
        <time>2018-08-02T08:58:00.000Z</time>
      </trkpt>
      <trkpt lat="47.09181" lon="-1.26449">
        <ele>26.60000038147</ele>
        <time>2018-08-02T08:58:16.000Z</time>
      </trkpt>
      <trkpt lat="47.09166" lon="-1.26438">
        <ele>25.39999961853</ele>
        <time>2018-08-02T08:58:32.000Z</time>
      </trkpt>
      <trkpt lat="47.0918" lon="-1.26424">
        <ele>26.39999961853</ele>
        <time>2018-08-02T08:58:46.000Z</time>
      </trkpt>
      <trkpt lat="47.09171" lon="-1.26406">
        <ele>25.799999237061</ele>
        <time>2018-08-02T08:59:02.000Z</time>
      </trkpt>
      <trkpt lat="47.09154" lon="-1.26409">
        <ele>24.60000038147</ele>
        <time>2018-08-02T08:59:22.000Z</time>
      </trkpt>
      <trkpt lat="47.09151" lon="-1.26415">
        <ele>24.39999961853</ele>
        <time>2018-08-02T08:59:26.000Z</time>
      </trkpt>
      <trkpt lat="47.0915" lon="-1.26417">
        <ele>24.200000762939</ele>
        <time>2018-08-02T08:59:28.000Z</time>
      </trkpt>
      <trkpt lat="47.09149" lon="-1.2642">
        <ele>24.200000762939</ele>
        <time>2018-08-02T08:59:30.000Z</time>
      </trkpt>
      <trkpt lat="47.09146" lon="-1.26428">
        <ele>24</ele>
        <time>2018-08-02T08:59:36.000Z</time>
      </trkpt>
      <trkpt lat="47.09145" lon="-1.26431">
        <ele>24</ele>
        <time>2018-08-02T08:59:38.000Z</time>
      </trkpt>
      <trkpt lat="47.09144" lon="-1.26435">
        <ele>23.799999237061</ele>
        <time>2018-08-02T08:59:42.000Z</time>
      </trkpt>
      <trkpt lat="47.09143" lon="-1.26437">
        <ele>23.799999237061</ele>
        <time>2018-08-02T08:59:44.000Z</time>
      </trkpt>
      <trkpt lat="47.09145" lon="-1.26443">
        <ele>23.799999237061</ele>
        <time>2018-08-02T08:59:53.000Z</time>
      </trkpt>
      <trkpt lat="47.09142" lon="-1.26446">
        <ele>23.799999237061</ele>
        <time>2018-08-02T08:59:56.000Z</time>
      </trkpt>
      <trkpt lat="47.09134" lon="-1.26441">
        <ele>23.200000762939</ele>
        <time>2018-08-02T09:00:18.000Z</time>
      </trkpt>
      <trkpt lat="47.09131" lon="-1.26422">
        <ele>23</ele>
        <time>2018-08-02T09:00:56.000Z</time>
      </trkpt>
      <trkpt lat="47.09128" lon="-1.2642">
        <ele>22.799999237061</ele>
        <time>2018-08-02T09:01:00.000Z</time>
      </trkpt>
      <trkpt lat="47.09123" lon="-1.26419">
        <ele>22.39999961853</ele>
        <time>2018-08-02T09:01:08.000Z</time>
      </trkpt>
      <trkpt lat="47.09118" lon="-1.26417">
        <ele>22</ele>
        <time>2018-08-02T09:01:13.000Z</time>
      </trkpt>
      <trkpt lat="47.0911" lon="-1.26417">
        <ele>21.39999961853</ele>
        <time>2018-08-02T09:01:19.000Z</time>
      </trkpt>
      <trkpt lat="47.09103" lon="-1.26416">
        <ele>21</ele>
        <time>2018-08-02T09:01:25.000Z</time>
      </trkpt>
      <trkpt lat="47.09102" lon="-1.26415">
        <ele>20.799999237061</ele>
        <time>2018-08-02T09:01:26.000Z</time>
      </trkpt>
      <trkpt lat="47.09097" lon="-1.26414">
        <ele>20.39999961853</ele>
        <time>2018-08-02T09:01:30.000Z</time>
      </trkpt>
      <trkpt lat="47.09091" lon="-1.26411">
        <ele>20</ele>
        <time>2018-08-02T09:01:35.000Z</time>
      </trkpt>
      <trkpt lat="47.0909" lon="-1.26411">
        <ele>20</ele>
        <time>2018-08-02T09:01:36.000Z</time>
      </trkpt>
      <trkpt lat="47.09088" lon="-1.26411">
        <ele>19.799999237061</ele>
        <time>2018-08-02T09:01:38.000Z</time>
      </trkpt>
      <trkpt lat="47.09083" lon="-1.26407">
        <ele>19.39999961853</ele>
        <time>2018-08-02T09:01:41.000Z</time>
      </trkpt>
      <trkpt lat="47.0908" lon="-1.26405">
        <ele>19.200000762939</ele>
        <time>2018-08-02T09:01:44.000Z</time>
      </trkpt>
      <trkpt lat="47.09076" lon="-1.26399">
        <ele>19</ele>
        <time>2018-08-02T09:01:53.000Z</time>
      </trkpt>
      <trkpt lat="47.09074" lon="-1.2639">
        <ele>19.39999961853</ele>
        <time>2018-08-02T09:02:05.000Z</time>
      </trkpt>
      <trkpt lat="47.0907" lon="-1.26387">
        <ele>19.799999237061</ele>
        <time>2018-08-02T09:02:14.000Z</time>
      </trkpt>
      <trkpt lat="47.09069" lon="-1.2639">
        <ele>19.799999237061</ele>
        <time>2018-08-02T09:02:16.000Z</time>
      </trkpt>
      <trkpt lat="47.09054" lon="-1.2641">
        <ele>21.200000762939</ele>
        <time>2018-08-02T09:02:29.000Z</time>
      </trkpt>
      <trkpt lat="47.09052" lon="-1.26412">
        <ele>21.39999961853</ele>
        <time>2018-08-02T09:02:32.000Z</time>
      </trkpt>
      <trkpt lat="47.09047" lon="-1.26415">
        <ele>22</ele>
        <time>2018-08-02T09:02:38.000Z</time>
      </trkpt>
      <trkpt lat="47.09042" lon="-1.26417">
        <ele>22.39999961853</ele>
        <time>2018-08-02T09:02:46.000Z</time>
      </trkpt>
      <trkpt lat="47.09034" lon="-1.26416">
        <ele>23.39999961853</ele>
        <time>2018-08-02T09:02:58.000Z</time>
      </trkpt>
      <trkpt lat="47.09032" lon="-1.26416">
        <ele>23.60000038147</ele>
        <time>2018-08-02T09:03:00.000Z</time>
      </trkpt>
      <trkpt lat="47.0903" lon="-1.26414">
        <ele>23.799999237061</ele>
        <time>2018-08-02T09:03:03.000Z</time>
      </trkpt>
      <trkpt lat="47.0902" lon="-1.26401">
        <ele>25</ele>
        <time>2018-08-02T09:03:21.000Z</time>
      </trkpt>
      <trkpt lat="47.09014" lon="-1.26395">
        <ele>25.799999237061</ele>
        <time>2018-08-02T09:03:33.000Z</time>
      </trkpt>
      <trkpt lat="47.09012" lon="-1.26394">
        <ele>26</ele>
        <time>2018-08-02T09:03:36.000Z</time>
      </trkpt>
      <trkpt lat="47.09011" lon="-1.26392">
        <ele>26.200000762939</ele>
        <time>2018-08-02T09:03:38.000Z</time>
      </trkpt>
      <trkpt lat="47.09009" lon="-1.26391">
        <ele>26.39999961853</ele>
        <time>2018-08-02T09:03:42.000Z</time>
      </trkpt>
      <trkpt lat="47.09005" lon="-1.26386">
        <ele>26.799999237061</ele>
        <time>2018-08-02T09:04:42.000Z</time>
      </trkpt>
      <trkpt lat="47.09" lon="-1.26387">
        <ele>27.39999961853</ele>
        <time>2018-08-02T09:04:48.000Z</time>
      </trkpt>
      <trkpt lat="47.08998" lon="-1.26387">
        <ele>27.60000038147</ele>
        <time>2018-08-02T09:04:50.000Z</time>
      </trkpt>
      <trkpt lat="47.08993" lon="-1.26388">
        <ele>28.39999961853</ele>
        <time>2018-08-02T09:04:57.000Z</time>
      </trkpt>
      <trkpt lat="47.0899" lon="-1.26387">
        <ele>28.60000038147</ele>
        <time>2018-08-02T09:05:00.000Z</time>
      </trkpt>
      <trkpt lat="47.08988" lon="-1.26386">
        <ele>28.799999237061</ele>
        <time>2018-08-02T09:05:02.000Z</time>
      </trkpt>
      <trkpt lat="47.08984" lon="-1.26386">
        <ele>29.200000762939</ele>
        <time>2018-08-02T09:05:07.000Z</time>
      </trkpt>
      <trkpt lat="47.0897" lon="-1.26381">
        <ele>30.799999237061</ele>
        <time>2018-08-02T09:05:22.000Z</time>
      </trkpt>
      <trkpt lat="47.08969" lon="-1.26381">
        <ele>30.799999237061</ele>
        <time>2018-08-02T09:05:23.000Z</time>
      </trkpt>
      <trkpt lat="47.08961" lon="-1.26378">
        <ele>31.799999237061</ele>
        <time>2018-08-02T09:05:31.000Z</time>
      </trkpt>
      <trkpt lat="47.0896" lon="-1.26378">
        <ele>31.799999237061</ele>
        <time>2018-08-02T09:05:32.000Z</time>
      </trkpt>
      <trkpt lat="47.08956" lon="-1.26376">
        <ele>32.400001525879</ele>
        <time>2018-08-02T09:05:36.000Z</time>
      </trkpt>
      <trkpt lat="47.08954" lon="-1.26375">
        <ele>32.599998474121</ele>
        <time>2018-08-02T09:05:38.000Z</time>
      </trkpt>
      <trkpt lat="47.08949" lon="-1.26373">
        <ele>33</ele>
        <time>2018-08-02T09:05:42.000Z</time>
      </trkpt>
      <trkpt lat="47.08942" lon="-1.26373">
        <ele>33.799999237061</ele>
        <time>2018-08-02T09:05:50.000Z</time>
      </trkpt>
      <trkpt lat="47.08941" lon="-1.26373">
        <ele>33.799999237061</ele>
        <time>2018-08-02T09:05:51.000Z</time>
      </trkpt>
      <trkpt lat="47.08927" lon="-1.2639">
        <ele>34.599998474121</ele>
        <time>2018-08-02T09:06:07.000Z</time>
      </trkpt>
      <trkpt lat="47.08913" lon="-1.26408">
        <ele>35.599998474121</ele>
        <time>2018-08-02T09:06:22.000Z</time>
      </trkpt>
      <trkpt lat="47.08905" lon="-1.2642">
        <ele>35.799999237061</ele>
        <time>2018-08-02T09:06:32.000Z</time>
      </trkpt>
      <trkpt lat="47.08904" lon="-1.26421">
        <ele>36</ele>
        <time>2018-08-02T09:06:33.000Z</time>
      </trkpt>
      <trkpt lat="47.08902" lon="-1.26427">
        <ele>36</ele>
        <time>2018-08-02T09:06:37.000Z</time>
      </trkpt>
      <trkpt lat="47.08901" lon="-1.26429">
        <ele>36</ele>
        <time>2018-08-02T09:06:38.000Z</time>
      </trkpt>
      <trkpt lat="47.08899" lon="-1.26434">
        <ele>36</ele>
        <time>2018-08-02T09:06:42.000Z</time>
      </trkpt>
      <trkpt lat="47.08891" lon="-1.26449">
        <ele>36</ele>
        <time>2018-08-02T09:06:53.000Z</time>
      </trkpt>
      <trkpt lat="47.0889" lon="-1.2645">
        <ele>36</ele>
        <time>2018-08-02T09:06:54.000Z</time>
      </trkpt>
      <trkpt lat="47.08883" lon="-1.26466">
        <ele>36.200000762939</ele>
        <time>2018-08-02T09:07:05.000Z</time>
      </trkpt>
      <trkpt lat="47.08882" lon="-1.26467">
        <ele>36.200000762939</ele>
        <time>2018-08-02T09:07:06.000Z</time>
      </trkpt>
      <trkpt lat="47.08872" lon="-1.26488">
        <ele>36.200000762939</ele>
        <time>2018-08-02T09:07:22.000Z</time>
      </trkpt>
      <trkpt lat="47.08871" lon="-1.2649">
        <ele>36.200000762939</ele>
        <time>2018-08-02T09:07:23.000Z</time>
      </trkpt>
      <trkpt lat="47.08861" lon="-1.26512">
        <ele>36.400001525879</ele>
        <time>2018-08-02T09:07:38.000Z</time>
      </trkpt>
      <trkpt lat="47.08855" lon="-1.26523">
        <ele>36.400001525879</ele>
        <time>2018-08-02T09:07:46.000Z</time>
      </trkpt>
      <trkpt lat="47.08855" lon="-1.26524">
        <ele>36.400001525879</ele>
        <time>2018-08-02T09:07:47.000Z</time>
      </trkpt>
      <trkpt lat="47.08848" lon="-1.26533">
        <ele>36.599998474121</ele>
        <time>2018-08-02T09:07:55.000Z</time>
      </trkpt>
      <trkpt lat="47.08847" lon="-1.26534">
        <ele>36.599998474121</ele>
        <time>2018-08-02T09:07:56.000Z</time>
      </trkpt>
      <trkpt lat="47.08832" lon="-1.26551">
        <ele>37</ele>
        <time>2018-08-02T09:08:12.000Z</time>
      </trkpt>
      <trkpt lat="47.08826" lon="-1.2656">
        <ele>37</ele>
        <time>2018-08-02T09:08:20.000Z</time>
      </trkpt>
      <trkpt lat="47.08825" lon="-1.26561">
        <ele>37</ele>
        <time>2018-08-02T09:08:21.000Z</time>
      </trkpt>
      <trkpt lat="47.0881" lon="-1.26577">
        <ele>37</ele>
        <time>2018-08-02T09:08:35.000Z</time>
      </trkpt>
      <trkpt lat="47.08809" lon="-1.26579">
        <ele>37</ele>
        <time>2018-08-02T09:08:36.000Z</time>
      </trkpt>
      <trkpt lat="47.08808" lon="-1.2658">
        <ele>37</ele>
        <time>2018-08-02T09:08:37.000Z</time>
      </trkpt>
      <trkpt lat="47.08793" lon="-1.26597">
        <ele>37</ele>
        <time>2018-08-02T09:08:52.000Z</time>
      </trkpt>
      <trkpt lat="47.0878" lon="-1.26615">
        <ele>36.599998474121</ele>
        <time>2018-08-02T09:09:07.000Z</time>
      </trkpt>
      <trkpt lat="47.08779" lon="-1.26617">
        <ele>36.599998474121</ele>
        <time>2018-08-02T09:09:08.000Z</time>
      </trkpt>
      <trkpt lat="47.08768" lon="-1.26639">
        <ele>36.200000762939</ele>
        <time>2018-08-02T09:09:24.000Z</time>
      </trkpt>
      <trkpt lat="47.08767" lon="-1.26641">
        <ele>36</ele>
        <time>2018-08-02T09:09:25.000Z</time>
      </trkpt>
      <trkpt lat="47.08761" lon="-1.26652">
        <ele>36</ele>
        <time>2018-08-02T09:09:33.000Z</time>
      </trkpt>
      <trkpt lat="47.08761" lon="-1.26654">
        <ele>35.799999237061</ele>
        <time>2018-08-02T09:09:34.000Z</time>
      </trkpt>
      <trkpt lat="47.08757" lon="-1.26661">
        <ele>35.799999237061</ele>
        <time>2018-08-02T09:09:39.000Z</time>
      </trkpt>
      <trkpt lat="47.08755" lon="-1.26664">
        <ele>35.799999237061</ele>
        <time>2018-08-02T09:09:41.000Z</time>
      </trkpt>
      <trkpt lat="47.0875" lon="-1.26676">
        <ele>35.599998474121</ele>
        <time>2018-08-02T09:09:49.000Z</time>
      </trkpt>
      <trkpt lat="47.08749" lon="-1.26677">
        <ele>35.599998474121</ele>
        <time>2018-08-02T09:09:50.000Z</time>
      </trkpt>
      <trkpt lat="47.08747" lon="-1.26681">
        <ele>35.599998474121</ele>
        <time>2018-08-02T09:09:53.000Z</time>
      </trkpt>
      <trkpt lat="47.08742" lon="-1.26688">
        <ele>35.400001525879</ele>
        <time>2018-08-02T09:09:59.000Z</time>
      </trkpt>
      <trkpt lat="47.08742" lon="-1.2669">
        <ele>35.400001525879</ele>
        <time>2018-08-02T09:10:00.000Z</time>
      </trkpt>
      <trkpt lat="47.08739" lon="-1.26693">
        <ele>35.400001525879</ele>
        <time>2018-08-02T09:10:03.000Z</time>
      </trkpt>
      <trkpt lat="47.08735" lon="-1.26701">
        <ele>35.400001525879</ele>
        <time>2018-08-02T09:10:09.000Z</time>
      </trkpt>
      <trkpt lat="47.08734" lon="-1.26702">
        <ele>35.200000762939</ele>
        <time>2018-08-02T09:10:10.000Z</time>
      </trkpt>
      <trkpt lat="47.08731" lon="-1.26707">
        <ele>35.200000762939</ele>
        <time>2018-08-02T09:10:14.000Z</time>
      </trkpt>
      <trkpt lat="47.0873" lon="-1.26708">
        <ele>35.200000762939</ele>
        <time>2018-08-02T09:10:15.000Z</time>
      </trkpt>
      <trkpt lat="47.08719" lon="-1.2673">
        <ele>34.799999237061</ele>
        <time>2018-08-02T09:10:31.000Z</time>
      </trkpt>
      <trkpt lat="47.08706" lon="-1.26751">
        <ele>35.400001525879</ele>
        <time>2018-08-02T09:10:47.000Z</time>
      </trkpt>
      <trkpt lat="47.08695" lon="-1.26773">
        <ele>35.799999237061</ele>
        <time>2018-08-02T09:11:03.000Z</time>
      </trkpt>
      <trkpt lat="47.08686" lon="-1.2679">
        <ele>36</ele>
        <time>2018-08-02T09:11:16.000Z</time>
      </trkpt>
      <trkpt lat="47.08686" lon="-1.26791">
        <ele>36</ele>
        <time>2018-08-02T09:11:17.000Z</time>
      </trkpt>
      <trkpt lat="47.08683" lon="-1.26795">
        <ele>36</ele>
        <time>2018-08-02T09:11:20.000Z</time>
      </trkpt>
      <trkpt lat="47.08674" lon="-1.26811">
        <ele>36.200000762939</ele>
        <time>2018-08-02T09:11:32.000Z</time>
      </trkpt>
      <trkpt lat="47.08673" lon="-1.26814">
        <ele>36.200000762939</ele>
        <time>2018-08-02T09:11:34.000Z</time>
      </trkpt>
      <trkpt lat="47.08671" lon="-1.26819">
        <ele>36.200000762939</ele>
        <time>2018-08-02T09:11:38.000Z</time>
      </trkpt>
      <trkpt lat="47.08659" lon="-1.2684">
        <ele>36.400001525879</ele>
        <time>2018-08-02T09:11:56.000Z</time>
      </trkpt>
      <trkpt lat="47.08654" lon="-1.26841">
        <ele>35.799999237061</ele>
        <time>2018-08-02T09:12:01.000Z</time>
      </trkpt>
      <trkpt lat="47.08652" lon="-1.26842">
        <ele>35.599998474121</ele>
        <time>2018-08-02T09:12:03.000Z</time>
      </trkpt>
      <trkpt lat="47.08654" lon="-1.26841">
        <ele>35.799999237061</ele>
        <time>2018-08-02T09:14:14.000Z</time>
      </trkpt>
      <trkpt lat="47.08655" lon="-1.26836">
        <ele>36</ele>
        <time>2018-08-02T09:14:45.000Z</time>
      </trkpt>
      <trkpt lat="47.08658" lon="-1.26834">
        <ele>36.400001525879</ele>
        <time>2018-08-02T09:14:48.000Z</time>
      </trkpt>
      <trkpt lat="47.08658" lon="-1.26829">
        <ele>36.400001525879</ele>
        <time>2018-08-02T09:16:20.000Z</time>
      </trkpt>
      <trkpt lat="47.08656" lon="-1.26829">
        <ele>36.200000762939</ele>
        <time>2018-08-02T09:16:48.000Z</time>
      </trkpt>
      <trkpt lat="47.08657" lon="-1.26837">
        <ele>36.200000762939</ele>
        <time>2018-08-02T09:17:56.000Z</time>
      </trkpt>
      <trkpt lat="47.0866" lon="-1.26833">
        <ele>36.599998474121</ele>
        <time>2018-08-02T09:18:04.000Z</time>
      </trkpt>
    </trkseg>
  </trk>
</gpx>